Darstellungsparameter: Aktuell verwendete Einstellungen:
Skalierung der Graphiken ... ?
xyx+y,   Skalierungsfaktor:      Skalierung: Modus: x, Faktor: 1
Darstellungszeitraum ... ?
Vom - - bis: - -   Zeitraum: 22.06.2021 - 21.09.2021
Min/Max/Avg-Anzeige ... ?
Zeige MMA aktuell
Zeige MMA Monat
Zeige MMA alles
Zeige --A aktuell
Zeige --A Monat
Zeige --A alles
Keine MMA-Anzeige
MMA:
Minimum Maximum Average (ber die Originaldaten)
MMA-Basis: 22.06.2021 - 21.09.2021
Quicknavigation für Darstellung... ?
Tage:      1T, 2T, 3T, 5T -1T -2T -3T -5T +1T +2T +3T +5T
Wochen: 1W, 2W, 3W -1W -2W -3W +1W +2W +3W
Monate: 1M, 3M, 6M -1M -3M -6M +1M +3M +6M
Jahre:    1J, 3J, 5J, 10J -1J -3J -5J -10J +1J +3J +5J +10J
Nutze für die Darstellung ... ?
Originaldaten oder ...
Mittelwerte Minima Maxima auf...
Stundenbasis Tagesbasis Wochenbasis
Monatsbasis Jahresbasis      Datenbasis: Mittelwerte auf Stundenbasis
Darstellen als:
Statistik (Auto) Statistik J:M      Darstellung:
Zur Graphik,    zurück zur Übersicht aller Sensoren.
 
Tabellarische Datenbersicht: ?
 
Sensor: Nr:Datum:Temp:Abs-Feuchte:Windchill:Wind:
Aussen-T/F 1 22-06-2021 00:00:00 17.14167 C 11.37 g/m*3 17.14 C 12.35833 km/h
2 22-06-2021 01:00:00 16.78333 C 11.4 g/m*3 16.78 C 6.575 km/h
3 22-06-2021 02:00:00 15.6 C 11.87 g/m*3 15.6 C 2.66667 km/h
4 22-06-2021 03:00:00 14.525 C 11.55 g/m*3 14.53 C 1.2 km/h
5 22-06-2021 04:00:00 14.14167 C 11.5 g/m*3 14.14 C 1.33333 km/h
6 22-06-2021 05:00:00 14.31667 C 11.7 g/m*3 14.32 C 0.13333 km/h
7 22-06-2021 06:00:00 14.49167 C 11.93 g/m*3 14.49 C 0.4 km/h
8 22-06-2021 07:00:00 14.55833 C 11.96 g/m*3 14.56 C 1.2 km/h
9 22-06-2021 08:00:00 14.65833 C 11.92 g/m*3 14.66 C 2.55 km/h
10 22-06-2021 09:00:00 14.80833 C 12.03 g/m*3 14.81 C 0.53333 km/h
11 22-06-2021 10:00:00 15.25833 C 12.37 g/m*3 15.26 C 0 km/h
12 22-06-2021 11:00:00 15.5 C 12.48 g/m*3 15.5 C 2.4 km/h
13 22-06-2021 12:00:00 16.11667 C 12.6 g/m*3 16.12 C 2.13333 km/h
14 22-06-2021 13:00:00 16.35833 C 12.82 g/m*3 16.36 C 0.8 km/h
15 22-06-2021 14:00:00 16.01667 C 12.64 g/m*3 16.02 C 1.86667 km/h
16 22-06-2021 15:00:00 15.70833 C 12.58 g/m*3 15.71 C 2.66667 km/h
17 22-06-2021 16:00:00 16.05 C 12.7 g/m*3 16.05 C 2.66667 km/h
18 22-06-2021 17:00:00 16.34167 C 12.93 g/m*3 16.34 C 1.06667 km/h
19 22-06-2021 18:00:00 16.43333 C 13.15 g/m*3 16.43 C 0.53333 km/h
20 22-06-2021 19:00:00 16.25833 C 13.1 g/m*3 16.26 C 1.73333 km/h
21 22-06-2021 20:00:00 16.13333 C 13.05 g/m*3 16.13 C 0.53333 km/h
22 22-06-2021 21:00:00 15.78333 C 12.85 g/m*3 15.78 C 0.53333 km/h
23 22-06-2021 22:00:00 15.675 C 12.83 g/m*3 15.68 C 0.26667 km/h
24 22-06-2021 23:00:00 15.6 C 12.77 g/m*3 15.6 C 0 km/h
25 23-06-2021 00:00:00 15.6 C 12.77 g/m*3 15.6 C 0 km/h
Sensor: Nr:Datum:Temp:Abs-Feuchte:Windchill:Wind:
Aussen-T/F 26 23-06-2021 01:00:00 15.6 C 12.84 g/m*3 15.6 C 0 km/h
27 23-06-2021 02:00:00 15.5 C 12.77 g/m*3 15.5 C 0.26667 km/h
28 23-06-2021 03:00:00 15.375 C 12.73 g/m*3 15.38 C 0 km/h
29 23-06-2021 04:00:00 15.325 C 12.69 g/m*3 15.33 C 0.26667 km/h
30 23-06-2021 05:00:00 15.08333 C 12.5 g/m*3 15.08 C 0.53333 km/h
31 23-06-2021 06:00:00 15.075 C 12.5 g/m*3 15.08 C 0.26667 km/h
32 23-06-2021 07:00:00 15.39167 C 12.74 g/m*3 15.39 C 0.13333 km/h
33 23-06-2021 08:00:00 15.675 C 12.96 g/m*3 15.68 C 0 km/h
34 23-06-2021 09:00:00 15.83333 C 13.06 g/m*3 15.83 C 2.95 km/h
35 23-06-2021 10:00:00 16.475 C 13.18 g/m*3 16.48 C 4.66667 km/h
36 23-06-2021 11:00:00 17.34167 C 13.34 g/m*3 17.34 C 5.075 km/h
37 23-06-2021 12:00:00 18.28333 C 13.58 g/m*3 18.28 C 4.15833 km/h
38 23-06-2021 13:00:00 18.89167 C 13.79 g/m*3 18.89 C 5.89167 km/h
39 23-06-2021 14:00:00 19.68333 C 13.9 g/m*3 19.68 C 7.525 km/h
40 23-06-2021 15:00:00 20.76667 C 14.02 g/m*3 20.77 C 11.43333 km/h
41 23-06-2021 16:00:00 22.05 C 14.16 g/m*3 22.05 C 11.7 km/h
42 23-06-2021 17:00:00 22.575 C 14.16 g/m*3 22.58 C 11.3 km/h
43 23-06-2021 18:00:00 21.85833 C 13.46 g/m*3 21.86 C 11.3 km/h
44 23-06-2021 19:00:00 21.95 C 13.39 g/m*3 21.95 C 9.01667 km/h
45 23-06-2021 20:00:00 21.00833 C 13.55 g/m*3 21.01 C 7.38333 km/h
46 23-06-2021 21:00:00 19.81667 C 13.54 g/m*3 19.82 C 2.95833 km/h
47 23-06-2021 22:00:00 18.15833 C 12.92 g/m*3 18.16 C 6.30833 km/h
48 23-06-2021 23:00:00 17.00833 C 12.51 g/m*3 17.01 C 1.46667 km/h
49 24-06-2021 00:00:00 15.89167 C 12.11 g/m*3 15.89 C 3.73333 km/h
50 24-06-2021 01:00:00 15.90833 C 12.25 g/m*3 15.91 C 3.61667 km/h
Sensor: Nr:Datum:Temp:Abs-Feuchte:Windchill:Wind:
Aussen-T/F 51 24-06-2021 02:00:00 15.825 C 12.17 g/m*3 15.83 C 2.26667 km/h
52 24-06-2021 03:00:00 15.40833 C 12.07 g/m*3 15.41 C 1.6 km/h
53 24-06-2021 04:00:00 15.51667 C 12.04 g/m*3 15.52 C 2.40833 km/h
54 24-06-2021 05:00:00 15.28333 C 11.97 g/m*3 15.28 C 0.93333 km/h
55 24-06-2021 06:00:00 15.21667 C 12.04 g/m*3 15.22 C 0.53333 km/h
56 24-06-2021 07:00:00 15.71667 C 12.27 g/m*3 15.72 C 0.8 km/h
57 24-06-2021 08:00:00 16.7 C 12.71 g/m*3 16.7 C 1.86667 km/h
58 24-06-2021 09:00:00 17.14167 C 12.77 g/m*3 17.14 C 2.26667 km/h
59 24-06-2021 10:00:00 17.63333 C 13.05 g/m*3 17.63 C 2.4 km/h
60 24-06-2021 11:00:00 17.76667 C 13.14 g/m*3 17.77 C 4.55 km/h
61 24-06-2021 12:00:00 18.025 C 13.84 g/m*3 18.02 C 0.53333 km/h
62 24-06-2021 13:00:00 17.91667 C 14.18 g/m*3 17.92 C 0.13333 km/h
63 24-06-2021 14:00:00 18.025 C 14.42 g/m*3 18.02 C 0 km/h
64 24-06-2021 15:00:00 17.93333 C 14.39 g/m*3 17.93 C 0.13333 km/h
65 24-06-2021 16:00:00 17.925 C 14.45 g/m*3 17.93 C 0.8 km/h
66 24-06-2021 17:00:00 18.39167 C 14.84 g/m*3 18.39 C 0.53333 km/h
67 24-06-2021 18:00:00 18.70833 C 14.91 g/m*3 18.71 C 0.53333 km/h
68 24-06-2021 19:00:00 19.04167 C 14.87 g/m*3 19.04 C 0.93333 km/h
69 24-06-2021 20:00:00 18.73333 C 14.81 g/m*3 18.73 C 2 km/h
70 24-06-2021 21:00:00 17.325 C 13.72 g/m*3 17.33 C 4.93333 km/h
71 24-06-2021 22:00:00 16.38333 C 13.21 g/m*3 16.38 C 5.61667 km/h
72 24-06-2021 23:00:00 16.20833 C 13.23 g/m*3 16.21 C 3.6 km/h
73 25-06-2021 00:00:00 16 C 13.08 g/m*3 16 C 5.23333 km/h
74 25-06-2021 01:00:00 15.575 C 12.61 g/m*3 15.58 C 5.90833 km/h
75 25-06-2021 02:00:00 15.39167 C 12.58 g/m*3 15.39 C 2.8 km/h
Sensor: Nr:Datum:Temp:Abs-Feuchte:Windchill:Wind:
Aussen-T/F 76 25-06-2021 03:00:00 15.21667 C 12.47 g/m*3 15.22 C 1.46667 km/h
77 25-06-2021 04:00:00 14.875 C 12.22 g/m*3 14.88 C 3.06667 km/h
78 25-06-2021 05:00:00 14.51667 C 11.95 g/m*3 14.52 C 3.46667 km/h
79 25-06-2021 06:00:00 14.33333 C 11.85 g/m*3 14.33 C 2.53333 km/h
80 25-06-2021 07:00:00 14.84167 C 12.31 g/m*3 14.84 C 0 km/h
81 25-06-2021 08:00:00 15.49167 C 12.66 g/m*3 15.49 C 1.74167 km/h
82 25-06-2021 09:00:00 16.18333 C 12.5 g/m*3 16.18 C 6.71667 km/h
83 25-06-2021 10:00:00 17.075 C 12.74 g/m*3 17.08 C 2.8 km/h
84 25-06-2021 11:00:00 18.45 C 13.13 g/m*3 18.45 C 2.94167 km/h
85 25-06-2021 12:00:00 19.475 C 13.18 g/m*3 19.48 C 3.06667 km/h
86 25-06-2021 13:00:00 19.81667 C 13.07 g/m*3 19.82 C 6.975 km/h
87 25-06-2021 14:00:00 20.825 C 12.56 g/m*3 20.83 C 8.33333 km/h
88 25-06-2021 15:00:00 22.31667 C 12.24 g/m*3 22.32 C 10.20833 km/h
89 25-06-2021 16:00:00 23.425 C 11.99 g/m*3 23.43 C 8.85833 km/h
90 25-06-2021 17:00:00 24.89167 C 11.57 g/m*3 24.89 C 7.50833 km/h
91 25-06-2021 18:00:00 25.35833 C 11.04 g/m*3 25.36 C 7.25833 km/h
92 25-06-2021 19:00:00 24.125 C 11.74 g/m*3 24.13 C 4.95833 km/h
93 25-06-2021 20:00:00 22.44167 C 13.19 g/m*3 22.44 C 1.06667 km/h
94 25-06-2021 21:00:00 18.275 C 12.2 g/m*3 18.27 C 7.53333 km/h
95 25-06-2021 22:00:00 16.2 C 11.6 g/m*3 16.2 C 2.13333 km/h
96 25-06-2021 23:00:00 14.65833 C 11.07 g/m*3 14.66 C 0 km/h
97 26-06-2021 00:00:00 13.93333 C 10.89 g/m*3 13.93 C 3.74167 km/h
98 26-06-2021 01:00:00 13.4 C 10.64 g/m*3 13.4 C 0.4 km/h
99 26-06-2021 02:00:00 12.625 C 10.24 g/m*3 12.63 C 0 km/h
100 26-06-2021 03:00:00 12.09167 C 10.01 g/m*3 12.09 C 0 km/h
Sensor: Nr:Datum:Temp:Abs-Feuchte:Windchill:Wind:
Aussen-T/F 101 26-06-2021 04:00:00 11.59167 C 9.78 g/m*3 11.59 C 0 km/h
102 26-06-2021 05:00:00 11.26667 C 9.67 g/m*3 11.27 C 0.13333 km/h
103 26-06-2021 06:00:00 11.28333 C 9.73 g/m*3 11.28 C 0 km/h
104 26-06-2021 07:00:00 11.79167 C 10.1 g/m*3 11.79 C 0 km/h
105 26-06-2021 08:00:00 12.81667 C 10.77 g/m*3 12.82 C 0 km/h
106 26-06-2021 09:00:00 14.28333 C 11.86 g/m*3 14.28 C 0 km/h
107 26-06-2021 10:00:00 17.18333 C 13.54 g/m*3 17.18 C 0 km/h
108 26-06-2021 11:00:00 20.975 C 12.15 g/m*3 20.98 C 5.075 km/h
109 26-06-2021 12:00:00 22.11667 C 11.87 g/m*3 22.12 C 4.95 km/h
110 26-06-2021 13:00:00 22.88333 C 11.79 g/m*3 22.88 C 6.16667 km/h
111 26-06-2021 14:00:00 23.89167 C 11.96 g/m*3 23.89 C 4.425 km/h
112 26-06-2021 15:00:00 24.29167 C 11.85 g/m*3 24.29 C 3.46667 km/h
113 26-06-2021 16:00:00 25.16667 C 11.95 g/m*3 25.17 C 4.675 km/h
114 26-06-2021 17:00:00 26.3 C 13.02 g/m*3 26.3 C 5.09167 km/h
115 26-06-2021 18:00:00 26.13333 C 12.37 g/m*3 26.13 C 5.78333 km/h
116 26-06-2021 19:00:00 25.025 C 14.06 g/m*3 25.03 C 2.93333 km/h
117 26-06-2021 20:00:00 21.975 C 14.16 g/m*3 21.98 C 0.93333 km/h
118 26-06-2021 21:00:00 19.625 C 13.19 g/m*3 19.63 C 3.86667 km/h
119 26-06-2021 22:00:00 17.94167 C 12.87 g/m*3 17.94 C 0.4 km/h
120 26-06-2021 23:00:00 16.90833 C 12.6 g/m*3 16.91 C 0 km/h
121 27-06-2021 00:00:00 16.29167 C 12.36 g/m*3 16.29 C 0 km/h
122 27-06-2021 01:00:00 15.65833 C 12.09 g/m*3 15.66 C 0 km/h
123 27-06-2021 02:00:00 15.01667 C 11.82 g/m*3 15.02 C 0 km/h
124 27-06-2021 03:00:00 14.35 C 11.47 g/m*3 14.35 C 0 km/h
125 27-06-2021 04:00:00 14.425 C 11.7 g/m*3 14.43 C 0.13333 km/h
Sensor: Nr:Datum:Temp:Abs-Feuchte:Windchill:Wind:
Aussen-T/F 126 27-06-2021 05:00:00 14.375 C 11.69 g/m*3 14.38 C 0 km/h
127 27-06-2021 06:00:00 14.83333 C 12.1 g/m*3 14.83 C 0.13333 km/h
128 27-06-2021 07:00:00 15.9 C 13 g/m*3 15.9 C 0 km/h
129 27-06-2021 08:00:00 17.15 C 13.83 g/m*3 17.15 C 0.13333 km/h
130 27-06-2021 09:00:00 19.23333 C 14.35 g/m*3 19.23 C 5.89167 km/h
131 27-06-2021 10:00:00 21.94167 C 14.6 g/m*3 21.94 C 7.79167 km/h
132 27-06-2021 11:00:00 23.86667 C 14.88 g/m*3 23.87 C 8.2 km/h
133 27-06-2021 12:00:00 24.85833 C 15.66 g/m*3 24.86 C 7.91667 km/h
134 27-06-2021 13:00:00 25.825 C 15.79 g/m*3 25.83 C 6.025 km/h
135 27-06-2021 14:00:00 26.46667 C 15.01 g/m*3 26.47 C 6.44167 km/h
136 27-06-2021 15:00:00 27.35 C 14.63 g/m*3 27.35 C 7.525 km/h
137 27-06-2021 16:00:00 26.13333 C 16.78 g/m*3 26.13 C 3.74167 km/h
138 27-06-2021 17:00:00 23.8 C 16.85 g/m*3 23.8 C 0.26667 km/h
139 27-06-2021 18:00:00 22.51667 C 16.24 g/m*3 22.52 C 1.73333 km/h
140 27-06-2021 19:00:00 22.775 C 16.32 g/m*3 22.78 C 3.6 km/h
141 27-06-2021 20:00:00 21.73333 C 15.56 g/m*3 21.73 C 3.73333 km/h
142 27-06-2021 21:00:00 20.99167 C 14.97 g/m*3 20.99 C 4.13333 km/h
143 27-06-2021 22:00:00 20.15 C 14.54 g/m*3 20.15 C 2 km/h
144 27-06-2021 23:00:00 19.60833 C 14.65 g/m*3 19.61 C 0.53333 km/h
145 28-06-2021 00:00:00 19.06667 C 14.47 g/m*3 19.07 C 0.13333 km/h
146 28-06-2021 01:00:00 18.06667 C 13.8 g/m*3 18.07 C 0.66667 km/h
147 28-06-2021 02:00:00 17.2 C 13.44 g/m*3 17.2 C 0 km/h
148 28-06-2021 03:00:00 16.55833 C 13.13 g/m*3 16.56 C 0 km/h
149 28-06-2021 04:00:00 16.3 C 13.11 g/m*3 16.3 C 0 km/h
150 28-06-2021 05:00:00 16.175 C 13.07 g/m*3 16.18 C 0 km/h
Sensor: Nr:Datum:Temp:Abs-Feuchte:Windchill:Wind:
Aussen-T/F 151 28-06-2021 06:00:00 16.30833 C 13.24 g/m*3 16.31 C 0 km/h
152 28-06-2021 07:00:00 17.475 C 14.24 g/m*3 17.48 C 3.35 km/h
153 28-06-2021 08:00:00 18.38333 C 14.65 g/m*3 18.38 C 0.93333 km/h
154 28-06-2021 09:00:00 19.60833 C 15.31 g/m*3 19.61 C 1.2 km/h
155 28-06-2021 10:00:00 22.25833 C 16.76 g/m*3 22.26 C 0.8 km/h
156 28-06-2021 11:00:00 24.375 C 17.63 g/m*3 24.38 C 2.8 km/h
157 28-06-2021 12:00:00 25.59167 C 16.56 g/m*3 25.59 C 4.80833 km/h
158 28-06-2021 13:00:00 27.09167 C 16.58 g/m*3 27.09 C 7.23333 km/h
159 28-06-2021 14:00:00 27.40833 C 17.79 g/m*3 27.41 C 3.875 km/h
160 28-06-2021 15:00:00 23.3 C 17.56 g/m*3 23.3 C 4.95833 km/h
161 28-06-2021 16:00:00 23.075 C 18.8 g/m*3 23.08 C 4.425 km/h
162 28-06-2021 17:00:00 22.06667 C 16.95 g/m*3 22.07 C 9.79167 km/h
163 28-06-2021 18:00:00 20.30833 C 16.16 g/m*3 20.31 C 12.74167 km/h
164 28-06-2021 19:00:00 19.2 C 15.64 g/m*3 19.2 C 5.63333 km/h
165 28-06-2021 20:00:00 19.30833 C 15.86 g/m*3 19.31 C 2.53333 km/h
166 28-06-2021 21:00:00 18.70833 C 15.38 g/m*3 18.71 C 3.74167 km/h
167 28-06-2021 22:00:00 18.59167 C 15.27 g/m*3 18.59 C 0.26667 km/h
168 28-06-2021 23:00:00 18.68333 C 15.5 g/m*3 18.68 C 0 km/h
169 29-06-2021 00:00:00 18.51667 C 15.36 g/m*3 18.52 C 0.53333 km/h
170 29-06-2021 01:00:00 18.09167 C 14.98 g/m*3 18.09 C 5.76667 km/h
171 29-06-2021 02:00:00 17.50833 C 14.47 g/m*3 17.51 C 5.88333 km/h
172 29-06-2021 03:00:00 16.89167 C 13.94 g/m*3 16.89 C 3.48333 km/h
173 29-06-2021 04:00:00 16.6 C 13.7 g/m*3 16.6 C 2.93333 km/h
174 29-06-2021 05:00:00 16.33333 C 13.51 g/m*3 16.33 C 0.4 km/h
175 29-06-2021 06:00:00 16.79167 C 13.97 g/m*3 16.79 C 0 km/h
Sensor: Nr:Datum:Temp:Abs-Feuchte:Windchill:Wind:
Aussen-T/F 176 29-06-2021 07:00:00 17.43333 C 14.55 g/m*3 17.43 C 0 km/h
177 29-06-2021 08:00:00 17.73333 C 14.78 g/m*3 17.73 C 4.55833 km/h
178 29-06-2021 09:00:00 17.69167 C 14.35 g/m*3 17.69 C 8.60833 km/h
179 29-06-2021 10:00:00 18.98333 C 14.71 g/m*3 18.98 C 7.65833 km/h
180 29-06-2021 11:00:00 20.075 C 14.7 g/m*3 20.08 C 6.15833 km/h
181 29-06-2021 12:00:00 20.9 C 15.09 g/m*3 20.9 C 4.825 km/h
182 29-06-2021 13:00:00 22.39167 C 15.25 g/m*3 22.39 C 4.94167 km/h
183 29-06-2021 14:00:00 23.41667 C 15.45 g/m*3 23.42 C 2.80833 km/h
184 29-06-2021 15:00:00 24.05 C 15.58 g/m*3 24.05 C 3.86667 km/h
185 29-06-2021 16:00:00 22.475 C 16.07 g/m*3 22.48 C 10.71667 km/h
186 29-06-2021 17:00:00 17.675 C 13.94 g/m*3 17.68 C 9.275 km/h
187 29-06-2021 18:00:00 17.30833 C 13.98 g/m*3 17.31 C 5.20833 km/h
188 29-06-2021 19:00:00 17.275 C 14.08 g/m*3 17.27 C 2.53333 km/h
189 29-06-2021 20:00:00 16.64167 C 13.52 g/m*3 16.64 C 4.95833 km/h
190 29-06-2021 21:00:00 16.36667 C 13.37 g/m*3 16.37 C 4.54167 km/h
191 29-06-2021 22:00:00 15.91667 C 13.01 g/m*3 15.92 C 4.13333 km/h
192 29-06-2021 23:00:00 15.59167 C 12.76 g/m*3 15.59 C 3.06667 km/h
193 30-06-2021 00:00:00 15.23333 C 12.55 g/m*3 15.23 C 0.4 km/h
194 30-06-2021 01:00:00 15.2 C 12.59 g/m*3 15.2 C 0.66667 km/h
195 30-06-2021 02:00:00 15.44167 C 12.78 g/m*3 15.44 C 0.93333 km/h
196 30-06-2021 03:00:00 15.65833 C 12.95 g/m*3 15.66 C 1.2 km/h
197 30-06-2021 04:00:00 15.375 C 12.73 g/m*3 15.38 C 0.93333 km/h
198 30-06-2021 05:00:00 15.425 C 12.76 g/m*3 15.43 C 1.2 km/h
199 30-06-2021 06:00:00 15.19167 C 12.58 g/m*3 15.19 C 2.66667 km/h
200 30-06-2021 07:00:00 14.95833 C 12.41 g/m*3 14.96 C 2.8 km/h
Sensor: Nr:Datum:Temp:Abs-Feuchte:Windchill:Wind:
Aussen-T/F 201 30-06-2021 08:00:00 15.45 C 12.62 g/m*3 15.45 C 8.59167 km/h
202 30-06-2021 09:00:00 16.25 C 12.48 g/m*3 16.25 C 8.73333 km/h
203 30-06-2021 10:00:00 16.85833 C 12.45 g/m*3 16.86 C 10.75833 km/h
204 30-06-2021 11:00:00 17.49167 C 12.67 g/m*3 17.49 C 12.89167 km/h
205 30-06-2021 12:00:00 17.78333 C 12.66 g/m*3 17.78 C 11.56667 km/h
206 30-06-2021 13:00:00 18.51667 C 12.92 g/m*3 18.52 C 12.23333 km/h
207 30-06-2021 14:00:00 19.125 C 12.91 g/m*3 19.13 C 11.83333 km/h
208 30-06-2021 15:00:00 19.13333 C 12.96 g/m*3 19.13 C 8.475 km/h
209 30-06-2021 16:00:00 17.63333 C 12.82 g/m*3 17.63 C 6.3 km/h
210 30-06-2021 17:00:00 16.73333 C 13.07 g/m*3 16.73 C 1.06667 km/h
211 30-06-2021 18:00:00 16.775 C 13.3 g/m*3 16.77 C 0.93333 km/h
212 30-06-2021 19:00:00 16.70833 C 13.35 g/m*3 16.71 C 1.33333 km/h
213 30-06-2021 20:00:00 16.175 C 12.94 g/m*3 16.18 C 2.8 km/h
214 30-06-2021 21:00:00 15.49167 C 12.53 g/m*3 15.49 C 4.66667 km/h
215 30-06-2021 22:00:00 15 C 12.22 g/m*3 15 C 4.4 km/h
216 30-06-2021 23:00:00 14.975 C 12.29 g/m*3 14.98 C 1.46667 km/h
217 01-07-2021 00:00:00 14.70833 C 12.09 g/m*3 14.71 C 2 km/h
218 01-07-2021 01:00:00 14.41667 C 11.88 g/m*3 14.42 C 2.53333 km/h
219 01-07-2021 02:00:00 14.3 C 11.79 g/m*3 14.3 C 0 km/h
220 01-07-2021 03:00:00 14.2 C 11.8 g/m*3 14.2 C 0.4 km/h
221 01-07-2021 04:00:00 14.025 C 11.69 g/m*3 14.03 C 1.33333 km/h
222 01-07-2021 05:00:00 13.75 C 11.51 g/m*3 13.75 C 1.33333 km/h
223 01-07-2021 06:00:00 13.7 C 11.49 g/m*3 13.7 C 1.06667 km/h
224 01-07-2021 07:00:00 13.7 C 11.49 g/m*3 13.7 C 2 km/h
225 01-07-2021 08:00:00 13.99167 C 11.63 g/m*3 13.99 C 1.86667 km/h
Sensor: Nr:Datum:Temp:Abs-Feuchte:Windchill:Wind:
Aussen-T/F 226 01-07-2021 09:00:00 13.825 C 11.35 g/m*3 13.83 C 6.96667 km/h
227 01-07-2021 10:00:00 14.25833 C 11.65 g/m*3 14.26 C 3.61667 km/h
228 01-07-2021 11:00:00 15.55 C 11.5 g/m*3 15.55 C 9.00833 km/h
229 01-07-2021 12:00:00 16.39167 C 11.42 g/m*3 16.39 C 7.53333 km/h
230 01-07-2021 13:00:00 16.75 C 11.31 g/m*3 16.75 C 9.01667 km/h
231 01-07-2021 14:00:00 17.1 C 11.22 g/m*3 17.1 C 12.5 km/h
232 01-07-2021 15:00:00 16.79167 C 11.03 g/m*3 16.79 C 11.28333 km/h
233 01-07-2021 16:00:00 16.45 C 11.05 g/m*3 16.45 C 10.48333 km/h
234 01-07-2021 17:00:00 16.85833 C 11.25 g/m*3 16.86 C 6.56667 km/h
235 01-07-2021 18:00:00 16.48333 C 11.11 g/m*3 16.48 C 6.29167 km/h
236 01-07-2021 19:00:00 16.55833 C 11.27 g/m*3 16.56 C 4.68333 km/h
237 01-07-2021 20:00:00 15.96667 C 11.05 g/m*3 15.97 C 4.80833 km/h
238 01-07-2021 21:00:00 15.3 C 11.22 g/m*3 15.3 C 1.075 km/h
239 01-07-2021 22:00:00 14.61667 C 11.23 g/m*3 14.62 C 0 km/h
240 01-07-2021 23:00:00 14.18333 C 11.09 g/m*3 14.18 C 0.26667 km/h
241 02-07-2021 00:00:00 13.90833 C 11.02 g/m*3 13.91 C 0.13333 km/h
242 02-07-2021 01:00:00 13.65 C 10.95 g/m*3 13.65 C 0.4 km/h
243 02-07-2021 02:00:00 13.40833 C 10.84 g/m*3 13.41 C 0 km/h
244 02-07-2021 03:00:00 13.35 C 10.89 g/m*3 13.35 C 0 km/h
245 02-07-2021 04:00:00 13.05 C 10.69 g/m*3 13.05 C 0.53333 km/h
246 02-07-2021 05:00:00 12.40833 C 10.29 g/m*3 12.41 C 1.2 km/h
247 02-07-2021 06:00:00 12.31667 C 10.37 g/m*3 12.32 C 1.33333 km/h
248 02-07-2021 07:00:00 13.20833 C 10.96 g/m*3 13.21 C 6.56667 km/h
249 02-07-2021 08:00:00 13.68333 C 11.08 g/m*3 13.68 C 7.39167 km/h
250 02-07-2021 09:00:00 14.94167 C 11.3 g/m*3 14.94 C 5.225 km/h
Sensor: Nr:Datum:Temp:Abs-Feuchte:Windchill:Wind:
Aussen-T/F 251 02-07-2021 10:00:00 16.95833 C 11.4 g/m*3 16.96 C 1.6 km/h
252 02-07-2021 11:00:00 18.28333 C 11.99 g/m*3 18.28 C 3.75 km/h
253 02-07-2021 12:00:00 18.9 C 12.02 g/m*3 18.9 C 6.84167 km/h
254 02-07-2021 13:00:00 19.71667 C 12.72 g/m*3 19.72 C 4.29167 km/h
255 02-07-2021 14:00:00 20.55833 C 12.69 g/m*3 20.56 C 6.71667 km/h
256 02-07-2021 15:00:00 21.48333 C 12.75 g/m*3 21.48 C 6.175 km/h
257 02-07-2021 16:00:00 23.98333 C 12.84 g/m*3 23.98 C 4.40833 km/h
258 02-07-2021 17:00:00 24.73333 C 12.66 g/m*3 24.73 C 5.61667 km/h
259 02-07-2021 18:00:00 25.6 C 12.7 g/m*3 25.6 C 4.40833 km/h
260 02-07-2021 19:00:00 24.38333 C 13.15 g/m*3 24.38 C 1.73333 km/h
261 02-07-2021 20:00:00 23.21667 C 13.91 g/m*3 23.22 C 0.8 km/h
262 02-07-2021 21:00:00 19.45833 C 13 g/m*3 19.46 C 5.075 km/h
263 02-07-2021 22:00:00 17.01667 C 12.23 g/m*3 17.02 C 2.93333 km/h
264 02-07-2021 23:00:00 15.76667 C 11.96 g/m*3 15.77 C 0 km/h
265 03-07-2021 00:00:00 14.825 C 11.61 g/m*3 14.83 C 0 km/h
266 03-07-2021 01:00:00 14.03333 C 11.23 g/m*3 14.03 C 0 km/h
267 03-07-2021 02:00:00 13.70833 C 11.15 g/m*3 13.71 C 0 km/h
268 03-07-2021 03:00:00 13.33333 C 10.96 g/m*3 13.33 C 0 km/h
269 03-07-2021 04:00:00 12.66667 C 10.55 g/m*3 12.67 C 0 km/h
270 03-07-2021 05:00:00 12.36667 C 10.37 g/m*3 12.37 C 0 km/h
271 03-07-2021 06:00:00 12.25 C 10.39 g/m*3 12.25 C 0 km/h
272 03-07-2021 07:00:00 12.63333 C 10.66 g/m*3 12.63 C 0 km/h
273 03-07-2021 08:00:00 13.625 C 11.43 g/m*3 13.63 C 1.46667 km/h
274 03-07-2021 09:00:00 15.06667 C 12.49 g/m*3 15.07 C 0 km/h
275 03-07-2021 10:00:00 17.4 C 14.21 g/m*3 17.4 C 0 km/h
Sensor: Nr:Datum:Temp:Abs-Feuchte:Windchill:Wind:
Aussen-T/F 276 03-07-2021 11:00:00 20.575 C 15.06 g/m*3 20.58 C 2.26667 km/h
277 03-07-2021 12:00:00 22.33333 C 13.65 g/m*3 22.33 C 4.14167 km/h
278 03-07-2021 13:00:00 23.80833 C 11.78 g/m*3 23.81 C 4.95833 km/h
279 03-07-2021 14:00:00 25.35833 C 13.45 g/m*3 25.36 C 4.275 km/h
280 03-07-2021 15:00:00 25.43333 C 15.35 g/m*3 25.43 C 2.15 km/h
281 03-07-2021 16:00:00 24.23333 C 16.57 g/m*3 24.23 C 1.46667 km/h
282 03-07-2021 17:00:00 25.63333 C 17.43 g/m*3 25.63 C 0.26667 km/h
283 03-07-2021 18:00:00 25.81667 C 17.19 g/m*3 25.82 C 1.06667 km/h
284 03-07-2021 19:00:00 23.65833 C 14.35 g/m*3 23.66 C 9.41667 km/h
285 03-07-2021 20:00:00 21.66667 C 14.58 g/m*3 21.67 C 0.80833 km/h
286 03-07-2021 21:00:00 19.525 C 14.26 g/m*3 19.52 C 5.2 km/h
287 03-07-2021 22:00:00 18.91667 C 14.01 g/m*3 18.92 C 3.86667 km/h
288 03-07-2021 23:00:00 18.74167 C 14.34 g/m*3 18.74 C 1.33333 km/h
289 04-07-2021 00:00:00 17.85833 C 14.05 g/m*3 17.86 C 3.46667 km/h
290 04-07-2021 01:00:00 17.48333 C 13.86 g/m*3 17.48 C 0.8 km/h
291 04-07-2021 02:00:00 17 C 13.59 g/m*3 17 C 0.53333 km/h
292 04-07-2021 03:00:00 16.70833 C 13.46 g/m*3 16.71 C 0.66667 km/h
293 04-07-2021 04:00:00 16.66667 C 13.47 g/m*3 16.67 C 0 km/h
294 04-07-2021 05:00:00 16.575 C 13.53 g/m*3 16.58 C 0 km/h
295 04-07-2021 06:00:00 16.65833 C 13.61 g/m*3 16.66 C 0 km/h
296 04-07-2021 07:00:00 17.1 C 13.97 g/m*3 17.1 C 0 km/h
297 04-07-2021 08:00:00 17.475 C 14.29 g/m*3 17.48 C 0 km/h
298 04-07-2021 09:00:00 19.10833 C 15.16 g/m*3 19.11 C 4.28333 km/h
299 04-07-2021 10:00:00 21.46667 C 15.4 g/m*3 21.47 C 3.2 km/h
300 04-07-2021 11:00:00 23.08333 C 16.09 g/m*3 23.08 C 1.6 km/h
Sensor: Nr:Datum:Temp:Abs-Feuchte:Windchill:Wind:
Aussen-T/F 301 04-07-2021 12:00:00 19.275 C 14.78 g/m*3 19.27 C 6.59167 km/h
302 04-07-2021 13:00:00 18.20833 C 14.71 g/m*3 18.21 C 1.73333 km/h
303 04-07-2021 14:00:00 18.81667 C 15.25 g/m*3 18.82 C 1.33333 km/h
304 04-07-2021 15:00:00 18.425 C 14.98 g/m*3 18.43 C 2.13333 km/h
305 04-07-2021 16:00:00 19.66667 C 16.17 g/m*3 19.67 C 4.00833 km/h
306 04-07-2021 17:00:00 18.91667 C 14.72 g/m*3 18.92 C 7.64167 km/h
307 04-07-2021 18:00:00 17.3 C 13.64 g/m*3 17.3 C 4.675 km/h
308 04-07-2021 19:00:00 18.15 C 14.04 g/m*3 18.15 C 1.73333 km/h
309 04-07-2021 20:00:00 18.44167 C 13.97 g/m*3 18.44 C 0.4 km/h
310 04-07-2021 21:00:00 17.65833 C 13.62 g/m*3 17.66 C 2.4 km/h
311 04-07-2021 22:00:00 15.975 C 12.66 g/m*3 15.98 C 2.53333 km/h
312 04-07-2021 23:00:00 15.05833 C 12.16 g/m*3 15.06 C 0.4 km/h
313 05-07-2021 00:00:00 14.375 C 11.73 g/m*3 14.38 C 0 km/h
314 05-07-2021 01:00:00 13.88333 C 11.5 g/m*3 13.88 C 0 km/h
315 05-07-2021 02:00:00 13.55 C 11.26 g/m*3 13.55 C 0 km/h
316 05-07-2021 03:00:00 13.36667 C 11.18 g/m*3 13.37 C 0 km/h
317 05-07-2021 04:00:00 13.875 C 11.61 g/m*3 13.88 C 0 km/h
318 05-07-2021 05:00:00 13.91667 C 11.64 g/m*3 13.92 C 0 km/h
319 05-07-2021 06:00:00 14.275 C 11.9 g/m*3 14.28 C 0 km/h
320 05-07-2021 07:00:00 15.06667 C 12.54 g/m*3 15.07 C 0.13333 km/h
321 05-07-2021 08:00:00 16.13333 C 13.45 g/m*3 16.13 C 0.26667 km/h
322 05-07-2021 09:00:00 16.81667 C 13.89 g/m*3 16.82 C 3.6 km/h
323 05-07-2021 10:00:00 17.88333 C 13.65 g/m*3 17.88 C 7.525 km/h
324 05-07-2021 11:00:00 19.08333 C 13.54 g/m*3 19.08 C 6.16667 km/h
325 05-07-2021 12:00:00 19.575 C 13.56 g/m*3 19.58 C 2.26667 km/h
Sensor: Nr:Datum:Temp:Abs-Feuchte:Windchill:Wind:
Aussen-T/F 326 05-07-2021 13:00:00 19.39167 C 14.26 g/m*3 19.39 C 3.21667 km/h
327 05-07-2021 14:00:00 18.60833 C 14.23 g/m*3 18.61 C 2.13333 km/h
328 05-07-2021 15:00:00 18.95 C 14.92 g/m*3 18.95 C 2.8 km/h
329 05-07-2021 16:00:00 20.09167 C 15.58 g/m*3 20.09 C 5.9 km/h
330 05-07-2021 17:00:00 22.15 C 16.49 g/m*3 22.15 C 3.075 km/h
331 05-07-2021 18:00:00 20.475 C 15.69 g/m*3 20.48 C 3.2 km/h
332 05-07-2021 19:00:00 20.06667 C 15.95 g/m*3 20.07 C 0.4 km/h
333 05-07-2021 20:00:00 19.88333 C 15.85 g/m*3 19.88 C 1.86667 km/h
334 05-07-2021 21:00:00 18.9 C 15.13 g/m*3 18.9 C 3.06667 km/h
335 05-07-2021 22:00:00 18.3 C 14.7 g/m*3 18.3 C 1.86667 km/h
336 05-07-2021 23:00:00 17.80833 C 14.4 g/m*3 17.81 C 2.13333 km/h
337 06-07-2021 00:00:00 17.125 C 13.86 g/m*3 17.13 C 1.2 km/h
338 06-07-2021 01:00:00 16.45833 C 13.39 g/m*3 16.46 C 2.66667 km/h
339 06-07-2021 02:00:00 15.78333 C 12.91 g/m*3 15.78 C 2.8 km/h
340 06-07-2021 03:00:00 16.35833 C 13.49 g/m*3 16.36 C 2.80833 km/h
341 06-07-2021 04:00:00 16.43333 C 13.57 g/m*3 16.43 C 2.93333 km/h
342 06-07-2021 05:00:00 15.96667 C 13.17 g/m*3 15.97 C 1.46667 km/h
343 06-07-2021 06:00:00 16.1 C 13.3 g/m*3 16.1 C 0 km/h
344 06-07-2021 07:00:00 16.55833 C 13.67 g/m*3 16.56 C 0 km/h
345 06-07-2021 08:00:00 16.89167 C 13.94 g/m*3 16.89 C 0.8 km/h
346 06-07-2021 09:00:00 17.2 C 14.2 g/m*3 17.2 C 2.41667 km/h
347 06-07-2021 10:00:00 17.825 C 14.87 g/m*3 17.83 C 5.35833 km/h
348 06-07-2021 11:00:00 18.725 C 15.61 g/m*3 18.73 C 2.13333 km/h
349 06-07-2021 12:00:00 19.01667 C 15.73 g/m*3 19.02 C 5.90833 km/h
350 06-07-2021 13:00:00 19.58333 C 15.11 g/m*3 19.58 C 11.28333 km/h
Sensor: Nr:Datum:Temp:Abs-Feuchte:Windchill:Wind:
Aussen-T/F 351 06-07-2021 14:00:00 20.8 C 14.8 g/m*3 20.8 C 9.55 km/h
352 06-07-2021 15:00:00 20.15833 C 14.29 g/m*3 20.16 C 6.425 km/h
353 06-07-2021 16:00:00 19.475 C 13.84 g/m*3 19.48 C 3.34167 km/h
354 06-07-2021 17:00:00 19.76667 C 14.19 g/m*3 19.77 C 2.80833 km/h
355 06-07-2021 18:00:00 19.8 C 14.5 g/m*3 19.8 C 2.13333 km/h
356 06-07-2021 19:00:00 18.83333 C 14.24 g/m*3 18.83 C 2.4 km/h
357 06-07-2021 20:00:00 17.93333 C 13.85 g/m*3 17.93 C 2.66667 km/h
358 06-07-2021 21:00:00 17.25 C 13.49 g/m*3 17.25 C 4.675 km/h
359 06-07-2021 22:00:00 16.44167 C 12.88 g/m*3 16.44 C 3.06667 km/h
360 06-07-2021 23:00:00 15.89167 C 12.58 g/m*3 15.89 C 4 km/h
361 07-07-2021 00:00:00 15.475 C 12.22 g/m*3 15.48 C 1.33333 km/h
362 07-07-2021 01:00:00 14.54167 C 11.68 g/m*3 14.54 C 1.2 km/h
363 07-07-2021 02:00:00 14.21667 C 11.61 g/m*3 14.22 C 0 km/h
364 07-07-2021 03:00:00 14.09167 C 11.62 g/m*3 14.09 C 0 km/h
365 07-07-2021 04:00:00 13.88333 C 11.5 g/m*3 13.88 C 0 km/h
366 07-07-2021 05:00:00 13.725 C 11.39 g/m*3 13.73 C 0 km/h
367 07-07-2021 06:00:00 13.7 C 11.43 g/m*3 13.7 C 0 km/h
368 07-07-2021 07:00:00 14.4 C 11.99 g/m*3 14.4 C 0 km/h
369 07-07-2021 08:00:00 15.18333 C 12.58 g/m*3 15.18 C 0 km/h
370 07-07-2021 09:00:00 15.875 C 13.08 g/m*3 15.88 C 1.46667 km/h
371 07-07-2021 10:00:00 18.64167 C 13.92 g/m*3 18.64 C 3.46667 km/h
372 07-07-2021 11:00:00 21.03333 C 13.84 g/m*3 21.03 C 6.84167 km/h
373 07-07-2021 12:00:00 21.80833 C 13.24 g/m*3 21.81 C 9.15 km/h
374 07-07-2021 13:00:00 21.975 C 13.53 g/m*3 21.98 C 5.36667 km/h
375 07-07-2021 14:00:00 22.825 C 13.77 g/m*3 22.83 C 5.21667 km/h
Sensor: Nr:Datum:Temp:Abs-Feuchte:Windchill:Wind:
Aussen-T/F 376 07-07-2021 15:00:00 23.1 C 14.87 g/m*3 23.1 C 2.95 km/h
377 07-07-2021 16:00:00 24.48333 C 15.02 g/m*3 24.48 C 4.55 km/h
378 07-07-2021 17:00:00 24.275 C 16 g/m*3 24.28 C 2.93333 km/h
379 07-07-2021 18:00:00 21.74167 C 15.38 g/m*3 21.74 C 4.4 km/h
380 07-07-2021 19:00:00 21.64167 C 15.45 g/m*3 21.64 C 3.33333 km/h
381 07-07-2021 20:00:00 20.35 C 14.52 g/m*3 20.35 C 5.2 km/h
382 07-07-2021 21:00:00 18.61667 C 13.46 g/m*3 18.62 C 4.14167 km/h
383 07-07-2021 22:00:00 17.01667 C 12.71 g/m*3 17.02 C 1.86667 km/h
384 07-07-2021 23:00:00 15.71667 C 12.21 g/m*3 15.72 C 0 km/h
385 08-07-2021 00:00:00 14.825 C 11.77 g/m*3 14.83 C 0 km/h
386 08-07-2021 01:00:00 14.20833 C 11.49 g/m*3 14.21 C 0 km/h
387 08-07-2021 02:00:00 14.14167 C 11.56 g/m*3 14.14 C 0 km/h
388 08-07-2021 03:00:00 13.73333 C 11.27 g/m*3 13.73 C 0.13333 km/h
389 08-07-2021 04:00:00 13.6 C 11.28 g/m*3 13.6 C 0.53333 km/h
390 08-07-2021 05:00:00 13.60833 C 11.3 g/m*3 13.61 C 0 km/h
391 08-07-2021 06:00:00 13.775 C 11.48 g/m*3 13.78 C 0.13333 km/h
392 08-07-2021 07:00:00 14.29167 C 11.91 g/m*3 14.29 C 0.26667 km/h
393 08-07-2021 08:00:00 15.24167 C 12.59 g/m*3 15.24 C 0.4 km/h
394 08-07-2021 09:00:00 16.825 C 13.67 g/m*3 16.83 C 0.53333 km/h
395 08-07-2021 10:00:00 19.30833 C 14.74 g/m*3 19.31 C 0.4 km/h
396 08-07-2021 11:00:00 22.24167 C 16.02 g/m*3 22.24 C 0 km/h
397 08-07-2021 12:00:00 23.50833 C 16.01 g/m*3 23.51 C 1.06667 km/h
398 08-07-2021 13:00:00 21.8 C 14.9 g/m*3 21.8 C 8.03333 km/h
399 08-07-2021 14:00:00 18.375 C 13.61 g/m*3 18.38 C 5.35833 km/h
400 08-07-2021 15:00:00 17.38333 C 13.67 g/m*3 17.38 C 1.2 km/h
Sensor: Nr:Datum:Temp:Abs-Feuchte:Windchill:Wind:
Aussen-T/F 401 08-07-2021 16:00:00 16.775 C 13.45 g/m*3 16.77 C 2.4 km/h
402 08-07-2021 17:00:00 16.90833 C 13.74 g/m*3 16.91 C 3.46667 km/h
403 08-07-2021 18:00:00 17.475 C 14.29 g/m*3 17.48 C 0 km/h
404 08-07-2021 19:00:00 17.51667 C 14.29 g/m*3 17.52 C 0.4 km/h
405 08-07-2021 20:00:00 17.16667 C 13.94 g/m*3 17.17 C 1.33333 km/h
406 08-07-2021 21:00:00 16.18333 C 13.1 g/m*3 16.18 C 4.675 km/h
407 08-07-2021 22:00:00 15.76667 C 12.9 g/m*3 15.77 C 3.86667 km/h
408 08-07-2021 23:00:00 15.7 C 12.89 g/m*3 15.7 C 0.93333 km/h
409 09-07-2021 00:00:00 15.69167 C 12.97 g/m*3 15.69 C 0.66667 km/h
410 09-07-2021 01:00:00 15.60833 C 12.91 g/m*3 15.61 C 0.8 km/h
411 09-07-2021 02:00:00 15.55 C 12.86 g/m*3 15.55 C 0.13333 km/h
412 09-07-2021 03:00:00 15.39167 C 12.74 g/m*3 15.39 C 0.4 km/h
413 09-07-2021 04:00:00 15.3 C 12.67 g/m*3 15.3 C 1.86667 km/h
414 09-07-2021 05:00:00 15.3 C 12.67 g/m*3 15.3 C 0 km/h
415 09-07-2021 06:00:00 15.575 C 12.92 g/m*3 15.58 C 0.13333 km/h
416 09-07-2021 07:00:00 15.90833 C 13.19 g/m*3 15.91 C 1.2 km/h
417 09-07-2021 08:00:00 16.24167 C 13.49 g/m*3 16.24 C 0.26667 km/h
418 09-07-2021 09:00:00 16.68333 C 13.91 g/m*3 16.68 C 0.53333 km/h
419 09-07-2021 10:00:00 17.26667 C 14.32 g/m*3 17.27 C 6.96667 km/h
420 09-07-2021 11:00:00 18.40833 C 14.52 g/m*3 18.41 C 6.575 km/h
421 09-07-2021 12:00:00 18.76667 C 13.86 g/m*3 18.77 C 10.88333 km/h
422 09-07-2021 13:00:00 18.48333 C 14.29 g/m*3 18.48 C 3.60833 km/h
423 09-07-2021 14:00:00 19.23333 C 14.17 g/m*3 19.23 C 5.74167 km/h
424 09-07-2021 15:00:00 20.66667 C 14.51 g/m*3 20.67 C 7.93333 km/h
425 09-07-2021 16:00:00 22.15 C 14.41 g/m*3 22.15 C 8.73333 km/h
Sensor: Nr:Datum:Temp:Abs-Feuchte:Windchill:Wind:
Aussen-T/F 426 09-07-2021 17:00:00 22.83333 C 13.88 g/m*3 22.83 C 9.14167 km/h
427 09-07-2021 18:00:00 22.16667 C 13.15 g/m*3 22.17 C 3.73333 km/h
428 09-07-2021 19:00:00 20.675 C 14.55 g/m*3 20.68 C 2.68333 km/h
429 09-07-2021 20:00:00 19.24167 C 14.56 g/m*3 19.24 C 0.66667 km/h
430 09-07-2021 21:00:00 18.04167 C 14 g/m*3 18.04 C 1.33333 km/h
431 09-07-2021 22:00:00 16.725 C 13.15 g/m*3 16.73 C 1.2 km/h
432 09-07-2021 23:00:00 15.84167 C 12.71 g/m*3 15.84 C 0 km/h
433 10-07-2021 00:00:00 15.30833 C 12.38 g/m*3 15.31 C 0 km/h
434 10-07-2021 01:00:00 15.03333 C 12.21 g/m*3 15.03 C 0 km/h
435 10-07-2021 02:00:00 14.48333 C 11.9 g/m*3 14.48 C 0 km/h
436 10-07-2021 03:00:00 14.23333 C 11.75 g/m*3 14.23 C 0 km/h
437 10-07-2021 04:00:00 14.14167 C 11.73 g/m*3 14.14 C 0.26667 km/h
438 10-07-2021 05:00:00 14.375 C 11.97 g/m*3 14.38 C 0.26667 km/h
439 10-07-2021 06:00:00 14.36667 C 11.97 g/m*3 14.37 C 0.26667 km/h
440 10-07-2021 07:00:00 14.46667 C 12.04 g/m*3 14.47 C 0.93333 km/h
441 10-07-2021 08:00:00 14.88333 C 12.35 g/m*3 14.88 C 0.66667 km/h
442 10-07-2021 09:00:00 16.14167 C 13.28 g/m*3 16.14 C 1.46667 km/h
443 10-07-2021 10:00:00 18.26667 C 14.54 g/m*3 18.27 C 0.13333 km/h
444 10-07-2021 11:00:00 20.45833 C 15.13 g/m*3 20.46 C 1.33333 km/h
445 10-07-2021 12:00:00 22.00833 C 15.15 g/m*3 22.01 C 6.43333 km/h
446 10-07-2021 13:00:00 22.74167 C 15.44 g/m*3 22.74 C 3.6 km/h
447 10-07-2021 14:00:00 23.40833 C 13.81 g/m*3 23.41 C 8.33333 km/h
448 10-07-2021 15:00:00 24.56667 C 14.06 g/m*3 24.57 C 5.89167 km/h
449 10-07-2021 16:00:00 25.075 C 14.78 g/m*3 25.08 C 5.9 km/h
450 10-07-2021 17:00:00 23.6 C 16 g/m*3 23.6 C 2.8 km/h
Sensor: Nr:Datum:Temp:Abs-Feuchte:Windchill:Wind:
Aussen-T/F 451 10-07-2021 18:00:00 21.70833 C 15.9 g/m*3 21.71 C 1.73333 km/h
452 10-07-2021 19:00:00 22.85833 C 16.26 g/m*3 22.86 C 2.66667 km/h
453 10-07-2021 20:00:00 22.175 C 15.63 g/m*3 22.18 C 1.06667 km/h
454 10-07-2021 21:00:00 19.58333 C 14.34 g/m*3 19.58 C 4.55 km/h
455 10-07-2021 22:00:00 17.59167 C 13.54 g/m*3 17.59 C 6.30833 km/h
456 10-07-2021 23:00:00 16.59167 C 13.31 g/m*3 16.59 C 1.20833 km/h
457 11-07-2021 00:00:00 16.41667 C 13.28 g/m*3 16.42 C 0 km/h
458 11-07-2021 01:00:00 16.16667 C 13.11 g/m*3 16.17 C 1.46667 km/h
459 11-07-2021 02:00:00 15.8 C 12.92 g/m*3 15.8 C 1.2 km/h
460 11-07-2021 03:00:00 15.49167 C 12.68 g/m*3 15.49 C 0 km/h
461 11-07-2021 04:00:00 15.59167 C 12.79 g/m*3 15.59 C 0.13333 km/h
462 11-07-2021 05:00:00 15.60833 C 12.87 g/m*3 15.61 C 1.06667 km/h
463 11-07-2021 06:00:00 15.65 C 12.94 g/m*3 15.65 C 0 km/h
464 11-07-2021 07:00:00 15.96667 C 13.19 g/m*3 15.97 C 0 km/h
465 11-07-2021 08:00:00 16.175 C 13.36 g/m*3 16.18 C 0 km/h
466 11-07-2021 09:00:00 16.55 C 13.66 g/m*3 16.55 C 1.06667 km/h
467 11-07-2021 10:00:00 16.89167 C 13.92 g/m*3 16.89 C 1.6 km/h
468 11-07-2021 11:00:00 17.51667 C 14.18 g/m*3 17.52 C 2.13333 km/h
469 11-07-2021 12:00:00 18 C 14.35 g/m*3 18 C 0.4 km/h
470 11-07-2021 13:00:00 19.175 C 14.16 g/m*3 19.18 C 4.425 km/h
471 11-07-2021 14:00:00 20.7 C 14.3 g/m*3 20.7 C 6.03333 km/h
472 11-07-2021 15:00:00 21.43333 C 14.62 g/m*3 21.43 C 2.13333 km/h
473 11-07-2021 16:00:00 22.01667 C 14.72 g/m*3 22.02 C 3.33333 km/h
474 11-07-2021 17:00:00 22.9 C 16.25 g/m*3 22.9 C 1.33333 km/h
475 11-07-2021 18:00:00 22.825 C 16.31 g/m*3 22.83 C 0.4 km/h
Sensor: Nr:Datum:Temp:Abs-Feuchte:Windchill:Wind:
Aussen-T/F 476 11-07-2021 19:00:00 22.73333 C 16.19 g/m*3 22.73 C 1.46667 km/h
477 11-07-2021 20:00:00 21.85833 C 15.83 g/m*3 21.86 C 1.86667 km/h
478 11-07-2021 21:00:00 18.85 C 13.76 g/m*3 18.85 C 6.84167 km/h
479 11-07-2021 22:00:00 16.93333 C 12.96 g/m*3 16.93 C 0.8 km/h
480 11-07-2021 23:00:00 15.70833 C 12.42 g/m*3 15.71 C 0 km/h
481 12-07-2021 00:00:00 14.95 C 12.03 g/m*3 14.95 C 0 km/h
482 12-07-2021 01:00:00 14.425 C 11.76 g/m*3 14.43 C 0 km/h
483 12-07-2021 02:00:00 13.875 C 11.37 g/m*3 13.88 C 0 km/h
484 12-07-2021 03:00:00 13.41667 C 11.13 g/m*3 13.42 C 0 km/h
485 12-07-2021 04:00:00 13.48333 C 11.27 g/m*3 13.48 C 0.13333 km/h
486 12-07-2021 05:00:00 14.2 C 11.84 g/m*3 14.2 C 0.8 km/h
487 12-07-2021 06:00:00 14.15 C 11.81 g/m*3 14.15 C 1.33333 km/h
488 12-07-2021 07:00:00 14.26667 C 11.89 g/m*3 14.27 C 0.13333 km/h
489 12-07-2021 08:00:00 14.8 C 12.3 g/m*3 14.8 C 0 km/h
490 12-07-2021 09:00:00 15.95833 C 13.28 g/m*3 15.96 C 0 km/h
491 12-07-2021 10:00:00 17.98333 C 14.79 g/m*3 17.98 C 4.15833 km/h
492 12-07-2021 11:00:00 20.96667 C 14.95 g/m*3 20.97 C 8.33333 km/h
493 12-07-2021 12:00:00 22.15 C 15.04 g/m*3 22.15 C 7.66667 km/h
494 12-07-2021 13:00:00 23.3 C 15.8 g/m*3 23.3 C 5.09167 km/h
495 12-07-2021 14:00:00 23.7 C 15.94 g/m*3 23.7 C 2 km/h
496 12-07-2021 15:00:00 22.93333 C 17.22 g/m*3 22.93 C 0 km/h
497 12-07-2021 16:00:00 22.95 C 16.89 g/m*3 22.95 C 1.73333 km/h
498 12-07-2021 17:00:00 23.775 C 16.97 g/m*3 23.78 C 1.60833 km/h
499 12-07-2021 18:00:00 23.40833 C 16.97 g/m*3 23.41 C 1.475 km/h
500 12-07-2021 19:00:00 21.71667 C 16.47 g/m*3 21.72 C 0.8 km/h
Sensor: Nr:Datum:Temp:Abs-Feuchte:Windchill:Wind:
Aussen-T/F 501 12-07-2021 20:00:00 21.05 C 15.95 g/m*3 21.05 C 2.26667 km/h
502 12-07-2021 21:00:00 19.94167 C 15.26 g/m*3 19.94 C 2.26667 km/h
503 12-07-2021 22:00:00 19.49167 C 15.08 g/m*3 19.49 C 0 km/h
504 12-07-2021 23:00:00 19.275 C 15.13 g/m*3 19.27 C 0 km/h
505 13-07-2021 00:00:00 18.975 C 15.08 g/m*3 18.98 C 0 km/h
506 13-07-2021 01:00:00 18.59167 C 14.81 g/m*3 18.59 C 0 km/h
507 13-07-2021 02:00:00 18.175 C 14.59 g/m*3 18.18 C 0 km/h
508 13-07-2021 03:00:00 18.03333 C 14.57 g/m*3 18.03 C 0.26667 km/h
509 13-07-2021 04:00:00 17.86667 C 14.48 g/m*3 17.87 C 2.66667 km/h
510 13-07-2021 05:00:00 17.68333 C 14.47 g/m*3 17.68 C 0.93333 km/h
511 13-07-2021 06:00:00 17.58333 C 14.38 g/m*3 17.58 C 0.13333 km/h
512 13-07-2021 07:00:00 17.525 C 14.35 g/m*3 17.52 C 1.2 km/h
513 13-07-2021 08:00:00 17.69167 C 14.6 g/m*3 17.69 C 0.93333 km/h
514 13-07-2021 09:00:00 18.03333 C 14.93 g/m*3 18.03 C 0.4 km/h
515 13-07-2021 10:00:00 18.54167 C 15.29 g/m*3 18.54 C 1.2 km/h
516 13-07-2021 11:00:00 18.75 C 15.4 g/m*3 18.75 C 1.2 km/h
517 13-07-2021 12:00:00 19.2 C 15.66 g/m*3 19.2 C 0.93333 km/h
518 13-07-2021 13:00:00 19.84167 C 15.95 g/m*3 19.84 C 0.93333 km/h
519 13-07-2021 14:00:00 20.6 C 16.18 g/m*3 20.6 C 0.53333 km/h
520 13-07-2021 15:00:00 21.6 C 16.56 g/m*3 21.6 C 0.66667 km/h
521 13-07-2021 16:00:00 21.675 C 16.62 g/m*3 21.68 C 1.86667 km/h
522 13-07-2021 17:00:00 21.325 C 16.54 g/m*3 21.33 C 2.13333 km/h
523 13-07-2021 18:00:00 20.85 C 16.54 g/m*3 20.85 C 3.225 km/h
524 13-07-2021 19:00:00 18.325 C 14.72 g/m*3 18.33 C 4.28333 km/h
525 13-07-2021 20:00:00 17.99167 C 14.58 g/m*3 17.99 C 1.33333 km/h
Sensor: Nr:Datum:Temp:Abs-Feuchte:Windchill:Wind:
Aussen-T/F 526 13-07-2021 21:00:00 17.48333 C 14.22 g/m*3 17.48 C 2.26667 km/h
527 13-07-2021 22:00:00 17.00833 C 13.89 g/m*3 17.01 C 3.74167 km/h
528 13-07-2021 23:00:00 16.73333 C 13.67 g/m*3 16.73 C 2.53333 km/h
529 14-07-2021 00:00:00 16.40833 C 13.41 g/m*3 16.41 C 2.4 km/h
530 14-07-2021 01:00:00 16.2 C 13.24 g/m*3 16.2 C 2.13333 km/h
531 14-07-2021 02:00:00 16.175 C 13.25 g/m*3 16.18 C 2.275 km/h
532 14-07-2021 03:00:00 16.26667 C 13.43 g/m*3 16.27 C 1.46667 km/h
533 14-07-2021 04:00:00 16.225 C 13.4 g/m*3 16.23 C 0.26667 km/h
534 14-07-2021 05:00:00 16.25833 C 13.42 g/m*3 16.26 C 0.13333 km/h
535 14-07-2021 06:00:00 16.31667 C 13.47 g/m*3 16.32 C 2.68333 km/h
536 14-07-2021 07:00:00 16.53333 C 13.65 g/m*3 16.53 C 2.275 km/h
537 14-07-2021 08:00:00 17.11667 C 13.93 g/m*3 17.12 C 6.70833 km/h
538 14-07-2021 09:00:00 17.925 C 14.14 g/m*3 17.93 C 8.2 km/h
539 14-07-2021 10:00:00 18.125 C 13.99 g/m*3 18.13 C 10.35 km/h
540 14-07-2021 11:00:00 17.55 C 13.93 g/m*3 17.55 C 7.125 km/h
541 14-07-2021 12:00:00 17.34167 C 14.03 g/m*3 17.34 C 2.26667 km/h
542 14-07-2021 13:00:00 17.58333 C 14.35 g/m*3 17.58 C 0.66667 km/h
543 14-07-2021 14:00:00 17.875 C 14.64 g/m*3 17.88 C 0.4 km/h
544 14-07-2021 15:00:00 17.88333 C 14.61 g/m*3 17.88 C 0.26667 km/h
545 14-07-2021 16:00:00 17.61667 C 14.41 g/m*3 17.62 C 0 km/h
546 14-07-2021 17:00:00 17.36667 C 14.22 g/m*3 17.37 C 1.46667 km/h
547 14-07-2021 18:00:00 17.225 C 14.08 g/m*3 17.23 C 4.95 km/h
548 14-07-2021 19:00:00 17.1 C 14.12 g/m*3 17.1 C 2 km/h
549 14-07-2021 20:00:00 16.91667 C 13.97 g/m*3 16.92 C 2.53333 km/h
550 14-07-2021 21:00:00 16.66667 C 13.76 g/m*3 16.67 C 4.01667 km/h
Sensor: Nr:Datum:Temp:Abs-Feuchte:Windchill:Wind:
Aussen-T/F 551 14-07-2021 22:00:00 16.3 C 13.46 g/m*3 16.3 C 3.21667 km/h
552 14-07-2021 23:00:00 15.45 C 12.76 g/m*3 15.45 C 0.53333 km/h
553 15-07-2021 00:00:00 15.05 C 12.48 g/m*3 15.05 C 0 km/h
554 15-07-2021 01:00:00 15.425 C 12.76 g/m*3 15.43 C 0 km/h
555 15-07-2021 02:00:00 15.45 C 12.78 g/m*3 15.45 C 0 km/h
556 15-07-2021 03:00:00 15.3 C 12.73 g/m*3 15.3 C 0 km/h
557 15-07-2021 04:00:00 15.43333 C 12.9 g/m*3 15.43 C 0 km/h
558 15-07-2021 05:00:00 15.74167 C 13.15 g/m*3 15.74 C 0 km/h
559 15-07-2021 06:00:00 15.975 C 13.33 g/m*3 15.98 C 0 km/h
560 15-07-2021 07:00:00 16.35 C 13.64 g/m*3 16.35 C 0 km/h
561 15-07-2021 08:00:00 16.75 C 13.97 g/m*3 16.75 C 0.13333 km/h
562 15-07-2021 09:00:00 17.4 C 14.52 g/m*3 17.4 C 0 km/h
563 15-07-2021 10:00:00 17.84167 C 14.85 g/m*3 17.84 C 0 km/h
564 15-07-2021 11:00:00 18.4 C 15.11 g/m*3 18.4 C 0.13333 km/h
565 15-07-2021 12:00:00 19.40833 C 15.07 g/m*3 19.41 C 2.94167 km/h
566 15-07-2021 13:00:00 20.68333 C 14.66 g/m*3 20.68 C 5.88333 km/h
567 15-07-2021 14:00:00 21.56667 C 14.72 g/m*3 21.57 C 5.75833 km/h
568 15-07-2021 15:00:00 22.30833 C 14.57 g/m*3 22.31 C 9.14167 km/h
569 15-07-2021 16:00:00 23.85833 C 15.14 g/m*3 23.86 C 5.90833 km/h
570 15-07-2021 17:00:00 25.125 C 15.05 g/m*3 25.13 C 5.20833 km/h
571 15-07-2021 18:00:00 25.06667 C 14.6 g/m*3 25.07 C 7.93333 km/h
572 15-07-2021 19:00:00 22.90833 C 14.94 g/m*3 22.91 C 7.65 km/h
573 15-07-2021 20:00:00 21.775 C 15.33 g/m*3 21.78 C 2.26667 km/h
574 15-07-2021 21:00:00 20.24167 C 15.25 g/m*3 20.24 C 0.93333 km/h
575 15-07-2021 22:00:00 19.56667 C 15.43 g/m*3 19.57 C 1.2 km/h
Sensor: Nr:Datum:Temp:Abs-Feuchte:Windchill:Wind:
Aussen-T/F 576 15-07-2021 23:00:00 19.34167 C 15.53 g/m*3 19.34 C 0.8 km/h
577 16-07-2021 00:00:00 19.3 C 15.59 g/m*3 19.3 C 1.06667 km/h
578 16-07-2021 01:00:00 19.21667 C 15.52 g/m*3 19.22 C 1.86667 km/h
579 16-07-2021 02:00:00 19.18333 C 15.42 g/m*3 19.18 C 5.75833 km/h
580 16-07-2021 03:00:00 19.29167 C 15.42 g/m*3 19.29 C 3.74167 km/h
581 16-07-2021 04:00:00 19.125 C 15.27 g/m*3 19.13 C 4.41667 km/h
582 16-07-2021 05:00:00 18.825 C 15 g/m*3 18.83 C 3.88333 km/h
583 16-07-2021 06:00:00 18.68333 C 14.87 g/m*3 18.68 C 4.825 km/h
584 16-07-2021 07:00:00 18.225 C 14.48 g/m*3 18.23 C 8.05 km/h
585 16-07-2021 08:00:00 17.80833 C 14.12 g/m*3 17.81 C 5.5 km/h
586 16-07-2021 09:00:00 17.76667 C 14.02 g/m*3 17.77 C 5.075 km/h
587 16-07-2021 10:00:00 17.98333 C 13.89 g/m*3 17.98 C 6.30833 km/h
588 16-07-2021 11:00:00 18.025 C 13.83 g/m*3 18.02 C 8.60833 km/h
589 16-07-2021 12:00:00 17.61667 C 13.62 g/m*3 17.62 C 7.4 km/h
590 16-07-2021 13:00:00 17.775 C 13.61 g/m*3 17.77 C 7.11667 km/h
591 16-07-2021 14:00:00 18.13333 C 13.7 g/m*3 18.13 C 7.38333 km/h
592 16-07-2021 15:00:00 18.90833 C 13.75 g/m*3 18.91 C 9.275 km/h
593 16-07-2021 16:00:00 18.85 C 13.57 g/m*3 18.85 C 8.88333 km/h
594 16-07-2021 17:00:00 18.94167 C 13.45 g/m*3 18.94 C 6.98333 km/h
595 16-07-2021 18:00:00 18.85 C 13.43 g/m*3 18.85 C 6.41667 km/h
596 16-07-2021 19:00:00 18.66667 C 13.33 g/m*3 18.67 C 7.10833 km/h
597 16-07-2021 20:00:00 18.4 C 13.38 g/m*3 18.4 C 2.93333 km/h
598 16-07-2021 21:00:00 18.175 C 13.24 g/m*3 18.18 C 3.48333 km/h
599 16-07-2021 22:00:00 18.04167 C 13.23 g/m*3 18.04 C 1.33333 km/h
600 16-07-2021 23:00:00 17.8 C 13.32 g/m*3 17.8 C 1.46667 km/h
Sensor: Nr:Datum:Temp:Abs-Feuchte:Windchill:Wind:
Aussen-T/F 601 17-07-2021 00:00:00 17.6 C 13.49 g/m*3 17.6 C 0.4 km/h
602 17-07-2021 01:00:00 17.3 C 13.48 g/m*3 17.3 C 0 km/h
603 17-07-2021 02:00:00 17.05833 C 13.43 g/m*3 17.06 C 0 km/h
604 17-07-2021 03:00:00 16.85833 C 13.34 g/m*3 16.86 C 0.26667 km/h
605 17-07-2021 04:00:00 16.8 C 13.3 g/m*3 16.8 C 0.26667 km/h
606 17-07-2021 05:00:00 16.75 C 13.22 g/m*3 16.75 C 2.53333 km/h
607 17-07-2021 06:00:00 17.15 C 13.27 g/m*3 17.15 C 1.73333 km/h
608 17-07-2021 07:00:00 17.29167 C 13.4 g/m*3 17.29 C 1.06667 km/h
609 17-07-2021 08:00:00 17.525 C 13.49 g/m*3 17.52 C 2.53333 km/h
610 17-07-2021 09:00:00 17.78333 C 13.66 g/m*3 17.78 C 5.08333 km/h
611 17-07-2021 10:00:00 18.34167 C 13.71 g/m*3 18.34 C 8.2 km/h
612 17-07-2021 11:00:00 20.05 C 13.95 g/m*3 20.05 C 9 km/h
613 17-07-2021 12:00:00 20.59167 C 14.28 g/m*3 20.59 C 13.96667 km/h
614 17-07-2021 13:00:00 20.55 C 14.45 g/m*3 20.55 C 10.21667 km/h
615 17-07-2021 14:00:00 20.35833 C 14.5 g/m*3 20.36 C 10.75833 km/h
616 17-07-2021 15:00:00 20.83333 C 14.88 g/m*3 20.83 C 9.69167 km/h
617 17-07-2021 16:00:00 22.225 C 15.81 g/m*3 22.23 C 8.60833 km/h
618 17-07-2021 17:00:00 24.625 C 16.85 g/m*3 24.63 C 9.28333 km/h
619 17-07-2021 18:00:00 26.43333 C 16.75 g/m*3 26.43 C 10.9 km/h
620 17-07-2021 19:00:00 26.05 C 15.28 g/m*3 26.05 C 11.3 km/h
621 17-07-2021 20:00:00 25.14167 C 15.16 g/m*3 25.14 C 4.40833 km/h
622 17-07-2021 21:00:00 22.01667 C 15.35 g/m*3 22.02 C 1.86667 km/h
623 17-07-2021 22:00:00 19.48333 C 14.45 g/m*3 19.48 C 2.66667 km/h
624 17-07-2021 23:00:00 18.46667 C 13.94 g/m*3 18.47 C 1.6 km/h
625 18-07-2021 00:00:00 17.68333 C 13.41 g/m*3 17.68 C 2.53333 km/h
Sensor: Nr:Datum:Temp:Abs-Feuchte:Windchill:Wind:
Aussen-T/F 626 18-07-2021 01:00:00 17.075 C 13.02 g/m*3 17.08 C 2.13333 km/h
627 18-07-2021 02:00:00 16.43333 C 12.65 g/m*3 16.43 C 2.275 km/h
628 18-07-2021 03:00:00 15.65 C 12.27 g/m*3 15.65 C 2.66667 km/h
629 18-07-2021 04:00:00 15.26667 C 12.15 g/m*3 15.27 C 4.80833 km/h
630 18-07-2021 05:00:00 15.15833 C 12.2 g/m*3 15.16 C 4.53333 km/h
631 18-07-2021 06:00:00 15.48333 C 12.54 g/m*3 15.48 C 4.41667 km/h
632 18-07-2021 07:00:00 15.975 C 12.94 g/m*3 15.98 C 2.66667 km/h
633 18-07-2021 08:00:00 16.95 C 13.52 g/m*3 16.95 C 1.475 km/h
634 18-07-2021 09:00:00 18.14167 C 13.7 g/m*3 18.14 C 4.01667 km/h
635 18-07-2021 10:00:00 19.68333 C 13.95 g/m*3 19.68 C 5.49167 km/h
636 18-07-2021 11:00:00 21.24167 C 14.32 g/m*3 21.24 C 8.48333 km/h
637 18-07-2021 12:00:00 22.75833 C 14.63 g/m*3 22.76 C 10.225 km/h
638 18-07-2021 13:00:00 23.60833 C 14.58 g/m*3 23.61 C 12.23333 km/h
639 18-07-2021 14:00:00 24.53333 C 14.63 g/m*3 24.53 C 13.56667 km/h
640 18-07-2021 15:00:00 25.99167 C 14.84 g/m*3 25.99 C 13.16667 km/h
641 18-07-2021 16:00:00 27.46667 C 15.21 g/m*3 27.47 C 12.5 km/h
642 18-07-2021 17:00:00 27.85833 C 14.98 g/m*3 27.86 C 13.43333 km/h
643 18-07-2021 18:00:00 28.025 C 14.68 g/m*3 28.03 C 12.1 km/h
644 18-07-2021 19:00:00 27.09167 C 14.94 g/m*3 27.09 C 10.625 km/h
645 18-07-2021 20:00:00 25.75833 C 15.03 g/m*3 25.76 C 6.425 km/h
646 18-07-2021 21:00:00 22.48333 C 15.48 g/m*3 22.48 C 2.4 km/h
647 18-07-2021 22:00:00 20.23333 C 14.83 g/m*3 20.23 C 5.73333 km/h
648 18-07-2021 23:00:00 19.19167 C 14.43 g/m*3 19.19 C 2.66667 km/h
649 19-07-2021 00:00:00 17.96667 C 13.87 g/m*3 17.97 C 0.13333 km/h
650 19-07-2021 01:00:00 17.2 C 13.53 g/m*3 17.2 C 0.93333 km/h
Sensor: Nr:Datum:Temp:Abs-Feuchte:Windchill:Wind:
Aussen-T/F 651 19-07-2021 02:00:00 16.54167 C 13.09 g/m*3 16.54 C 2.66667 km/h
652 19-07-2021 03:00:00 15.78333 C 12.51 g/m*3 15.78 C 0.26667 km/h
653 19-07-2021 04:00:00 14.975 C 12.04 g/m*3 14.98 C 0 km/h
654 19-07-2021 05:00:00 14.675 C 11.91 g/m*3 14.68 C 0.13333 km/h
655 19-07-2021 06:00:00 14.64167 C 11.92 g/m*3 14.64 C 0 km/h
656 19-07-2021 07:00:00 14.88333 C 12.22 g/m*3 14.88 C 0.13333 km/h
657 19-07-2021 08:00:00 16.03333 C 13.2 g/m*3 16.03 C 0.53333 km/h
658 19-07-2021 09:00:00 17.875 C 13.9 g/m*3 17.88 C 3.6 km/h
659 19-07-2021 10:00:00 20.20833 C 13.72 g/m*3 20.21 C 9.96667 km/h
660 19-07-2021 11:00:00 20.83333 C 13.38 g/m*3 20.83 C 8.475 km/h
661 19-07-2021 12:00:00 21.50833 C 13.46 g/m*3 21.51 C 10.35833 km/h
662 19-07-2021 13:00:00 22.13333 C 13.45 g/m*3 22.13 C 8.33333 km/h
663 19-07-2021 14:00:00 22.68333 C 13.56 g/m*3 22.68 C 12.1 km/h
664 19-07-2021 15:00:00 23.39167 C 13.61 g/m*3 23.39 C 13.56667 km/h
665 19-07-2021 16:00:00 24.34167 C 13.35 g/m*3 24.34 C 12.35833 km/h
666 19-07-2021 17:00:00 23.43333 C 13.2 g/m*3 23.43 C 13.43333 km/h
667 19-07-2021 18:00:00 22.86667 C 12.95 g/m*3 22.87 C 13.96667 km/h
668 19-07-2021 19:00:00 21.575 C 12.5 g/m*3 21.58 C 10.35833 km/h
669 19-07-2021 20:00:00 20.75 C 12.14 g/m*3 20.75 C 3.475 km/h
670 19-07-2021 21:00:00 18.64167 C 12.41 g/m*3 18.64 C 0.66667 km/h
671 19-07-2021 22:00:00 16.425 C 12 g/m*3 16.43 C 2.66667 km/h
672 19-07-2021 23:00:00 15.38333 C 11.7 g/m*3 15.38 C 0.4 km/h
673 20-07-2021 00:00:00 14.31667 C 11.25 g/m*3 14.32 C 0 km/h
674 20-07-2021 01:00:00 13.6 C 10.97 g/m*3 13.6 C 0 km/h
675 20-07-2021 02:00:00 13.15 C 10.77 g/m*3 13.15 C 0 km/h
Sensor: Nr:Datum:Temp:Abs-Feuchte:Windchill:Wind:
Aussen-T/F 676 20-07-2021 03:00:00 12.675 C 10.55 g/m*3 12.68 C 0 km/h
677 20-07-2021 04:00:00 12.25 C 10.28 g/m*3 12.25 C 0 km/h
678 20-07-2021 05:00:00 11.83333 C 10.03 g/m*3 11.83 C 0 km/h
679 20-07-2021 06:00:00 11.775 C 10.09 g/m*3 11.78 C 0.26667 km/h
680 20-07-2021 07:00:00 12.31667 C 10.47 g/m*3 12.32 C 1.46667 km/h
681 20-07-2021 08:00:00 13 C 11 g/m*3 13 C 0.93333 km/h
682 20-07-2021 09:00:00 14.08333 C 11.72 g/m*3 14.08 C 1.2 km/h
683 20-07-2021 10:00:00 16.04167 C 12.65 g/m*3 16.04 C 2.66667 km/h
684 20-07-2021 11:00:00 18.61667 C 12.05 g/m*3 18.62 C 4.81667 km/h
685 20-07-2021 12:00:00 20.05 C 11.9 g/m*3 20.05 C 7.65 km/h
686 20-07-2021 13:00:00 20.66667 C 11.87 g/m*3 20.67 C 4.68333 km/h
687 20-07-2021 14:00:00 21.75833 C 11.6 g/m*3 21.76 C 7.79167 km/h
688 20-07-2021 15:00:00 23.125 C 11.92 g/m*3 23.13 C 8.85833 km/h
689 20-07-2021 16:00:00 25.39167 C 11.96 g/m*3 25.39 C 8.075 km/h
690 20-07-2021 17:00:00 25.84167 C 11.8 g/m*3 25.84 C 8.49167 km/h
691 20-07-2021 18:00:00 25.58333 C 11.52 g/m*3 25.58 C 9.15 km/h
692 20-07-2021 19:00:00 24.29167 C 11.48 g/m*3 24.29 C 6.825 km/h
693 20-07-2021 20:00:00 22.95833 C 11.96 g/m*3 22.96 C 3.475 km/h
694 20-07-2021 21:00:00 19.24167 C 12.42 g/m*3 19.24 C 4.3 km/h
695 20-07-2021 22:00:00 17.14167 C 11.76 g/m*3 17.14 C 6.69167 km/h
696 20-07-2021 23:00:00 16.075 C 11.51 g/m*3 16.08 C 1.2 km/h
697 21-07-2021 00:00:00 14.95833 C 11.16 g/m*3 14.96 C 0 km/h
698 21-07-2021 01:00:00 13.725 C 10.64 g/m*3 13.73 C 0.13333 km/h
699 21-07-2021 02:00:00 12.94167 C 10.25 g/m*3 12.94 C 0.26667 km/h
700 21-07-2021 03:00:00 12.35 C 9.99 g/m*3 12.35 C 0.26667 km/h
Sensor: Nr:Datum:Temp:Abs-Feuchte:Windchill:Wind:
Aussen-T/F 701 21-07-2021 04:00:00 11.73333 C 9.75 g/m*3 11.73 C 0 km/h
702 21-07-2021 05:00:00 11.2 C 9.52 g/m*3 11.2 C 0 km/h
703 21-07-2021 06:00:00 10.95833 C 9.44 g/m*3 10.96 C 0 km/h
704 21-07-2021 07:00:00 11.6 C 9.93 g/m*3 11.6 C 0 km/h
705 21-07-2021 08:00:00 12.60833 C 10.63 g/m*3 12.61 C 0 km/h
706 21-07-2021 09:00:00 13.80833 C 11.44 g/m*3 13.81 C 0.13333 km/h
707 21-07-2021 10:00:00 15.89167 C 12.28 g/m*3 15.89 C 2 km/h
708 21-07-2021 11:00:00 19.4 C 11.64 g/m*3 19.4 C 5.65 km/h
709 21-07-2021 12:00:00 21.08333 C 10.58 g/m*3 21.08 C 10.1 km/h
710 21-07-2021 13:00:00 21.875 C 10.85 g/m*3 21.88 C 6.05 km/h
711 21-07-2021 14:00:00 22.625 C 11 g/m*3 22.63 C 7.65833 km/h
712 21-07-2021 15:00:00 24.16667 C 11.02 g/m*3 24.17 C 5.625 km/h
713 21-07-2021 16:00:00 26.675 C 11.16 g/m*3 26.68 C 6.85 km/h
714 21-07-2021 17:00:00 27.16667 C 11.02 g/m*3 27.17 C 6.7 km/h
715 21-07-2021 18:00:00 27.55 C 11.3 g/m*3 27.55 C 4.68333 km/h
716 21-07-2021 19:00:00 25.78333 C 12.47 g/m*3 25.78 C 3.875 km/h
717 21-07-2021 20:00:00 22.13333 C 13.43 g/m*3 22.13 C 3.86667 km/h
718 21-07-2021 21:00:00 19.45 C 12.58 g/m*3 19.45 C 5.20833 km/h
719 21-07-2021 22:00:00 17.86667 C 12.05 g/m*3 17.87 C 4.8 km/h
720 21-07-2021 23:00:00 17.00833 C 11.9 g/m*3 17.01 C 1.475 km/h
721 22-07-2021 00:00:00 15.7 C 11.63 g/m*3 15.7 C 0 km/h
722 22-07-2021 01:00:00 14.55 C 11.22 g/m*3 14.55 C 0 km/h
723 22-07-2021 02:00:00 13.8 C 10.95 g/m*3 13.8 C 0 km/h
724 22-07-2021 03:00:00 13.21667 C 10.69 g/m*3 13.22 C 0 km/h
725 22-07-2021 04:00:00 12.76667 C 10.52 g/m*3 12.77 C 0 km/h
Sensor: Nr:Datum:Temp:Abs-Feuchte:Windchill:Wind:
Aussen-T/F 726 22-07-2021 05:00:00 12.83333 C 10.66 g/m*3 12.83 C 0 km/h
727 22-07-2021 06:00:00 13.10833 C 10.91 g/m*3 13.11 C 0 km/h
728 22-07-2021 07:00:00 13.80833 C 11.37 g/m*3 13.81 C 0.53333 km/h
729 22-07-2021 08:00:00 14.8 C 11.8 g/m*3 14.8 C 0.13333 km/h
730 22-07-2021 09:00:00 16.25 C 12.85 g/m*3 16.25 C 0 km/h
731 22-07-2021 10:00:00 17.73333 C 13.47 g/m*3 17.73 C 0 km/h
732 22-07-2021 11:00:00 19.9 C 13.62 g/m*3 19.9 C 0.26667 km/h
733 22-07-2021 12:00:00 21.84167 C 12.55 g/m*3 21.84 C 0.93333 km/h
734 22-07-2021 13:00:00 23.575 C 12.05 g/m*3 23.58 C 5.75 km/h
735 22-07-2021 14:00:00 24.30833 C 12.47 g/m*3 24.31 C 5.08333 km/h
736 22-07-2021 15:00:00 24.76667 C 13.22 g/m*3 24.77 C 3.075 km/h
737 22-07-2021 16:00:00 25.425 C 13.14 g/m*3 25.43 C 5.2 km/h
738 22-07-2021 17:00:00 25.65 C 14.3 g/m*3 25.65 C 3.61667 km/h
739 22-07-2021 18:00:00 26.13333 C 13.24 g/m*3 26.13 C 4.15 km/h
740 22-07-2021 19:00:00 25.89167 C 14.96 g/m*3 25.89 C 0 km/h
741 22-07-2021 20:00:00 22.425 C 14.09 g/m*3 22.43 C 4.81667 km/h
742 22-07-2021 21:00:00 19.58333 C 12.97 g/m*3 19.58 C 4.14167 km/h
743 22-07-2021 22:00:00 17.35833 C 12.45 g/m*3 17.36 C 0 km/h
744 22-07-2021 23:00:00 16.58333 C 12.35 g/m*3 16.58 C 0 km/h
745 23-07-2021 00:00:00 16.40833 C 12.34 g/m*3 16.41 C 0 km/h
746 23-07-2021 01:00:00 16.21667 C 12.37 g/m*3 16.22 C 0 km/h
747 23-07-2021 02:00:00 15.375 C 12 g/m*3 15.38 C 0.4 km/h
748 23-07-2021 03:00:00 14.75 C 11.73 g/m*3 14.75 C 0.13333 km/h
749 23-07-2021 04:00:00 14.23333 C 11.5 g/m*3 14.23 C 0 km/h
750 23-07-2021 05:00:00 13.7 C 11.18 g/m*3 13.7 C 0 km/h
Sensor: Nr:Datum:Temp:Abs-Feuchte:Windchill:Wind:
Aussen-T/F 751 23-07-2021 06:00:00 13.65 C 11.21 g/m*3 13.65 C 0.13333 km/h
752 23-07-2021 07:00:00 14.03333 C 11.56 g/m*3 14.03 C 0.26667 km/h
753 23-07-2021 08:00:00 15.20833 C 12.47 g/m*3 15.21 C 0 km/h
754 23-07-2021 09:00:00 16.50833 C 13.32 g/m*3 16.51 C 0.53333 km/h
755 23-07-2021 10:00:00 18.65 C 13.98 g/m*3 18.65 C 1.2 km/h
756 23-07-2021 11:00:00 20.75833 C 14.38 g/m*3 20.76 C 3.2 km/h
757 23-07-2021 12:00:00 22.125 C 14.5 g/m*3 22.13 C 4.81667 km/h
758 23-07-2021 13:00:00 23.35 C 13.49 g/m*3 23.35 C 4.81667 km/h
759 23-07-2021 14:00:00 24.53333 C 12.93 g/m*3 24.53 C 5.09167 km/h
760 23-07-2021 15:00:00 26.05 C 13.31 g/m*3 26.05 C 7.525 km/h
761 23-07-2021 16:00:00 28.175 C 14.07 g/m*3 28.18 C 5.225 km/h
762 23-07-2021 17:00:00 28.825 C 13.11 g/m*3 28.83 C 6.975 km/h
763 23-07-2021 18:00:00 28.88333 C 12.58 g/m*3 28.88 C 4.94167 km/h
764 23-07-2021 19:00:00 27.525 C 15.45 g/m*3 27.53 C 1.86667 km/h
765 23-07-2021 20:00:00 24.09167 C 14.85 g/m*3 24.09 C 2.93333 km/h
766 23-07-2021 21:00:00 21.25 C 13.6 g/m*3 21.25 C 3.61667 km/h
767 23-07-2021 22:00:00 19.23333 C 13.33 g/m*3 19.23 C 1.06667 km/h
768 23-07-2021 23:00:00 17.50833 C 12.8 g/m*3 17.51 C 0 km/h
769 24-07-2021 00:00:00 16.29167 C 12.3 g/m*3 16.29 C 0 km/h
770 24-07-2021 01:00:00 15.54167 C 12 g/m*3 15.54 C 0 km/h
771 24-07-2021 02:00:00 15.01667 C 11.86 g/m*3 15.02 C 0 km/h
772 24-07-2021 03:00:00 14.49167 C 11.62 g/m*3 14.49 C 0 km/h
773 24-07-2021 04:00:00 14.2 C 11.51 g/m*3 14.2 C 0 km/h
774 24-07-2021 05:00:00 14.30833 C 11.69 g/m*3 14.31 C 0.4 km/h
775 24-07-2021 06:00:00 14.95833 C 12.28 g/m*3 14.96 C 0.4 km/h
Sensor: Nr:Datum:Temp:Abs-Feuchte:Windchill:Wind:
Aussen-T/F 776 24-07-2021 07:00:00 15.83333 C 12.95 g/m*3 15.83 C 0.26667 km/h
777 24-07-2021 08:00:00 17.26667 C 13.96 g/m*3 17.27 C 0.26667 km/h
778 24-07-2021 09:00:00 18.84167 C 13.95 g/m*3 18.84 C 1.06667 km/h
779 24-07-2021 10:00:00 20.84167 C 15.19 g/m*3 20.84 C 0.8 km/h
780 24-07-2021 11:00:00 20.05833 C 15.53 g/m*3 20.06 C 7.10833 km/h
781 24-07-2021 12:00:00 18.99167 C 15.31 g/m*3 18.99 C 3.46667 km/h
782 24-07-2021 13:00:00 20 C 16.5 g/m*3 20 C 0.26667 km/h
783 24-07-2021 14:00:00 19.14167 C 15.57 g/m*3 19.14 C 7.90833 km/h
784 24-07-2021 15:00:00 19.04167 C 15.63 g/m*3 19.04 C 2.54167 km/h
785 24-07-2021 16:00:00 18.9 C 15.5 g/m*3 18.9 C 2.13333 km/h
786 24-07-2021 17:00:00 20.75 C 16.43 g/m*3 20.75 C 4.41667 km/h
787 24-07-2021 18:00:00 22.5 C 16.56 g/m*3 22.5 C 3.475 km/h
788 24-07-2021 19:00:00 21.675 C 16.86 g/m*3 21.68 C 1.73333 km/h
789 24-07-2021 20:00:00 19.9 C 15.71 g/m*3 19.9 C 1.73333 km/h
790 24-07-2021 21:00:00 18.975 C 15.27 g/m*3 18.98 C 2.26667 km/h
791 24-07-2021 22:00:00 18.28333 C 14.8 g/m*3 18.28 C 1.33333 km/h
792 24-07-2021 23:00:00 17.525 C 14.18 g/m*3 17.52 C 2 km/h
793 25-07-2021 00:00:00 16.76667 C 13.6 g/m*3 16.77 C 0.13333 km/h
794 25-07-2021 01:00:00 16.275 C 13.3 g/m*3 16.27 C 0.4 km/h
795 25-07-2021 02:00:00 16.025 C 13.12 g/m*3 16.02 C 0 km/h
796 25-07-2021 03:00:00 16.00833 C 13.15 g/m*3 16.01 C 0.13333 km/h
797 25-07-2021 04:00:00 15.26667 C 12.53 g/m*3 15.27 C 0.13333 km/h
798 25-07-2021 05:00:00 15.01667 C 12.44 g/m*3 15.02 C 0 km/h
799 25-07-2021 06:00:00 15.43333 C 12.77 g/m*3 15.43 C 0 km/h
800 25-07-2021 07:00:00 16.19167 C 13.39 g/m*3 16.19 C 0 km/h
Sensor: Nr:Datum:Temp:Abs-Feuchte:Windchill:Wind:
Aussen-T/F 801 25-07-2021 08:00:00 16.78333 C 13.93 g/m*3 16.78 C 1.6 km/h
802 25-07-2021 09:00:00 17.66667 C 14.61 g/m*3 17.67 C 5.75833 km/h
803 25-07-2021 10:00:00 19.3 C 15.3 g/m*3 19.3 C 4.94167 km/h
804 25-07-2021 11:00:00 21.54167 C 15.45 g/m*3 21.54 C 9.425 km/h
805 25-07-2021 12:00:00 22.65833 C 14.65 g/m*3 22.66 C 11.01667 km/h
806 25-07-2021 13:00:00 23.7 C 15.99 g/m*3 23.7 C 4.15 km/h
807 25-07-2021 14:00:00 23.525 C 16.02 g/m*3 23.53 C 6.84167 km/h
808 25-07-2021 15:00:00 24.3 C 15.82 g/m*3 24.3 C 5.48333 km/h
809 25-07-2021 16:00:00 23.4625 C 16.57 g/m*3 23.46 C 4.8375 km/h
810 25-07-2021 17:00:00 20.8 C 16.02 g/m*3 20.8 C 3.075 km/h
811 25-07-2021 18:00:00 23.21667 C 17.03 g/m*3 23.22 C 2.93333 km/h
812 25-07-2021 19:00:00 22.48333 C 16.65 g/m*3 22.48 C 3.86667 km/h
813 25-07-2021 20:00:00 20.19167 C 15.66 g/m*3 20.19 C 4.13333 km/h
814 25-07-2021 21:00:00 18.93333 C 14.95 g/m*3 18.93 C 6.00833 km/h
815 25-07-2021 22:00:00 17.75833 C 14.12 g/m*3 17.76 C 2 km/h
816 25-07-2021 23:00:00 17.08333 C 13.67 g/m*3 17.08 C 0.8 km/h
817 26-07-2021 00:00:00 16.38333 C 13.21 g/m*3 16.38 C 0 km/h
818 26-07-2021 01:00:00 15.81667 C 12.81 g/m*3 15.82 C 0 km/h
819 26-07-2021 02:00:00 15.66667 C 12.8 g/m*3 15.67 C 0 km/h
820 26-07-2021 03:00:00 15.36667 C 12.59 g/m*3 15.37 C 0 km/h
821 26-07-2021 04:00:00 15.125 C 12.41 g/m*3 15.13 C 0.13333 km/h
822 26-07-2021 05:00:00 15.31667 C 12.61 g/m*3 15.32 C 0 km/h
823 26-07-2021 06:00:00 15.26667 C 12.64 g/m*3 15.27 C 0 km/h
824 26-07-2021 07:00:00 15.26667 C 12.64 g/m*3 15.27 C 0 km/h
825 26-07-2021 08:00:00 15.69167 C 12.97 g/m*3 15.69 C 0.53333 km/h
Sensor: Nr:Datum:Temp:Abs-Feuchte:Windchill:Wind:
Aussen-T/F 826 26-07-2021 09:00:00 16.575 C 13.76 g/m*3 16.58 C 0 km/h
827 26-07-2021 10:00:00 18.38333 C 15.18 g/m*3 18.38 C 4.71667 km/h
828 26-07-2021 11:00:00 20.83333 C 14.97 g/m*3 20.83 C 9.54167 km/h
829 26-07-2021 12:00:00 22.19167 C 15.09 g/m*3 22.19 C 10.35 km/h
830 26-07-2021 13:00:00 23.01667 C 14.56 g/m*3 23.02 C 14.1 km/h
831 26-07-2021 14:00:00 23.96667 C 14.42 g/m*3 23.97 C 13.56667 km/h
832 26-07-2021 15:00:00 25.60833 C 14.37 g/m*3 25.61 C 15.96667 km/h
833 26-07-2021 16:00:00 25.79167 C 14.58 g/m*3 25.79 C 10.20833 km/h
834 26-07-2021 17:00:00 26.55 C 14.77 g/m*3 26.55 C 9.93333 km/h
835 26-07-2021 18:00:00 26.475 C 14.33 g/m*3 26.48 C 12.9 km/h
836 26-07-2021 19:00:00 24.64167 C 14.02 g/m*3 24.64 C 7.525 km/h
837 26-07-2021 20:00:00 22.20833 C 14.6 g/m*3 22.21 C 4.66667 km/h
838 26-07-2021 21:00:00 20.18333 C 14.5 g/m*3 20.18 C 4 km/h
839 26-07-2021 22:00:00 19.08333 C 14.04 g/m*3 19.08 C 4.13333 km/h
840 26-07-2021 23:00:00 18.625 C 13.63 g/m*3 18.63 C 2.80833 km/h
841 27-07-2021 00:00:00 18.325 C 13.62 g/m*3 18.33 C 2.4 km/h
842 27-07-2021 01:00:00 17.50833 C 13.2 g/m*3 17.51 C 1.06667 km/h
843 27-07-2021 02:00:00 16.55833 C 12.93 g/m*3 16.56 C 2 km/h
844 27-07-2021 03:00:00 16.88333 C 13.29 g/m*3 16.88 C 0.53333 km/h
845 27-07-2021 04:00:00 16.475 C 12.98 g/m*3 16.48 C 0.26667 km/h
846 27-07-2021 05:00:00 15.775 C 12.6 g/m*3 15.78 C 0.53333 km/h
847 27-07-2021 06:00:00 15.74167 C 12.73 g/m*3 15.74 C 0.26667 km/h
848 27-07-2021 07:00:00 16.10833 C 13.09 g/m*3 16.11 C 0.53333 km/h
849 27-07-2021 08:00:00 17.55 C 13.82 g/m*3 17.55 C 4.16667 km/h
850 27-07-2021 09:00:00 19.05833 C 14.27 g/m*3 19.06 C 0.66667 km/h
Sensor: Nr:Datum:Temp:Abs-Feuchte:Windchill:Wind:
Aussen-T/F 851 27-07-2021 10:00:00 20.46667 C 14.53 g/m*3 20.47 C 6.975 km/h
852 27-07-2021 11:00:00 22.33333 C 14.79 g/m*3 22.33 C 8.89167 km/h
853 27-07-2021 12:00:00 23.24167 C 14.78 g/m*3 23.24 C 10.225 km/h
854 27-07-2021 13:00:00 24 C 14.7 g/m*3 24 C 9.275 km/h
855 27-07-2021 14:00:00 23.51667 C 15.06 g/m*3 23.52 C 7.79167 km/h
856 27-07-2021 15:00:00 19.88333 C 13.97 g/m*3 19.88 C 6.29167 km/h
857 27-07-2021 16:00:00 17.95833 C 13.85 g/m*3 17.96 C 5.51667 km/h
858 27-07-2021 17:00:00 17.89167 C 14.07 g/m*3 17.89 C 0.93333 km/h
859 27-07-2021 18:00:00 18.30833 C 14.21 g/m*3 18.31 C 0.8 km/h
860 27-07-2021 19:00:00 17.50833 C 13.75 g/m*3 17.51 C 1.86667 km/h
861 27-07-2021 20:00:00 17.06667 C 13.66 g/m*3 17.07 C 0.26667 km/h
862 27-07-2021 21:00:00 16.70833 C 13.46 g/m*3 16.71 C 0.66667 km/h
863 27-07-2021 22:00:00 16.30833 C 13.19 g/m*3 16.31 C 1.06667 km/h
864 27-07-2021 23:00:00 15.70833 C 12.73 g/m*3 15.71 C 3.875 km/h
865 28-07-2021 00:00:00 14.76667 C 12.07 g/m*3 14.77 C 4.93333 km/h
866 28-07-2021 01:00:00 14.325 C 11.81 g/m*3 14.33 C 2.93333 km/h
867 28-07-2021 02:00:00 13.81667 C 11.45 g/m*3 13.82 C 0 km/h
868 28-07-2021 03:00:00 14.175 C 11.83 g/m*3 14.18 C 0.13333 km/h
869 28-07-2021 04:00:00 14.3 C 11.92 g/m*3 14.3 C 0 km/h
870 28-07-2021 05:00:00 14.825 C 12.31 g/m*3 14.83 C 0 km/h
871 28-07-2021 06:00:00 15.24167 C 12.62 g/m*3 15.24 C 0.13333 km/h
872 28-07-2021 07:00:00 15.85833 C 13.14 g/m*3 15.86 C 0.13333 km/h
873 28-07-2021 08:00:00 16.74167 C 13.89 g/m*3 16.74 C 0.26667 km/h
874 28-07-2021 09:00:00 17.38333 C 14.44 g/m*3 17.38 C 2.68333 km/h
875 28-07-2021 10:00:00 17.8 C 14.65 g/m*3 17.8 C 4.14167 km/h
Sensor: Nr:Datum:Temp:Abs-Feuchte:Windchill:Wind:
Aussen-T/F 876 28-07-2021 11:00:00 18.6 C 14.64 g/m*3 18.6 C 11.41667 km/h
877 28-07-2021 12:00:00 19.86667 C 14.52 g/m*3 19.87 C 15.7 km/h
878 28-07-2021 13:00:00 20.93333 C 14.48 g/m*3 20.93 C 13.3 km/h
879 28-07-2021 14:00:00 21.04167 C 14.23 g/m*3 21.04 C 13.83333 km/h
880 28-07-2021 15:00:00 22.03333 C 14.6 g/m*3 22.03 C 15.03333 km/h
881 28-07-2021 16:00:00 23.83333 C 14.51 g/m*3 23.83 C 12.5 km/h
882 28-07-2021 17:00:00 24.25 C 13.92 g/m*3 24.25 C 14.76667 km/h
883 28-07-2021 18:00:00 24.15833 C 12.92 g/m*3 24.16 C 14.63333 km/h
884 28-07-2021 19:00:00 22.975 C 12.67 g/m*3 22.98 C 12.35833 km/h
885 28-07-2021 20:00:00 21.23333 C 12.67 g/m*3 21.23 C 9.525 km/h
886 28-07-2021 21:00:00 19.09167 C 12.97 g/m*3 19.09 C 4.26667 km/h
887 28-07-2021 22:00:00 16.90833 C 12.47 g/m*3 16.91 C 4.13333 km/h
888 28-07-2021 23:00:00 15.98333 C 12.19 g/m*3 15.98 C 3.33333 km/h
889 29-07-2021 00:00:00 15.39167 C 12.05 g/m*3 15.39 C 2 km/h
890 29-07-2021 01:00:00 14.875 C 11.76 g/m*3 14.88 C 1.2 km/h
891 29-07-2021 02:00:00 14.775 C 11.76 g/m*3 14.78 C 0.53333 km/h
892 29-07-2021 03:00:00 15.075 C 11.85 g/m*3 15.08 C 1.06667 km/h
893 29-07-2021 04:00:00 14.75 C 11.52 g/m*3 14.75 C 2.13333 km/h
894 29-07-2021 05:00:00 15.15833 C 11.72 g/m*3 15.16 C 3.48333 km/h
895 29-07-2021 06:00:00 15.28333 C 11.81 g/m*3 15.28 C 0.66667 km/h
896 29-07-2021 07:00:00 15.56667 C 12.19 g/m*3 15.57 C 3.35833 km/h
897 29-07-2021 08:00:00 17.29167 C 12.39 g/m*3 17.29 C 7.93333 km/h
898 29-07-2021 09:00:00 18.15 C 12.35 g/m*3 18.15 C 12.625 km/h
899 29-07-2021 10:00:00 18.79167 C 12.17 g/m*3 18.79 C 13.56667 km/h
900 29-07-2021 11:00:00 18.93333 C 11.88 g/m*3 18.93 C 13.69167 km/h
Sensor: Nr:Datum:Temp:Abs-Feuchte:Windchill:Wind:
Aussen-T/F 901 29-07-2021 12:00:00 19.525 C 11.56 g/m*3 19.52 C 13.425 km/h
902 29-07-2021 13:00:00 20.2 C 11.16 g/m*3 20.2 C 14.36667 km/h
903 29-07-2021 14:00:00 20.65833 C 11.18 g/m*3 20.66 C 12.08333 km/h
904 29-07-2021 15:00:00 20.74167 C 10.93 g/m*3 20.74 C 15.15833 km/h
905 29-07-2021 16:00:00 21.8 C 11.45 g/m*3 21.8 C 11.15 km/h
906 29-07-2021 17:00:00 23.31667 C 10.87 g/m*3 23.32 C 15.96667 km/h
907 29-07-2021 18:00:00 23.60833 C 11.4 g/m*3 23.61 C 11.275 km/h
908 29-07-2021 19:00:00 22.29167 C 11.55 g/m*3 22.29 C 8.45833 km/h
909 29-07-2021 20:00:00 20.20833 C 12.51 g/m*3 20.21 C 3.86667 km/h
910 29-07-2021 21:00:00 17.51667 C 11.95 g/m*3 17.52 C 3.6 km/h
911 29-07-2021 22:00:00 15.99167 C 11.4 g/m*3 15.99 C 2.53333 km/h
912 29-07-2021 23:00:00 15.09167 C 11.31 g/m*3 15.09 C 0 km/h
913 30-07-2021 00:00:00 14.38333 C 11.04 g/m*3 14.38 C 0 km/h
914 30-07-2021 01:00:00 13.93333 C 10.87 g/m*3 13.93 C 1.75 km/h
915 30-07-2021 02:00:00 13.39167 C 10.64 g/m*3 13.39 C 0 km/h
916 30-07-2021 03:00:00 12.89167 C 10.44 g/m*3 12.89 C 0.26667 km/h
917 30-07-2021 04:00:00 12.25833 C 10.1 g/m*3 12.26 C 0.13333 km/h
918 30-07-2021 05:00:00 11.74167 C 9.86 g/m*3 11.74 C 0 km/h
919 30-07-2021 06:00:00 11.6 C 9.87 g/m*3 11.6 C 0 km/h
920 30-07-2021 07:00:00 11.98333 C 10.18 g/m*3 11.98 C 0 km/h
921 30-07-2021 08:00:00 13.025 C 10.9 g/m*3 13.03 C 0 km/h
922 30-07-2021 09:00:00 14.11667 C 11.67 g/m*3 14.12 C 0.26667 km/h
923 30-07-2021 10:00:00 16.48333 C 12.6 g/m*3 16.48 C 6.85 km/h
924 30-07-2021 11:00:00 20.56667 C 12.19 g/m*3 20.57 C 13.15833 km/h
925 30-07-2021 12:00:00 21.85833 C 12.3 g/m*3 21.86 C 13.16667 km/h
Sensor: Nr:Datum:Temp:Abs-Feuchte:Windchill:Wind:
Aussen-T/F 926 30-07-2021 13:00:00 22.91667 C 12.6 g/m*3 22.92 C 14.1 km/h
927 30-07-2021 14:00:00 23.69167 C 12.65 g/m*3 23.69 C 13.16667 km/h
928 30-07-2021 15:00:00 25.55833 C 12.98 g/m*3 25.56 C 13.56667 km/h
929 30-07-2021 16:00:00 26.75833 C 12.97 g/m*3 26.76 C 13.16667 km/h
930 30-07-2021 17:00:00 27.69167 C 12.59 g/m*3 27.69 C 12.9 km/h
931 30-07-2021 18:00:00 26.86667 C 12.45 g/m*3 26.87 C 13.7 km/h
932 30-07-2021 19:00:00 24.80833 C 13.13 g/m*3 24.81 C 7.525 km/h
933 30-07-2021 20:00:00 22.95833 C 12.9 g/m*3 22.96 C 6.71667 km/h
934 30-07-2021 21:00:00 21 C 12.79 g/m*3 21 C 4.55 km/h
935 30-07-2021 22:00:00 19.45833 C 12.51 g/m*3 19.46 C 6.71667 km/h
936 30-07-2021 23:00:00 19.10833 C 11.26 g/m*3 19.11 C 7.10833 km/h
937 31-07-2021 00:00:00 17.16667 C 11.14 g/m*3 17.17 C 1.06667 km/h
938 31-07-2021 01:00:00 16.05833 C 11.21 g/m*3 16.06 C 0 km/h
939 31-07-2021 02:00:00 16.40833 C 10.79 g/m*3 16.41 C 7.11667 km/h
940 31-07-2021 03:00:00 17.275 C 10.41 g/m*3 17.27 C 9.13333 km/h
941 31-07-2021 04:00:00 16.43333 C 10.27 g/m*3 16.43 C 9.66667 km/h
942 31-07-2021 05:00:00 15.6 C 10.21 g/m*3 15.6 C 4.14167 km/h
943 31-07-2021 06:00:00 15.25833 C 10.29 g/m*3 15.26 C 8.73333 km/h
944 31-07-2021 07:00:00 15.45 C 10.44 g/m*3 15.45 C 11.41667 km/h
945 31-07-2021 08:00:00 16.05 C 10.55 g/m*3 16.05 C 18.5 km/h
946 31-07-2021 09:00:00 16.59167 C 10.68 g/m*3 16.59 C 17.96667 km/h
947 31-07-2021 10:00:00 17.78333 C 11.07 g/m*3 17.78 C 16.1 km/h
948 31-07-2021 11:00:00 19.09167 C 11.25 g/m*3 19.09 C 17.7 km/h
949 31-07-2021 12:00:00 19.925 C 11.38 g/m*3 19.93 C 17.7 km/h
950 31-07-2021 13:00:00 20.70833 C 11.38 g/m*3 20.71 C 16.63333 km/h
Sensor: Nr:Datum:Temp:Abs-Feuchte:Windchill:Wind:
Aussen-T/F 951 31-07-2021 14:00:00 21.16667 C 11.3 g/m*3 21.17 C 16.36667 km/h
952 31-07-2021 15:00:00 21.41667 C 11.48 g/m*3 21.42 C 14.76667 km/h
953 31-07-2021 16:00:00 22.09167 C 11.35 g/m*3 22.09 C 11.96667 km/h
954 31-07-2021 17:00:00 21.85 C 11.83 g/m*3 21.85 C 9.39167 km/h
955 31-07-2021 18:00:00 21.15 C 12.2 g/m*3 21.15 C 5.825 km/h
956 31-07-2021 19:00:00 20.95 C 12.66 g/m*3 20.95 C 2.94167 km/h
957 31-07-2021 20:00:00 19.28333 C 12.52 g/m*3 19.28 C 2.53333 km/h
958 31-07-2021 21:00:00 18.06667 C 12.37 g/m*3 18.07 C 1.86667 km/h
959 31-07-2021 22:00:00 17.34167 C 12.25 g/m*3 17.34 C 0 km/h
960 31-07-2021 23:00:00 16.48333 C 11.89 g/m*3 16.48 C 2.53333 km/h
961 01-08-2021 00:00:00 15.725 C 11.57 g/m*3 15.73 C 1.33333 km/h
962 01-08-2021 01:00:00 15.31667 C 11.63 g/m*3 15.32 C 0.26667 km/h
963 01-08-2021 02:00:00 15.30833 C 11.65 g/m*3 15.31 C 0.4 km/h
964 01-08-2021 03:00:00 14.45833 C 11.14 g/m*3 14.46 C 0.93333 km/h
965 01-08-2021 04:00:00 13.70833 C 10.93 g/m*3 13.71 C 0 km/h
966 01-08-2021 05:00:00 13.525 C 10.92 g/m*3 13.53 C 0.26667 km/h
967 01-08-2021 06:00:00 13.54167 C 11.02 g/m*3 13.54 C 2.94167 km/h
968 01-08-2021 07:00:00 14.18333 C 11.38 g/m*3 14.18 C 5.2 km/h
969 01-08-2021 08:00:00 14.99167 C 11.74 g/m*3 14.99 C 4.13333 km/h
970 01-08-2021 09:00:00 16.025 C 11.99 g/m*3 16.02 C 4.275 km/h
971 01-08-2021 10:00:00 17.55 C 12.25 g/m*3 17.55 C 3.475 km/h
972 01-08-2021 11:00:00 19 C 12.06 g/m*3 19 C 6.15833 km/h
973 01-08-2021 12:00:00 19.86667 C 12.09 g/m*3 19.87 C 8.6 km/h
974 01-08-2021 13:00:00 20.675 C 11.67 g/m*3 20.68 C 12.5 km/h
975 01-08-2021 14:00:00 20.91667 C 11.44 g/m*3 20.92 C 12.76667 km/h
Sensor: Nr:Datum:Temp:Abs-Feuchte:Windchill:Wind:
Aussen-T/F 976 01-08-2021 15:00:00 22.35 C 11.17 g/m*3 22.35 C 12.75833 km/h
977 01-08-2021 16:00:00 22.11667 C 11.56 g/m*3 22.12 C 7.525 km/h
978 01-08-2021 17:00:00 21.65833 C 12.5 g/m*3 21.66 C 12.48333 km/h
979 01-08-2021 18:00:00 20.25 C 12.82 g/m*3 20.25 C 8.325 km/h
980 01-08-2021 19:00:00 17.39167 C 13.23 g/m*3 17.39 C 5.35 km/h
981 01-08-2021 20:00:00 16.2 C 12.74 g/m*3 16.2 C 6.975 km/h
982 01-08-2021 21:00:00 15.21667 C 12.13 g/m*3 15.22 C 5.5 km/h
983 01-08-2021 22:00:00 14.675 C 11.88 g/m*3 14.68 C 3.2 km/h
984 01-08-2021 23:00:00 14.13333 C 11.55 g/m*3 14.13 C 2.8 km/h
985 02-08-2021 00:00:00 13.68333 C 11.3 g/m*3 13.68 C 1.2 km/h
986 02-08-2021 01:00:00 13.41667 C 11.15 g/m*3 13.42 C 0.66667 km/h
987 02-08-2021 02:00:00 13.59167 C 11.29 g/m*3 13.59 C 0.93333 km/h
988 02-08-2021 03:00:00 13.93333 C 11.57 g/m*3 13.93 C 2.26667 km/h
989 02-08-2021 04:00:00 14.05 C 11.65 g/m*3 14.05 C 1.33333 km/h
990 02-08-2021 05:00:00 13.93333 C 11.53 g/m*3 13.93 C 2.66667 km/h
991 02-08-2021 06:00:00 13.975 C 11.56 g/m*3 13.98 C 1.6 km/h
992 02-08-2021 07:00:00 14.10833 C 11.65 g/m*3 14.11 C 4.96667 km/h
993 02-08-2021 08:00:00 15.06667 C 12.04 g/m*3 15.07 C 6.3 km/h
994 02-08-2021 09:00:00 15.95 C 12.21 g/m*3 15.95 C 3.2 km/h
995 02-08-2021 10:00:00 16.45 C 12.26 g/m*3 16.45 C 4.275 km/h
996 02-08-2021 11:00:00 18.18333 C 12.9 g/m*3 18.18 C 6.975 km/h
997 02-08-2021 12:00:00 18.875 C 13.35 g/m*3 18.88 C 7.38333 km/h
998 02-08-2021 13:00:00 18.20833 C 12.98 g/m*3 18.21 C 7.91667 km/h
999 02-08-2021 14:00:00 18.31667 C 13.23 g/m*3 18.32 C 5.9 km/h
1000 02-08-2021 15:00:00 17.275 C 13.4 g/m*3 17.27 C 2.53333 km/h
Sensor: Nr:Datum:Temp:Abs-Feuchte:Windchill:Wind:
Aussen-T/F 1001 02-08-2021 16:00:00 16.575 C 13.21 g/m*3 16.58 C 2.53333 km/h
1002 02-08-2021 17:00:00 18.31667 C 14.52 g/m*3 18.32 C 0.93333 km/h
1003 02-08-2021 18:00:00 17.9 C 13.59 g/m*3 17.9 C 6.425 km/h
1004 02-08-2021 19:00:00 18.725 C 13.99 g/m*3 18.73 C 0.93333 km/h
1005 02-08-2021 20:00:00 17.61667 C 13.29 g/m*3 17.62 C 2.81667 km/h
1006 02-08-2021 21:00:00 15.28333 C 12.02 g/m*3 15.28 C 6.98333 km/h
1007 02-08-2021 22:00:00 14.275 C 11.53 g/m*3 14.28 C 4.00833 km/h
1008 02-08-2021 23:00:00 13.95833 C 11.43 g/m*3 13.96 C 0.53333 km/h
1009 03-08-2021 00:00:00 13.54167 C 11.14 g/m*3 13.54 C 0.4 km/h
1010 03-08-2021 01:00:00 12.98333 C 10.8 g/m*3 12.98 C 0 km/h
1011 03-08-2021 02:00:00 12.91667 C 10.83 g/m*3 12.92 C 0 km/h
1012 03-08-2021 03:00:00 13.1 C 10.95 g/m*3 13.1 C 0 km/h
1013 03-08-2021 04:00:00 13.26667 C 11.09 g/m*3 13.27 C 0 km/h
1014 03-08-2021 05:00:00 13.35 C 11.18 g/m*3 13.35 C 0 km/h
1015 03-08-2021 06:00:00 13.60833 C 11.42 g/m*3 13.61 C 0 km/h
1016 03-08-2021 07:00:00 14.09167 C 11.77 g/m*3 14.09 C 0.26667 km/h
1017 03-08-2021 08:00:00 14.66667 C 12.19 g/m*3 14.67 C 0 km/h
1018 03-08-2021 09:00:00 14.88333 C 12.35 g/m*3 14.88 C 0.53333 km/h
1019 03-08-2021 10:00:00 15.19167 C 12.58 g/m*3 15.19 C 0.26667 km/h
1020 03-08-2021 11:00:00 15.875 C 13.08 g/m*3 15.88 C 0.93333 km/h
1021 03-08-2021 12:00:00 16.74167 C 13.44 g/m*3 16.74 C 3.48333 km/h
1022 03-08-2021 13:00:00 17.49167 C 13.11 g/m*3 17.49 C 5.90833 km/h
1023 03-08-2021 14:00:00 18.475 C 13.31 g/m*3 18.48 C 4.00833 km/h
1024 03-08-2021 15:00:00 19.56667 C 13.51 g/m*3 19.57 C 1.74167 km/h
1025 03-08-2021 16:00:00 20.01667 C 14 g/m*3 20.02 C 1.86667 km/h
Sensor: Nr:Datum:Temp:Abs-Feuchte:Windchill:Wind:
Aussen-T/F 1026 03-08-2021 17:00:00 19.44167 C 13.94 g/m*3 19.44 C 5.09167 km/h
1027 03-08-2021 18:00:00 21.04167 C 13.89 g/m*3 21.04 C 6.98333 km/h
1028 03-08-2021 19:00:00 20.10833 C 13.61 g/m*3 20.11 C 3.21667 km/h
1029 03-08-2021 20:00:00 17.96667 C 13.46 g/m*3 17.97 C 2.93333 km/h
1030 03-08-2021 21:00:00 16.38333 C 13 g/m*3 16.38 C 5.2 km/h
1031 03-08-2021 22:00:00 15.825 C 12.81 g/m*3 15.83 C 3.86667 km/h
1032 03-08-2021 23:00:00 15.6 C 12.68 g/m*3 15.6 C 1.33333 km/h
1033 04-08-2021 00:00:00 14.83333 C 12.12 g/m*3 14.83 C 1.73333 km/h
1034 04-08-2021 01:00:00 14.76667 C 12.14 g/m*3 14.77 C 1.33333 km/h
1035 04-08-2021 02:00:00 14.8 C 12.16 g/m*3 14.8 C 1.86667 km/h
1036 04-08-2021 03:00:00 14.075 C 11.63 g/m*3 14.08 C 0.66667 km/h
1037 04-08-2021 04:00:00 12.975 C 10.87 g/m*3 12.98 C 0.13333 km/h
1038 04-08-2021 05:00:00 12.675 C 10.7 g/m*3 12.68 C 0.66667 km/h
1039 04-08-2021 06:00:00 12.59167 C 10.73 g/m*3 12.59 C 0.93333 km/h
1040 04-08-2021 07:00:00 13.2 C 11.14 g/m*3 13.2 C 0 km/h
1041 04-08-2021 08:00:00 14.175 C 11.83 g/m*3 14.18 C 0.13333 km/h
1042 04-08-2021 09:00:00 14.83333 C 12.31 g/m*3 14.83 C 1.2 km/h
1043 04-08-2021 10:00:00 15.4 C 12.65 g/m*3 15.4 C 0.93333 km/h
1044 04-08-2021 11:00:00 16.28333 C 13.05 g/m*3 16.28 C 2.13333 km/h
1045 04-08-2021 12:00:00 17.35833 C 13.05 g/m*3 17.36 C 1.33333 km/h
1046 04-08-2021 13:00:00 18.08333 C 13.04 g/m*3 18.08 C 1.46667 km/h
1047 04-08-2021 14:00:00 19.30833 C 12.47 g/m*3 19.31 C 2.4 km/h
1048 04-08-2021 15:00:00 20.55 C 13.56 g/m*3 20.55 C 4.01667 km/h
1049 04-08-2021 16:00:00 20.70833 C 13.79 g/m*3 20.71 C 2.40833 km/h
1050 04-08-2021 17:00:00 20.15833 C 14.99 g/m*3 20.16 C 1.86667 km/h
Sensor: Nr:Datum:Temp:Abs-Feuchte:Windchill:Wind:
Aussen-T/F 1051 04-08-2021 18:00:00 19.56667 C 14.8 g/m*3 19.57 C 1.73333 km/h
1052 04-08-2021 19:00:00 19.29167 C 14.62 g/m*3 19.29 C 1.2 km/h
1053 04-08-2021 20:00:00 18.25 C 13.8 g/m*3 18.25 C 3.2 km/h
1054 04-08-2021 21:00:00 16.7 C 12.7 g/m*3 16.7 C 5.21667 km/h
1055 04-08-2021 22:00:00 15.15 C 11.6 g/m*3 15.15 C 2.4 km/h
1056 04-08-2021 23:00:00 14.55 C 11.48 g/m*3 14.55 C 0.53333 km/h
1057 05-08-2021 00:00:00 14.46667 C 11.63 g/m*3 14.47 C 0.4 km/h
1058 05-08-2021 01:00:00 14.475 C 11.66 g/m*3 14.48 C 0.26667 km/h
1059 05-08-2021 02:00:00 14.49167 C 11.69 g/m*3 14.49 C 0 km/h
1060 05-08-2021 03:00:00 14.34167 C 11.64 g/m*3 14.34 C 0 km/h
1061 05-08-2021 04:00:00 14.3 C 11.67 g/m*3 14.3 C 0 km/h
1062 05-08-2021 05:00:00 14.25 C 11.64 g/m*3 14.25 C 0 km/h
1063 05-08-2021 06:00:00 14.25833 C 11.76 g/m*3 14.26 C 0 km/h
1064 05-08-2021 07:00:00 14.60833 C 12.02 g/m*3 14.61 C 0 km/h
1065 05-08-2021 08:00:00 15.2 C 12.41 g/m*3 15.2 C 0 km/h
1066 05-08-2021 09:00:00 16.29167 C 13.1 g/m*3 16.29 C 0 km/h
1067 05-08-2021 10:00:00 18.46667 C 13.96 g/m*3 18.47 C 0 km/h
1068 05-08-2021 11:00:00 19.68333 C 13.9 g/m*3 19.68 C 0 km/h
1069 05-08-2021 12:00:00 20.85 C 13.24 g/m*3 20.85 C 6.975 km/h
1070 05-08-2021 13:00:00 21.74167 C 13.5 g/m*3 21.74 C 4.41667 km/h
1071 05-08-2021 14:00:00 22.05 C 14 g/m*3 22.05 C 6.16667 km/h
1072 05-08-2021 15:00:00 22.58333 C 14.2 g/m*3 22.58 C 4.95833 km/h
1073 05-08-2021 16:00:00 21.26667 C 14.05 g/m*3 21.27 C 7.775 km/h
1074 05-08-2021 17:00:00 18.73333 C 14.33 g/m*3 18.73 C 1.6 km/h
1075 05-08-2021 18:00:00 19.49167 C 14.85 g/m*3 19.49 C 2.13333 km/h
Sensor: Nr:Datum:Temp:Abs-Feuchte:Windchill:Wind:
Aussen-T/F 1076 05-08-2021 19:00:00 20.28333 C 15.43 g/m*3 20.28 C 0.4 km/h
1077 05-08-2021 20:00:00 19.29167 C 14.77 g/m*3 19.29 C 1.73333 km/h
1078 05-08-2021 21:00:00 18.03333 C 14.11 g/m*3 18.03 C 4.80833 km/h
1079 05-08-2021 22:00:00 16.89167 C 13.27 g/m*3 16.89 C 0.93333 km/h
1080 05-08-2021 23:00:00 15.75 C 12.62 g/m*3 15.75 C 0 km/h
1081 06-08-2021 00:00:00 15.33333 C 12.43 g/m*3 15.33 C 0 km/h
1082 06-08-2021 01:00:00 14.875 C 12.12 g/m*3 14.88 C 0 km/h
1083 06-08-2021 02:00:00 14.83333 C 12.19 g/m*3 14.83 C 0 km/h
1084 06-08-2021 03:00:00 14.475 C 11.92 g/m*3 14.48 C 0 km/h
1085 06-08-2021 04:00:00 14.70833 C 12.13 g/m*3 14.71 C 0 km/h
1086 06-08-2021 05:00:00 15.24167 C 12.62 g/m*3 15.24 C 0 km/h
1087 06-08-2021 06:00:00 15.61667 C 12.91 g/m*3 15.62 C 0 km/h
1088 06-08-2021 07:00:00 15.96667 C 13.19 g/m*3 15.97 C 0 km/h
1089 06-08-2021 08:00:00 16.76667 C 13.84 g/m*3 16.77 C 1.88333 km/h
1090 06-08-2021 09:00:00 17.25 C 14.12 g/m*3 17.25 C 5.625 km/h
1091 06-08-2021 10:00:00 18.15833 C 14.15 g/m*3 18.16 C 10.875 km/h
1092 06-08-2021 11:00:00 19.15833 C 14.01 g/m*3 19.16 C 13.3 km/h
1093 06-08-2021 12:00:00 19.85 C 13.92 g/m*3 19.85 C 15.56667 km/h
1094 06-08-2021 13:00:00 21.11667 C 13.54 g/m*3 21.12 C 17.31667 km/h
1095 06-08-2021 14:00:00 20.775 C 13.33 g/m*3 20.78 C 16.36667 km/h
1096 06-08-2021 15:00:00 21.31667 C 13.59 g/m*3 21.32 C 17.96667 km/h
1097 06-08-2021 16:00:00 22.525 C 13.6 g/m*3 22.53 C 13.95833 km/h
1098 06-08-2021 17:00:00 23.29167 C 13.5 g/m*3 23.29 C 16.23333 km/h
1099 06-08-2021 18:00:00 22.88333 C 13.34 g/m*3 22.88 C 13.15833 km/h
1100 06-08-2021 19:00:00 21.58333 C 13.03 g/m*3 21.58 C 11.025 km/h
Sensor: Nr:Datum:Temp:Abs-Feuchte:Windchill:Wind:
Aussen-T/F 1101 06-08-2021 20:00:00 19.78333 C 12.67 g/m*3 19.78 C 7.51667 km/h
1102 06-08-2021 21:00:00 17.775 C 12.4 g/m*3 17.77 C 4.26667 km/h
1103 06-08-2021 22:00:00 15.83333 C 11.94 g/m*3 15.83 C 1.2 km/h
1104 06-08-2021 23:00:00 14.79167 C 11.61 g/m*3 14.79 C 0 km/h
1105 07-08-2021 00:00:00 14.03333 C 11.22 g/m*3 14.03 C 0 km/h
1106 07-08-2021 01:00:00 13.6 C 11.06 g/m*3 13.6 C 0 km/h
1107 07-08-2021 02:00:00 13.18333 C 10.86 g/m*3 13.18 C 0 km/h
1108 07-08-2021 03:00:00 12.85 C 10.67 g/m*3 12.85 C 0 km/h
1109 07-08-2021 04:00:00 13 C 10.86 g/m*3 13 C 0 km/h
1110 07-08-2021 05:00:00 12.96667 C 10.86 g/m*3 12.97 C 0 km/h
1111 07-08-2021 06:00:00 13.04167 C 10.92 g/m*3 13.04 C 0 km/h
1112 07-08-2021 07:00:00 13.5 C 11.3 g/m*3 13.5 C 0 km/h
1113 07-08-2021 08:00:00 14.65833 C 12.17 g/m*3 14.66 C 0 km/h
1114 07-08-2021 09:00:00 15.80833 C 12.91 g/m*3 15.81 C 0 km/h
1115 07-08-2021 10:00:00 17.59167 C 13.58 g/m*3 17.59 C 0 km/h
1116 07-08-2021 11:00:00 19.9 C 13.92 g/m*3 19.9 C 0 km/h
1117 07-08-2021 12:00:00 20.61667 C 13.6 g/m*3 20.62 C 0 km/h
1118 07-08-2021 13:00:00 21.34167 C 13.81 g/m*3 21.34 C 2.675 km/h
1119 07-08-2021 14:00:00 21.58333 C 14.01 g/m*3 21.58 C 1.20833 km/h
1120 07-08-2021 15:00:00 22.21667 C 13.45 g/m*3 22.22 C 5.25 km/h
1121 07-08-2021 16:00:00 23.175 C 13.42 g/m*3 23.18 C 6.84167 km/h
1122 07-08-2021 17:00:00 23.475 C 13.16 g/m*3 23.48 C 11.025 km/h
1123 07-08-2021 18:00:00 23.11667 C 13.54 g/m*3 23.12 C 6.71667 km/h
1124 07-08-2021 19:00:00 21.21667 C 13.8 g/m*3 21.22 C 3.34167 km/h
1125 07-08-2021 20:00:00 18.85833 C 12.89 g/m*3 18.86 C 6.7 km/h
Sensor: Nr:Datum:Temp:Abs-Feuchte:Windchill:Wind:
Aussen-T/F 1126 07-08-2021 21:00:00 14.875 C 11.58 g/m*3 14.88 C 3.49167 km/h
1127 07-08-2021 22:00:00 14.59167 C 11.81 g/m*3 14.59 C 1.86667 km/h
1128 07-08-2021 23:00:00 14.63333 C 11.93 g/m*3 14.63 C 2 km/h
1129 08-08-2021 00:00:00 14.35 C 11.74 g/m*3 14.35 C 1.73333 km/h
1130 08-08-2021 01:00:00 13.76667 C 11.38 g/m*3 13.77 C 0 km/h
1131 08-08-2021 02:00:00 14.025 C 11.65 g/m*3 14.03 C 3.49167 km/h
1132 08-08-2021 03:00:00 14.15 C 11.69 g/m*3 14.15 C 4.55 km/h
1133 08-08-2021 04:00:00 13.88333 C 11.51 g/m*3 13.88 C 4.55 km/h
1134 08-08-2021 05:00:00 14.05 C 11.74 g/m*3 14.05 C 1.6 km/h
1135 08-08-2021 06:00:00 14.15 C 11.81 g/m*3 14.15 C 4.14167 km/h
1136 08-08-2021 07:00:00 14.45833 C 12.03 g/m*3 14.46 C 3.20833 km/h
1137 08-08-2021 08:00:00 14.54167 C 12 g/m*3 14.54 C 8.85833 km/h
1138 08-08-2021 09:00:00 15.50833 C 11.9 g/m*3 15.51 C 10.625 km/h
1139 08-08-2021 10:00:00 16.45833 C 11.88 g/m*3 16.46 C 13.96667 km/h
1140 08-08-2021 11:00:00 17.63333 C 11.92 g/m*3 17.63 C 12.35833 km/h
1141 08-08-2021 12:00:00 18.00833 C 11.53 g/m*3 18.01 C 12.63333 km/h
1142 08-08-2021 13:00:00 17.50909 C 11.81 g/m*3 17.51 C 8.22727 km/h
1143 08-08-2021 15:00:00 17.325 C 12.52 g/m*3 17.33 C 7.2375 km/h
1144 08-08-2021 16:00:00 17.875 C 12.35 g/m*3 17.88 C 10.76667 km/h
1145 08-08-2021 17:00:00 20.28333 C 12.56 g/m*3 20.28 C 13.025 km/h
1146 08-08-2021 18:00:00 20.79167 C 12.34 g/m*3 20.79 C 13.03333 km/h
1147 08-08-2021 19:00:00 20.04167 C 12.13 g/m*3 20.04 C 10.08333 km/h
1148 08-08-2021 20:00:00 18.45 C 12.27 g/m*3 18.45 C 4.275 km/h
1149 08-08-2021 21:00:00 15.05833 C 11.25 g/m*3 15.06 C 5.46667 km/h
1150 08-08-2021 22:00:00 13.875 C 10.87 g/m*3 13.88 C 4.80833 km/h
Sensor: Nr:Datum:Temp:Abs-Feuchte:Windchill:Wind:
Aussen-T/F 1151 08-08-2021 23:00:00 13.06667 C 10.5 g/m*3 13.07 C 2.4 km/h
1152 09-08-2021 00:00:00 12.825 C 10.45 g/m*3 12.83 C 3.06667 km/h
1153 09-08-2021 01:00:00 12.65833 C 10.4 g/m*3 12.66 C 1.46667 km/h
1154 09-08-2021 02:00:00 12.5 C 10.26 g/m*3 12.5 C 2.13333 km/h
1155 09-08-2021 03:00:00 12.35 C 10.13 g/m*3 12.35 C 0.93333 km/h
1156 09-08-2021 04:00:00 12.31667 C 10.18 g/m*3 12.32 C 0.13333 km/h
1157 09-08-2021 05:00:00 12.28333 C 10.2 g/m*3 12.28 C 0 km/h
1158 09-08-2021 06:00:00 12.23333 C 10.26 g/m*3 12.23 C 0.26667 km/h
1159 09-08-2021 07:00:00 12.84167 C 10.67 g/m*3 12.84 C 0.13333 km/h
1160 09-08-2021 08:00:00 14.11667 C 11.49 g/m*3 14.12 C 0.26667 km/h
1161 09-08-2021 09:00:00 15.60833 C 12.06 g/m*3 15.61 C 4 km/h
1162 09-08-2021 10:00:00 18.04444 C 12.29 g/m*3 18.04 C 11.28889 km/h
1163 09-08-2021 16:00:00 23.05 C 11.85 g/m*3 23.05 C 14.9 km/h
1164 09-08-2021 17:00:00 22.13333 C 12.08 g/m*3 22.13 C 9.275 km/h
1165 09-08-2021 18:00:00 22.73333 C 12.4 g/m*3 22.73 C 8.34167 km/h
1166 09-08-2021 19:00:00 22.5 C 12.78 g/m*3 22.5 C 5.225 km/h
1167 09-08-2021 20:00:00 19.86667 C 12.89 g/m*3 19.87 C 4 km/h
1168 09-08-2021 21:00:00 16.59167 C 11.95 g/m*3 16.59 C 3.73333 km/h
1169 09-08-2021 22:00:00 15.15 C 11.51 g/m*3 15.15 C 0.66667 km/h
1170 09-08-2021 23:00:00 14.06667 C 10.99 g/m*3 14.07 C 0.4 km/h
1171 10-08-2021 00:00:00 13.2 C 10.55 g/m*3 13.2 C 0 km/h
1172 10-08-2021 01:00:00 12.425 C 10.16 g/m*3 12.43 C 0 km/h
1173 10-08-2021 02:00:00 12.08333 C 10.06 g/m*3 12.08 C 0 km/h
1174 10-08-2021 03:00:00 12.16667 C 10.22 g/m*3 12.17 C 0 km/h
1175 10-08-2021 04:00:00 12.35833 C 10.35 g/m*3 12.36 C 0 km/h
Sensor: Nr:Datum:Temp:Abs-Feuchte:Windchill:Wind:
Aussen-T/F 1176 10-08-2021 05:00:00 12.65 C 10.65 g/m*3 12.65 C 0 km/h
1177 10-08-2021 06:00:00 12.83333 C 10.78 g/m*3 12.83 C 0 km/h
1178 10-08-2021 07:00:00 13.30833 C 11.1 g/m*3 13.31 C 0.8 km/h
1179 10-08-2021 08:00:00 14.15 C 11.69 g/m*3 14.15 C 0.13333 km/h
1180 10-08-2021 09:00:00 15.19167 C 12.45 g/m*3 15.19 C 0.93333 km/h
1181 10-08-2021 10:00:00 17.3 C 13.36 g/m*3 17.3 C 6.59167 km/h
1182 10-08-2021 11:00:00 19.925 C 13.68 g/m*3 19.93 C 9.54167 km/h
1183 10-08-2021 12:00:00 20.65 C 14.42 g/m*3 20.65 C 4.95 km/h
1184 10-08-2021 13:00:00 21.67273 C 13.76 g/m*3 21.67 C 12.31818 km/h
1185 10-08-2021 14:00:00 22.84167 C 13.77 g/m*3 22.84 C 12.36667 km/h
1186 10-08-2021 15:00:00 23.58333 C 13.86 g/m*3 23.58 C 10.49167 km/h
1187 10-08-2021 16:00:00 22.575 C 13.96 g/m*3 22.58 C 10.75 km/h
1188 10-08-2021 17:00:00 21.90833 C 14 g/m*3 21.91 C 9.41667 km/h
1189 10-08-2021 18:00:00 22.43333 C 14.26 g/m*3 22.43 C 16.1 km/h
1190 10-08-2021 19:00:00 22.65 C 14.29 g/m*3 22.65 C 11.16667 km/h
1191 10-08-2021 20:00:00 21.51667 C 13.94 g/m*3 21.52 C 5.375 km/h
1192 10-08-2021 21:00:00 19.03333 C 13.57 g/m*3 19.03 C 2.13333 km/h
1193 10-08-2021 22:00:00 17.9 C 13.55 g/m*3 17.9 C 1.86667 km/h
1194 10-08-2021 23:00:00 17.825 C 13.53 g/m*3 17.83 C 0 km/h
1195 11-08-2021 00:00:00 17 C 12.99 g/m*3 17 C 2 km/h
1196 11-08-2021 01:00:00 15.825 C 12.34 g/m*3 15.83 C 0.26667 km/h
1197 11-08-2021 02:00:00 15.05833 C 11.99 g/m*3 15.06 C 0.66667 km/h
1198 11-08-2021 03:00:00 14.28333 C 11.54 g/m*3 14.28 C 0 km/h
1199 11-08-2021 04:00:00 13.43333 C 10.98 g/m*3 13.43 C 0 km/h
1200 11-08-2021 05:00:00 13.43333 C 11.13 g/m*3 13.43 C 1.33333 km/h
Sensor: Nr:Datum:Temp:Abs-Feuchte:Windchill:Wind:
Aussen-T/F 1201 11-08-2021 06:00:00 13.85833 C 11.48 g/m*3 13.86 C 0.93333 km/h
1202 11-08-2021 07:00:00 13.85 C 11.47 g/m*3 13.85 C 0 km/h
1203 11-08-2021 08:00:00 14.20833 C 11.82 g/m*3 14.21 C 1.46667 km/h
1204 11-08-2021 09:00:00 14.74545 C 12.25 g/m*3 14.75 C 0 km/h
1205 11-08-2021 10:00:00 16.325 C 13.48 g/m*3 16.33 C 0 km/h
1206 11-08-2021 11:00:00 18.775 C 14.9 g/m*3 18.77 C 0 km/h
1207 11-08-2021 12:00:00 21.43333 C 14.84 g/m*3 21.43 C 0.13333 km/h
1208 11-08-2021 13:00:00 22.81818 C 15.14 g/m*3 22.82 C 1.61818 km/h
1209 11-08-2021 14:00:00 23.44167 C 15.42 g/m*3 23.44 C 0.26667 km/h
1210 11-08-2021 15:00:00 24.15 C 16.05 g/m*3 24.15 C 0.93333 km/h
1211 11-08-2021 16:00:00 26.31667 C 14.58 g/m*3 26.32 C 2 km/h
1212 11-08-2021 17:00:00 27.26667 C 15.91 g/m*3 27.27 C 0.8 km/h
1213 11-08-2021 18:00:00 26.225 C 16.83 g/m*3 26.23 C 0 km/h
1214 11-08-2021 19:00:00 22.55 C 15.79 g/m*3 22.55 C 1.6 km/h
1215 11-08-2021 20:00:00 21.54167 C 15.39 g/m*3 21.54 C 2.53333 km/h
1216 11-08-2021 21:00:00 19.28333 C 14.15 g/m*3 19.28 C 2.40833 km/h
1217 11-08-2021 22:00:00 17.65833 C 13.39 g/m*3 17.66 C 0 km/h
1218 11-08-2021 23:00:00 16.58333 C 12.88 g/m*3 16.58 C 0.13333 km/h
1219 12-08-2021 00:00:00 15.86667 C 12.56 g/m*3 15.87 C 0 km/h
1220 12-08-2021 01:00:00 15.35833 C 12.32 g/m*3 15.36 C 0 km/h
1221 12-08-2021 02:00:00 14.875 C 12.04 g/m*3 14.88 C 0 km/h
1222 12-08-2021 03:00:00 14.53333 C 11.84 g/m*3 14.53 C 0 km/h
1223 12-08-2021 04:00:00 14.03333 C 11.48 g/m*3 14.03 C 0 km/h
1224 12-08-2021 05:00:00 13.65833 C 11.27 g/m*3 13.66 C 0 km/h
1225 12-08-2021 06:00:00 13.61667 C 11.31 g/m*3 13.62 C 0 km/h
Sensor: Nr:Datum:Temp:Abs-Feuchte:Windchill:Wind:
Aussen-T/F 1226 12-08-2021 07:00:00 14.375 C 11.89 g/m*3 14.38 C 0 km/h
1227 12-08-2021 08:00:00 15.16667 C 12.49 g/m*3 15.17 C 0.66667 km/h
1228 12-08-2021 09:00:00 16.14167 C 13.19 g/m*3 16.14 C 0.26667 km/h
1229 12-08-2021 10:00:00 18.15833 C 14.56 g/m*3 18.16 C 0 km/h
1230 12-08-2021 11:00:00 20.71667 C 15.63 g/m*3 20.72 C 0.26667 km/h
1231 12-08-2021 12:00:00 23.36667 C 16.28 g/m*3 23.37 C 0.4 km/h
1232 12-08-2021 13:00:00 24.525 C 16.08 g/m*3 24.53 C 2.66667 km/h
1233 12-08-2021 14:00:00 25.23333 C 16.19 g/m*3 25.23 C 1.6 km/h
1234 12-08-2021 15:00:00 26.275 C 16.67 g/m*3 26.28 C 5.5 km/h
1235 12-08-2021 16:00:00 28.53333 C 16.57 g/m*3 28.53 C 4.95833 km/h
1236 12-08-2021 17:00:00 29.95833 C 17.62 g/m*3 29.96 C 1.475 km/h
1237 12-08-2021 18:00:00 30.03333 C 18.73 g/m*3 30.03 C 0.4 km/h
1238 12-08-2021 19:00:00 26.59167 C 17.7 g/m*3 26.59 C 4.53333 km/h
1239 12-08-2021 20:00:00 23.16667 C 16.12 g/m*3 23.17 C 6.58333 km/h
1240 12-08-2021 21:00:00 21.16667 C 15.68 g/m*3 21.17 C 2.13333 km/h
1241 12-08-2021 22:00:00 19.99167 C 15.13 g/m*3 19.99 C 0.13333 km/h
1242 12-08-2021 23:00:00 18.71667 C 14.4 g/m*3 18.72 C 0.13333 km/h
1243 13-08-2021 00:00:00 17.8 C 13.9 g/m*3 17.8 C 0 km/h
1244 13-08-2021 01:00:00 17.15 C 13.64 g/m*3 17.15 C 0.4 km/h
1245 13-08-2021 02:00:00 16.83333 C 13.47 g/m*3 16.83 C 0.13333 km/h
1246 13-08-2021 03:00:00 16.29167 C 13.07 g/m*3 16.29 C 0 km/h
1247 13-08-2021 04:00:00 16.00833 C 12.95 g/m*3 16.01 C 0 km/h
1248 13-08-2021 05:00:00 15.675 C 12.71 g/m*3 15.68 C 0 km/h
1249 13-08-2021 06:00:00 15.65 C 12.81 g/m*3 15.65 C 0 km/h
1250 13-08-2021 07:00:00 15.90833 C 13.01 g/m*3 15.91 C 0.13333 km/h
Sensor: Nr:Datum:Temp:Abs-Feuchte:Windchill:Wind:
Aussen-T/F 1251 13-08-2021 08:00:00 16.9 C 13.93 g/m*3 16.9 C 0.13333 km/h
1252 13-08-2021 09:00:00 18.15 C 14.93 g/m*3 18.15 C 0.26667 km/h
1253 13-08-2021 10:00:00 19.7 C 16.19 g/m*3 19.7 C 0 km/h
1254 13-08-2021 11:00:00 21.95833 C 17.47 g/m*3 21.96 C 0 km/h
1255 13-08-2021 12:00:00 24.09167 C 17.55 g/m*3 24.09 C 5.50833 km/h
1256 13-08-2021 13:00:00 25.66667 C 17.21 g/m*3 25.67 C 5.49167 km/h
1257 13-08-2021 14:00:00 26.96667 C 17.45 g/m*3 26.97 C 9.55 km/h
1258 13-08-2021 15:00:00 26.96667 C 17.3 g/m*3 26.97 C 8.60833 km/h
1259 13-08-2021 16:00:00 26.69167 C 17.1 g/m*3 26.69 C 11.83333 km/h
1260 13-08-2021 17:00:00 26.30833 C 16.22 g/m*3 26.31 C 10.75833 km/h
1261 13-08-2021 18:00:00 25.84167 C 16.47 g/m*3 25.84 C 4.025 km/h
1262 13-08-2021 19:00:00 26.025 C 15.46 g/m*3 26.03 C 7.25833 km/h
1263 13-08-2021 20:00:00 24.18333 C 15.57 g/m*3 24.18 C 2.13333 km/h
1264 13-08-2021 21:00:00 20.59167 C 14.8 g/m*3 20.59 C 4.4 km/h
1265 13-08-2021 22:00:00 19 C 14.22 g/m*3 19 C 0.53333 km/h
1266 13-08-2021 23:00:00 17.81667 C 13.7 g/m*3 17.82 C 0.13333 km/h
1267 14-08-2021 00:00:00 17.08333 C 13.35 g/m*3 17.08 C 0.26667 km/h
1268 14-08-2021 01:00:00 16.14167 C 12.75 g/m*3 16.14 C 0 km/h
1269 14-08-2021 02:00:00 15.39167 C 12.3 g/m*3 15.39 C 0 km/h
1270 14-08-2021 03:00:00 15.09167 C 12.2 g/m*3 15.09 C 0 km/h
1271 14-08-2021 04:00:00 14.73333 C 11.99 g/m*3 14.73 C 0 km/h
1272 14-08-2021 05:00:00 14.55 C 11.89 g/m*3 14.55 C 0.13333 km/h
1273 14-08-2021 06:00:00 14.38333 C 11.83 g/m*3 14.38 C 0 km/h
1274 14-08-2021 07:00:00 14.325 C 11.81 g/m*3 14.33 C 0 km/h
1275 14-08-2021 08:00:00 14.93333 C 12.31 g/m*3 14.93 C 0.66667 km/h
Sensor: Nr:Datum:Temp:Abs-Feuchte:Windchill:Wind:
Aussen-T/F 1276 14-08-2021 09:00:00 16.10833 C 13.3 g/m*3 16.11 C 0.13333 km/h
1277 14-08-2021 10:00:00 18.04167 C 14.92 g/m*3 18.04 C 0.4 km/h
1278 14-08-2021 11:00:00 22.025 C 16.05 g/m*3 22.03 C 5.21667 km/h
1279 14-08-2021 12:00:00 24.475 C 15.59 g/m*3 24.48 C 9.275 km/h
1280 14-08-2021 13:00:00 25.06667 C 16.19 g/m*3 25.07 C 4.675 km/h
1281 14-08-2021 14:00:00 26.575 C 15.61 g/m*3 26.58 C 10.20833 km/h
1282 14-08-2021 15:00:00 27.84167 C 15.59 g/m*3 27.84 C 5.775 km/h
1283 14-08-2021 16:00:00 26.53333 C 16.93 g/m*3 26.53 C 4.69167 km/h
1284 14-08-2021 17:00:00 24.41667 C 16.76 g/m*3 24.42 C 4.95 km/h
1285 14-08-2021 18:00:00 23.80833 C 16.68 g/m*3 23.81 C 3.86667 km/h
1286 14-08-2021 19:00:00 22.79167 C 15.72 g/m*3 22.79 C 4.94167 km/h
1287 14-08-2021 20:00:00 21.93333 C 14.65 g/m*3 21.93 C 2.93333 km/h
1288 14-08-2021 21:00:00 19.99167 C 13.42 g/m*3 19.99 C 5.88333 km/h
1289 14-08-2021 22:00:00 18.58333 C 12.91 g/m*3 18.58 C 2.8 km/h
1290 14-08-2021 23:00:00 17.50833 C 12.67 g/m*3 17.51 C 0.53333 km/h
1291 15-08-2021 00:00:00 16.225 C 12.21 g/m*3 16.23 C 0 km/h
1292 15-08-2021 01:00:00 15.23333 C 11.81 g/m*3 15.23 C 0 km/h
1293 15-08-2021 02:00:00 14.60833 C 11.6 g/m*3 14.61 C 0.8 km/h
1294 15-08-2021 03:00:00 14.225 C 11.44 g/m*3 14.23 C 1.33333 km/h
1295 15-08-2021 04:00:00 13.78333 C 11.21 g/m*3 13.78 C 0 km/h
1296 15-08-2021 05:00:00 13.10833 C 10.75 g/m*3 13.11 C 0 km/h
1297 15-08-2021 06:00:00 12.65833 C 10.55 g/m*3 12.66 C 0.13333 km/h
1298 15-08-2021 07:00:00 12.98333 C 10.87 g/m*3 12.98 C 0.13333 km/h
1299 15-08-2021 08:00:00 13.89167 C 11.5 g/m*3 13.89 C 0 km/h
1300 15-08-2021 09:00:00 15.14167 C 12.52 g/m*3 15.14 C 0 km/h
Sensor: Nr:Datum:Temp:Abs-Feuchte:Windchill:Wind:
Aussen-T/F 1301 15-08-2021 10:00:00 16.575 C 13.61 g/m*3 16.58 C 0 km/h
1302 15-08-2021 11:00:00 18.69167 C 15.2 g/m*3 18.69 C 0 km/h
1303 15-08-2021 12:00:00 21.50833 C 15.88 g/m*3 21.51 C 0 km/h
1304 15-08-2021 13:00:00 23.05 C 16.25 g/m*3 23.05 C 0 km/h
1305 15-08-2021 14:00:00 25.61667 C 14.71 g/m*3 25.62 C 4.15 km/h
1306 15-08-2021 15:00:00 27.09167 C 15.78 g/m*3 27.09 C 2.275 km/h
1307 15-08-2021 16:00:00 27.925 C 16.77 g/m*3 27.93 C 2.80833 km/h
1308 15-08-2021 17:00:00 26.35833 C 17.1 g/m*3 26.36 C 2.13333 km/h
1309 15-08-2021 18:00:00 25.21667 C 17.4 g/m*3 25.22 C 5.06667 km/h
1310 15-08-2021 19:00:00 23.125 C 16.54 g/m*3 23.13 C 6.55 km/h
1311 15-08-2021 20:00:00 21.51667 C 15.18 g/m*3 21.52 C 6.84167 km/h
1312 15-08-2021 21:00:00 19.61667 C 14.21 g/m*3 19.62 C 1.06667 km/h
1313 15-08-2021 22:00:00 18.61667 C 13.83 g/m*3 18.62 C 0 km/h
1314 15-08-2021 23:00:00 18.15 C 13.73 g/m*3 18.15 C 0.26667 km/h
1315 16-08-2021 00:00:00 17.925 C 13.67 g/m*3 17.93 C 0.93333 km/h
1316 16-08-2021 01:00:00 18.21667 C 14.05 g/m*3 18.22 C 1.73333 km/h
1317 16-08-2021 02:00:00 18.31667 C 13.94 g/m*3 18.32 C 1.86667 km/h
1318 16-08-2021 03:00:00 18.43333 C 13.99 g/m*3 18.43 C 0.8 km/h
1319 16-08-2021 04:00:00 18.325 C 12.92 g/m*3 18.33 C 8.45833 km/h
1320 16-08-2021 05:00:00 17.26667 C 11 g/m*3 17.27 C 5.48333 km/h
1321 16-08-2021 06:00:00 15.5 C 10.91 g/m*3 15.5 C 2.93333 km/h
1322 16-08-2021 07:00:00 15.35833 C 10.95 g/m*3 15.36 C 4.40833 km/h
1323 16-08-2021 08:00:00 16.475 C 11.27 g/m*3 16.48 C 7.66667 km/h
1324 16-08-2021 09:00:00 17.4 C 11.57 g/m*3 17.4 C 12.9 km/h
1325 16-08-2021 10:00:00 18.14167 C 12.03 g/m*3 18.14 C 12.5 km/h
Sensor: Nr:Datum:Temp:Abs-Feuchte:Windchill:Wind:
Aussen-T/F 1326 16-08-2021 11:00:00 18.45833 C 12.32 g/m*3 18.46 C 10.21667 km/h
1327 16-08-2021 12:00:00 18.74167 C 12.67 g/m*3 18.74 C 14.23333 km/h
1328 16-08-2021 13:00:00 20.225 C 12.74 g/m*3 20.23 C 18.24167 km/h
1329 16-08-2021 14:00:00 20.825 C 12.84 g/m*3 20.83 C 21.44167 km/h
1330 16-08-2021 15:00:00 20.275 C 13.11 g/m*3 20.27 C 19.30833 km/h
1331 16-08-2021 16:00:00 16.15833 C 12.14 g/m*3 16.16 C 13.15 km/h
1332 16-08-2021 17:00:00 15.575 C 12.26 g/m*3 15.58 C 3.48333 km/h
1333 16-08-2021 18:00:00 15.86667 C 11.71 g/m*3 15.87 C 11.53333 km/h
1334 16-08-2021 19:00:00 14.61667 C 10.93 g/m*3 14.62 C 11.83333 km/h
1335 16-08-2021 20:00:00 13.31667 C 10.56 g/m*3 13.32 C 4.40833 km/h
1336 16-08-2021 21:00:00 12.775 C 10.47 g/m*3 12.78 C 4.26667 km/h
1337 16-08-2021 22:00:00 12.04167 C 10.06 g/m*3 12.04 C 2 km/h
1338 16-08-2021 23:00:00 11.325 C 9.68 g/m*3 11.33 C 5.20833 km/h
1339 17-08-2021 00:00:00 10.81667 C 9.41 g/m*3 10.65 C 5.09167 km/h
1340 17-08-2021 01:00:00 10.74167 C 9.36 g/m*3 10.74 C 2.26667 km/h
1341 17-08-2021 02:00:00 10.68333 C 9.35 g/m*3 10.51 C 5.08333 km/h
1342 17-08-2021 03:00:00 11.08333 C 9.48 g/m*3 11.08 C 7.65833 km/h
1343 17-08-2021 04:00:00 10.85 C 9.22 g/m*3 10.38 C 6.29167 km/h
1344 17-08-2021 05:00:00 10.60833 C 9.16 g/m*3 9.97 C 6.84167 km/h
1345 17-08-2021 06:00:00 10.75 C 9.22 g/m*3 9.79 C 8.48333 km/h
1346 17-08-2021 07:00:00 11.33333 C 9.47 g/m*3 11.33 C 8.61667 km/h
1347 17-08-2021 08:00:00 11.95833 C 9.73 g/m*3 11.96 C 11.43333 km/h
1348 17-08-2021 09:00:00 13.425 C 10.41 g/m*3 13.43 C 14.1 km/h
1349 17-08-2021 10:00:00 14.475 C 10.62 g/m*3 14.48 C 14.1 km/h
1350 17-08-2021 11:00:00 15.16667 C 10.85 g/m*3 15.17 C 15.56667 km/h
Sensor: Nr:Datum:Temp:Abs-Feuchte:Windchill:Wind:
Aussen-T/F 1351 17-08-2021 12:00:00 16.58333 C 11.36 g/m*3 16.58 C 12.9 km/h
1352 17-08-2021 13:00:00 16.89167 C 10.85 g/m*3 16.89 C 14.36667 km/h
1353 17-08-2021 14:00:00 16.3 C 10.58 g/m*3 16.3 C 12.9 km/h
1354 17-08-2021 15:00:00 16.69167 C 10.77 g/m*3 16.69 C 13.16667 km/h
1355 17-08-2021 16:00:00 16.31667 C 11.17 g/m*3 16.32 C 6.56667 km/h
1356 17-08-2021 17:00:00 15.5 C 11.78 g/m*3 15.5 C 4 km/h
1357 17-08-2021 18:00:00 14.775 C 11.66 g/m*3 14.78 C 2.26667 km/h
1358 17-08-2021 19:00:00 14.30833 C 11.46 g/m*3 14.31 C 1.86667 km/h
1359 17-08-2021 20:00:00 14.03333 C 11.37 g/m*3 14.03 C 1.46667 km/h
1360 17-08-2021 21:00:00 13.675 C 11.22 g/m*3 13.68 C 1.86667 km/h
1361 17-08-2021 22:00:00 13.6 C 11.2 g/m*3 13.6 C 3.74167 km/h
1362 17-08-2021 23:00:00 13.74167 C 11.4 g/m*3 13.74 C 2.8 km/h
1363 18-08-2021 00:00:00 13.875 C 11.49 g/m*3 13.88 C 8.31667 km/h
1364 18-08-2021 01:00:00 14.10833 C 11.55 g/m*3 14.11 C 6.03333 km/h
1365 18-08-2021 02:00:00 14.2 C 11.6 g/m*3 14.2 C 5.49167 km/h
1366 18-08-2021 03:00:00 14.14167 C 11.56 g/m*3 14.14 C 5.65 km/h
1367 18-08-2021 04:00:00 14.375 C 11.62 g/m*3 14.38 C 6.43333 km/h
1368 18-08-2021 05:00:00 14.56667 C 11.72 g/m*3 14.57 C 6.175 km/h
1369 18-08-2021 06:00:00 14.74167 C 11.75 g/m*3 14.74 C 6.3 km/h
1370 18-08-2021 07:00:00 14.89167 C 11.97 g/m*3 14.89 C 5.20833 km/h
1371 18-08-2021 08:00:00 15.46667 C 12.4 g/m*3 15.47 C 4.80833 km/h
1372 18-08-2021 09:00:00 16.04167 C 12.9 g/m*3 16.04 C 4.275 km/h
1373 18-08-2021 10:00:00 16.58333 C 13.3 g/m*3 16.58 C 4.69167 km/h
1374 18-08-2021 11:00:00 17.09167 C 13.81 g/m*3 17.09 C 2.94167 km/h
1375 18-08-2021 12:00:00 17.45833 C 13.87 g/m*3 17.46 C 5.36667 km/h
Sensor: Nr:Datum:Temp:Abs-Feuchte:Windchill:Wind:
Aussen-T/F 1376 18-08-2021 13:00:00 18.8 C 14.37 g/m*3 18.8 C 4.825 km/h
1377 18-08-2021 14:00:00 19.45833 C 14.08 g/m*3 19.46 C 9.40833 km/h
1378 18-08-2021 15:00:00 19.78333 C 13.57 g/m*3 19.78 C 10.60833 km/h
1379 18-08-2021 16:00:00 19.5 C 13.92 g/m*3 19.5 C 3.875 km/h
1380 18-08-2021 17:00:00 19.2 C 13.93 g/m*3 19.2 C 4.13333 km/h
1381 18-08-2021 18:00:00 18.99167 C 13.61 g/m*3 18.99 C 5.63333 km/h
1382 18-08-2021 19:00:00 18.21667 C 13.37 g/m*3 18.22 C 3.73333 km/h
1383 18-08-2021 20:00:00 17.51667 C 13.2 g/m*3 17.52 C 4.425 km/h
1384 18-08-2021 21:00:00 17.15 C 13.08 g/m*3 17.15 C 2.66667 km/h
1385 18-08-2021 22:00:00 17.03333 C 12.92 g/m*3 17.03 C 5.09167 km/h
1386 18-08-2021 23:00:00 17.21667 C 12.83 g/m*3 17.22 C 4.68333 km/h
1387 19-08-2021 00:00:00 17.11667 C 12.83 g/m*3 17.12 C 4.94167 km/h
1388 19-08-2021 01:00:00 16.975 C 12.83 g/m*3 16.98 C 7.65 km/h
1389 19-08-2021 02:00:00 16.99167 C 12.85 g/m*3 16.99 C 7.91667 km/h
1390 19-08-2021 03:00:00 16.51667 C 12.91 g/m*3 16.52 C 2.4 km/h
1391 19-08-2021 04:00:00 16.2 C 12.82 g/m*3 16.2 C 5.76667 km/h
1392 19-08-2021 05:00:00 16.5 C 12.81 g/m*3 16.5 C 7.38333 km/h
1393 19-08-2021 06:00:00 16.575 C 12.85 g/m*3 16.58 C 4.68333 km/h
1394 19-08-2021 07:00:00 16.71667 C 12.93 g/m*3 16.72 C 7.10833 km/h
1395 19-08-2021 08:00:00 17.225 C 13.2 g/m*3 17.23 C 6.45 km/h
1396 19-08-2021 09:00:00 17.94167 C 13.62 g/m*3 17.94 C 8.48333 km/h
1397 19-08-2021 10:00:00 19.09167 C 14.05 g/m*3 19.09 C 10.9 km/h
1398 19-08-2021 11:00:00 19.95833 C 14.37 g/m*3 19.96 C 11.56667 km/h
1399 19-08-2021 12:00:00 20.25833 C 14.43 g/m*3 20.26 C 14.1 km/h
1400 19-08-2021 13:00:00 20.51667 C 14.32 g/m*3 20.52 C 10.625 km/h
Sensor: Nr:Datum:Temp:Abs-Feuchte:Windchill:Wind:
Aussen-T/F 1401 19-08-2021 14:00:00 20.73333 C 13.89 g/m*3 20.73 C 11.55833 km/h
1402 19-08-2021 15:00:00 20.95833 C 14.04 g/m*3 20.96 C 11.01667 km/h
1403 19-08-2021 16:00:00 21.23333 C 14.16 g/m*3 21.23 C 9.675 km/h
1404 19-08-2021 17:00:00 20.6 C 13.92 g/m*3 20.6 C 8.20833 km/h
1405 19-08-2021 18:00:00 19.90833 C 13.64 g/m*3 19.91 C 4.29167 km/h
1406 19-08-2021 19:00:00 19.525 C 13.61 g/m*3 19.52 C 3.46667 km/h
1407 19-08-2021 20:00:00 18.51667 C 13.36 g/m*3 18.52 C 2.93333 km/h
1408 19-08-2021 21:00:00 16.81667 C 12.63 g/m*3 16.82 C 5.74167 km/h
1409 19-08-2021 22:00:00 15.7 C 12.15 g/m*3 15.7 C 0.13333 km/h
1410 19-08-2021 23:00:00 15.05833 C 11.98 g/m*3 15.06 C 0 km/h
1411 20-08-2021 00:00:00 15.275 C 12.3 g/m*3 15.28 C 0 km/h
1412 20-08-2021 01:00:00 15.125 C 12.19 g/m*3 15.13 C 0.53333 km/h
1413 20-08-2021 02:00:00 15.20833 C 12.34 g/m*3 15.21 C 1.6 km/h
1414 20-08-2021 03:00:00 15.1 C 12.12 g/m*3 15.1 C 1.06667 km/h
1415 20-08-2021 04:00:00 14.21667 C 11.56 g/m*3 14.22 C 1.06667 km/h
1416 20-08-2021 05:00:00 14.14167 C 11.56 g/m*3 14.14 C 0 km/h
1417 20-08-2021 06:00:00 14.325 C 11.75 g/m*3 14.33 C 1.06667 km/h
1418 20-08-2021 07:00:00 14.65833 C 11.86 g/m*3 14.66 C 0.66667 km/h
1419 20-08-2021 08:00:00 15.1 C 11.92 g/m*3 15.1 C 0.53333 km/h
1420 20-08-2021 09:00:00 15.475 C 12.12 g/m*3 15.48 C 1.06667 km/h
1421 20-08-2021 10:00:00 16.75833 C 12.45 g/m*3 16.76 C 1.33333 km/h
1422 20-08-2021 11:00:00 19.01667 C 13.1 g/m*3 19.02 C 0.66667 km/h
1423 20-08-2021 12:00:00 20.78333 C 13.48 g/m*3 20.78 C 4.81667 km/h
1424 20-08-2021 13:00:00 21.10833 C 13.81 g/m*3 21.11 C 4.28333 km/h
1425 20-08-2021 14:00:00 21.79167 C 13.87 g/m*3 21.79 C 7.91667 km/h
Sensor: Nr:Datum:Temp:Abs-Feuchte:Windchill:Wind:
Aussen-T/F 1426 20-08-2021 15:00:00 21.16667 C 14.47 g/m*3 21.17 C 9.13333 km/h
1427 20-08-2021 16:00:00 20.19167 C 14.21 g/m*3 20.19 C 3.21667 km/h
1428 20-08-2021 17:00:00 21.40833 C 14.8 g/m*3 21.41 C 1.73333 km/h
1429 20-08-2021 18:00:00 21.725 C 15.04 g/m*3 21.73 C 0.66667 km/h
1430 20-08-2021 19:00:00 21.01667 C 14.99 g/m*3 21.02 C 2 km/h
1431 20-08-2021 20:00:00 18.775 C 13.86 g/m*3 18.77 C 4.66667 km/h
1432 20-08-2021 21:00:00 17.5 C 13.26 g/m*3 17.5 C 2 km/h
1433 20-08-2021 22:00:00 16.30833 C 12.63 g/m*3 16.31 C 0 km/h
1434 20-08-2021 23:00:00 15.275 C 12.09 g/m*3 15.28 C 0 km/h
1435 21-08-2021 00:00:00 14.59167 C 11.7 g/m*3 14.59 C 0 km/h
1436 21-08-2021 01:00:00 14.15833 C 11.51 g/m*3 14.16 C 0 km/h
1437 21-08-2021 02:00:00 13.625 C 11.2 g/m*3 13.63 C 0 km/h
1438 21-08-2021 03:00:00 13.275 C 10.98 g/m*3 13.28 C 0 km/h
1439 21-08-2021 04:00:00 13.61667 C 11.31 g/m*3 13.62 C 0 km/h
1440 21-08-2021 05:00:00 13.375 C 11.13 g/m*3 13.38 C 0 km/h
1441 21-08-2021 06:00:00 13.7 C 11.38 g/m*3 13.7 C 0 km/h
1442 21-08-2021 07:00:00 13.725 C 11.45 g/m*3 13.73 C 0 km/h
1443 21-08-2021 08:00:00 13.91667 C 11.64 g/m*3 13.92 C 0 km/h
1444 21-08-2021 09:00:00 14.45833 C 12.03 g/m*3 14.46 C 0 km/h
1445 21-08-2021 10:00:00 15.66667 C 12.95 g/m*3 15.67 C 0 km/h
1446 21-08-2021 11:00:00 17.4 C 14.35 g/m*3 17.4 C 0 km/h
1447 21-08-2021 12:00:00 19.89167 C 15.28 g/m*3 19.89 C 3.225 km/h
1448 21-08-2021 13:00:00 23.13333 C 15.34 g/m*3 23.13 C 6.575 km/h
1449 21-08-2021 14:00:00 24.325 C 15.2 g/m*3 24.33 C 5.48333 km/h
1450 21-08-2021 15:00:00 25.64167 C 15.95 g/m*3 25.64 C 5.09167 km/h
Sensor: Nr:Datum:Temp:Abs-Feuchte:Windchill:Wind:
Aussen-T/F 1451 21-08-2021 16:00:00 26.725 C 17.11 g/m*3 26.73 C 2.81667 km/h
1452 21-08-2021 17:00:00 25.86667 C 18 g/m*3 25.87 C 0.66667 km/h
1453 21-08-2021 18:00:00 24.64167 C 17.54 g/m*3 24.64 C 1.46667 km/h
1454 21-08-2021 19:00:00 22.33333 C 15.96 g/m*3 22.33 C 5.2 km/h
1455 21-08-2021 20:00:00 20.63333 C 14.7 g/m*3 20.63 C 5.35833 km/h
1456 21-08-2021 21:00:00 19.20833 C 14.19 g/m*3 19.21 C 0.66667 km/h
1457 21-08-2021 22:00:00 18.59167 C 14.32 g/m*3 18.59 C 0 km/h
1458 21-08-2021 23:00:00 18.34167 C 14.42 g/m*3 18.34 C 0.13333 km/h
1459 22-08-2021 00:00:00 18.25 C 14.55 g/m*3 18.25 C 0.13333 km/h
1460 22-08-2021 01:00:00 18.33333 C 14.73 g/m*3 18.33 C 1.06667 km/h
1461 22-08-2021 02:00:00 17.95833 C 14.53 g/m*3 17.96 C 2.54167 km/h
1462 22-08-2021 03:00:00 17.425 C 14.1 g/m*3 17.43 C 0.13333 km/h
1463 22-08-2021 04:00:00 16.85 C 13.69 g/m*3 16.85 C 0 km/h
1464 22-08-2021 05:00:00 17.2 C 14.06 g/m*3 17.2 C 0.4 km/h
1465 22-08-2021 06:00:00 17 C 13.89 g/m*3 17 C 4.15 km/h
1466 22-08-2021 07:00:00 16.66667 C 13.66 g/m*3 16.67 C 4.4 km/h
1467 22-08-2021 08:00:00 17.175 C 14.18 g/m*3 17.18 C 1.86667 km/h
1468 22-08-2021 09:00:00 17.6 C 14.55 g/m*3 17.6 C 2.26667 km/h
1469 22-08-2021 10:00:00 17.95833 C 14.82 g/m*3 17.96 C 2.275 km/h
1470 22-08-2021 11:00:00 17.75833 C 14.43 g/m*3 17.76 C 4.80833 km/h
1471 22-08-2021 12:00:00 17.46667 C 14.27 g/m*3 17.47 C 3.075 km/h
1472 22-08-2021 13:00:00 19.14167 C 15.57 g/m*3 19.14 C 4.275 km/h
1473 22-08-2021 14:00:00 19.79167 C 15.45 g/m*3 19.79 C 8.19167 km/h
1474 22-08-2021 15:00:00 20.525 C 14.17 g/m*3 20.53 C 10.60833 km/h
1475 22-08-2021 16:00:00 22.16667 C 13.96 g/m*3 22.17 C 11.56667 km/h
Sensor: Nr:Datum:Temp:Abs-Feuchte:Windchill:Wind:
Aussen-T/F 1476 22-08-2021 17:00:00 21.43333 C 13.71 g/m*3 21.43 C 8.70833 km/h
1477 22-08-2021 18:00:00 20.66667 C 13.8 g/m*3 20.67 C 11.01667 km/h
1478 22-08-2021 19:00:00 19.45 C 13.6 g/m*3 19.45 C 5.5 km/h
1479 22-08-2021 20:00:00 18.05833 C 13.36 g/m*3 18.06 C 4.15833 km/h
1480 22-08-2021 21:00:00 17.2 C 12.85 g/m*3 17.2 C 4.54167 km/h
1481 22-08-2021 22:00:00 16.425 C 12.62 g/m*3 16.43 C 2.26667 km/h
1482 22-08-2021 23:00:00 15.775 C 12.44 g/m*3 15.78 C 0.93333 km/h
1483 23-08-2021 00:00:00 15.5 C 12.39 g/m*3 15.5 C 1.2 km/h
1484 23-08-2021 01:00:00 15.86667 C 12.7 g/m*3 15.87 C 1.6 km/h
1485 23-08-2021 02:00:00 16.14167 C 12.8 g/m*3 16.14 C 1.86667 km/h
1486 23-08-2021 03:00:00 15.78333 C 12.51 g/m*3 15.78 C 0 km/h
1487 23-08-2021 04:00:00 14.94167 C 12.01 g/m*3 14.94 C 0.53333 km/h
1488 23-08-2021 05:00:00 14.88333 C 12.11 g/m*3 14.88 C 0.13333 km/h
1489 23-08-2021 06:00:00 15.09167 C 12.36 g/m*3 15.09 C 0 km/h
1490 23-08-2021 07:00:00 15.26667 C 12.51 g/m*3 15.27 C 0 km/h
1491 23-08-2021 08:00:00 15.90833 C 12.98 g/m*3 15.91 C 0 km/h
1492 23-08-2021 09:00:00 16.51667 C 13.2 g/m*3 16.52 C 1.73333 km/h
1493 23-08-2021 10:00:00 17.85 C 13.56 g/m*3 17.85 C 3.08333 km/h
1494 23-08-2021 11:00:00 19.40833 C 13.65 g/m*3 19.41 C 4.15 km/h
1495 23-08-2021 12:00:00 19.975 C 13.69 g/m*3 19.98 C 3.20833 km/h
1496 23-08-2021 13:00:00 20.23333 C 13.83 g/m*3 20.23 C 7.25 km/h
1497 23-08-2021 14:00:00 18.83333 C 14.31 g/m*3 18.83 C 3.075 km/h
1498 23-08-2021 15:00:00 19.85 C 14.8 g/m*3 19.85 C 6.44167 km/h
1499 23-08-2021 16:00:00 20.56667 C 14.56 g/m*3 20.57 C 6.325 km/h
1500 23-08-2021 17:00:00 20.25833 C 14.01 g/m*3 20.26 C 11.14167 km/h
Sensor: Nr:Datum:Temp:Abs-Feuchte:Windchill:Wind:
Aussen-T/F 1501 23-08-2021 18:00:00 19.7 C 13.49 g/m*3 19.7 C 10.76667 km/h
1502 23-08-2021 19:00:00 19.54167 C 13.66 g/m*3 19.54 C 5.49167 km/h
1503 23-08-2021 20:00:00 18.60833 C 13.67 g/m*3 18.61 C 1.06667 km/h
1504 23-08-2021 21:00:00 17.33333 C 13.08 g/m*3 17.33 C 0.66667 km/h
1505 23-08-2021 22:00:00 16.375 C 12.76 g/m*3 16.38 C 0.4 km/h
1506 23-08-2021 23:00:00 15.69167 C 12.41 g/m*3 15.69 C 0.93333 km/h
1507 24-08-2021 00:00:00 14.99167 C 11.98 g/m*3 14.99 C 2 km/h
1508 24-08-2021 01:00:00 14.21667 C 11.49 g/m*3 14.22 C 0 km/h
1509 24-08-2021 02:00:00 13.58333 C 11.12 g/m*3 13.58 C 0 km/h
1510 24-08-2021 03:00:00 12.775 C 10.62 g/m*3 12.78 C 0 km/h
1511 24-08-2021 04:00:00 12.05 C 10.16 g/m*3 12.05 C 0 km/h
1512 24-08-2021 05:00:00 11.33333 C 9.74 g/m*3 11.33 C 0 km/h
1513 24-08-2021 06:00:00 11.23333 C 9.75 g/m*3 11.23 C 0 km/h
1514 24-08-2021 07:00:00 11.11667 C 9.68 g/m*3 11.12 C 0 km/h
1515 24-08-2021 08:00:00 11.45 C 9.91 g/m*3 11.45 C 0 km/h
1516 24-08-2021 09:00:00 12.19167 C 10.46 g/m*3 12.19 C 0 km/h
1517 24-08-2021 10:00:00 13.275 C 11.19 g/m*3 13.28 C 0.93333 km/h
1518 24-08-2021 11:00:00 14.81667 C 11.45 g/m*3 14.82 C 5.23333 km/h
1519 24-08-2021 12:00:00 17.68333 C 10.92 g/m*3 17.68 C 9.68333 km/h
1520 24-08-2021 13:00:00 18.95 C 11.29 g/m*3 18.95 C 13.83333 km/h
1521 24-08-2021 14:00:00 20.19167 C 11.88 g/m*3 20.19 C 11.01667 km/h
1522 24-08-2021 15:00:00 20.83333 C 12.06 g/m*3 20.83 C 8.475 km/h
1523 24-08-2021 16:00:00 21.575 C 12.29 g/m*3 21.58 C 10.63333 km/h
1524 24-08-2021 17:00:00 22.74167 C 12.03 g/m*3 22.74 C 8.60833 km/h
1525 24-08-2021 18:00:00 22.325 C 11.55 g/m*3 22.33 C 8.71667 km/h
Sensor: Nr:Datum:Temp:Abs-Feuchte:Windchill:Wind:
Aussen-T/F 1526 24-08-2021 19:00:00 20.475 C 12.08 g/m*3 20.48 C 2 km/h
1527 24-08-2021 20:00:00 16.65 C 11.34 g/m*3 16.65 C 2.66667 km/h
1528 24-08-2021 21:00:00 14.65 C 10.53 g/m*3 14.65 C 2 km/h
1529 24-08-2021 22:00:00 13.825 C 10.09 g/m*3 13.83 C 4.80833 km/h
1530 24-08-2021 23:00:00 12.94167 C 9.83 g/m*3 12.94 C 3.06667 km/h
1531 25-08-2021 00:00:00 11.98333 C 9.5 g/m*3 11.98 C 0.13333 km/h
1532 25-08-2021 01:00:00 11.08333 C 9.21 g/m*3 11.08 C 0 km/h
1533 25-08-2021 02:00:00 10.6 C 9.07 g/m*3 10.6 C 0 km/h
1534 25-08-2021 03:00:00 10.21667 C 8.92 g/m*3 10.22 C 0 km/h
1535 25-08-2021 04:00:00 9.95 C 8.84 g/m*3 9.95 C 0 km/h
1536 25-08-2021 05:00:00 9.625 C 8.72 g/m*3 9.63 C 0 km/h
1537 25-08-2021 06:00:00 9.3 C 8.54 g/m*3 9.3 C 0 km/h
1538 25-08-2021 07:00:00 9.34167 C 8.61 g/m*3 9.34 C 0 km/h
1539 25-08-2021 08:00:00 9.875 C 8.95 g/m*3 9.88 C 0 km/h
1540 25-08-2021 09:00:00 11 C 9.67 g/m*3 11 C 0 km/h
1541 25-08-2021 10:00:00 12.34167 C 10.56 g/m*3 12.34 C 0 km/h
1542 25-08-2021 11:00:00 13.84167 C 11.4 g/m*3 13.84 C 0 km/h
1543 25-08-2021 12:00:00 16.15 C 11.95 g/m*3 16.15 C 0.26667 km/h
1544 25-08-2021 13:00:00 18.475 C 11.55 g/m*3 18.48 C 3.49167 km/h
1545 25-08-2021 14:00:00 19.95833 C 11.42 g/m*3 19.96 C 4.01667 km/h
1546 25-08-2021 15:00:00 20.84167 C 11.07 g/m*3 20.84 C 6.425 km/h
1547 25-08-2021 16:00:00 22.625 C 11.3 g/m*3 22.63 C 9.29167 km/h
1548 25-08-2021 17:00:00 24.16667 C 10.94 g/m*3 24.17 C 7.93333 km/h
1549 25-08-2021 18:00:00 23.38333 C 10.99 g/m*3 23.38 C 7.24167 km/h
1550 25-08-2021 19:00:00 21.4 C 12.2 g/m*3 21.4 C 1.46667 km/h
Sensor: Nr:Datum:Temp:Abs-Feuchte:Windchill:Wind:
Aussen-T/F 1551 25-08-2021 20:00:00 18.48333 C 11.97 g/m*3 18.48 C 0.4 km/h
1552 25-08-2021 21:00:00 16.26667 C 11.22 g/m*3 16.27 C 0.26667 km/h
1553 25-08-2021 22:00:00 15.33333 C 11.01 g/m*3 15.33 C 2.13333 km/h
1554 25-08-2021 23:00:00 14.40833 C 10.76 g/m*3 14.41 C 0.93333 km/h
1555 26-08-2021 00:00:00 14.00833 C 10.81 g/m*3 14.01 C 1.86667 km/h
1556 26-08-2021 01:00:00 14.94167 C 11.35 g/m*3 14.94 C 2 km/h
1557 26-08-2021 02:00:00 15.83333 C 11.61 g/m*3 15.83 C 4.68333 km/h
1558 26-08-2021 03:00:00 15.86667 C 11.5 g/m*3 15.87 C 7.51667 km/h
1559 26-08-2021 04:00:00 15.84167 C 11.55 g/m*3 15.84 C 5.89167 km/h
1560 26-08-2021 05:00:00 15.45 C 11.89 g/m*3 15.45 C 0.66667 km/h
1561 26-08-2021 06:00:00 15.1 C 11.92 g/m*3 15.1 C 7.49167 km/h
1562 26-08-2021 07:00:00 14.44167 C 11.11 g/m*3 14.44 C 5.5 km/h
1563 26-08-2021 08:00:00 14.44167 C 11 g/m*3 14.44 C 3.08333 km/h
1564 26-08-2021 09:00:00 15.03333 C 10.98 g/m*3 15.03 C 5.75833 km/h
1565 26-08-2021 10:00:00 15.89167 C 10.51 g/m*3 15.89 C 11.28333 km/h
1566 26-08-2021 11:00:00 16.74167 C 10.23 g/m*3 16.74 C 12.09167 km/h
1567 26-08-2021 12:00:00 17.125 C 10.63 g/m*3 17.13 C 8.59167 km/h
1568 26-08-2021 13:00:00 16.55 C 11.23 g/m*3 16.55 C 6.56667 km/h
1569 26-08-2021 14:00:00 16.88333 C 11.51 g/m*3 16.88 C 9.93333 km/h
1570 26-08-2021 15:00:00 17.99167 C 11.62 g/m*3 17.99 C 9.95 km/h
1571 26-08-2021 16:00:00 18.15833 C 11.4 g/m*3 18.16 C 12.76667 km/h
1572 26-08-2021 17:00:00 19.10833 C 11.62 g/m*3 19.11 C 11.55833 km/h
1573 26-08-2021 18:00:00 20.01667 C 11.56 g/m*3 20.02 C 10.35 km/h
1574 26-08-2021 19:00:00 18.675 C 11.39 g/m*3 18.68 C 8.725 km/h
1575 26-08-2021 20:00:00 17.43333 C 11.34 g/m*3 17.43 C 5.90833 km/h
Sensor: Nr:Datum:Temp:Abs-Feuchte:Windchill:Wind:
Aussen-T/F 1576 26-08-2021 21:00:00 16.71667 C 11.63 g/m*3 16.72 C 5.21667 km/h
1577 26-08-2021 22:00:00 15.975 C 11.85 g/m*3 15.98 C 2.4 km/h
1578 26-08-2021 23:00:00 15.41667 C 11.88 g/m*3 15.42 C 2.93333 km/h
1579 27-08-2021 00:00:00 14.775 C 11.51 g/m*3 14.78 C 2.53333 km/h
1580 27-08-2021 01:00:00 14.03333 C 11.2 g/m*3 14.03 C 3.33333 km/h
1581 27-08-2021 02:00:00 13.88333 C 11.01 g/m*3 13.88 C 2.13333 km/h
1582 27-08-2021 03:00:00 13.425 C 10.73 g/m*3 13.43 C 2.4 km/h
1583 27-08-2021 04:00:00 12.88333 C 10.44 g/m*3 12.88 C 2.00833 km/h
1584 27-08-2021 05:00:00 12.88333 C 10.41 g/m*3 12.88 C 0.66667 km/h
1585 27-08-2021 06:00:00 12.625 C 10.3 g/m*3 12.63 C 0 km/h
1586 27-08-2021 07:00:00 12.775 C 10.39 g/m*3 12.78 C 0 km/h
1587 27-08-2021 08:00:00 13.19167 C 10.51 g/m*3 13.19 C 3.74167 km/h
1588 27-08-2021 09:00:00 13.9 C 10.72 g/m*3 13.9 C 8.33333 km/h
1589 27-08-2021 10:00:00 14.75 C 10.91 g/m*3 14.75 C 8.2 km/h
1590 27-08-2021 11:00:00 15.675 C 11.09 g/m*3 15.68 C 11.29167 km/h
1591 27-08-2021 12:00:00 16.50833 C 11.23 g/m*3 16.51 C 13.16667 km/h
1592 27-08-2021 13:00:00 17.325 C 11.34 g/m*3 17.33 C 13.3 km/h
1593 27-08-2021 14:00:00 17.05833 C 11.51 g/m*3 17.06 C 12.75833 km/h
1594 27-08-2021 15:00:00 17.46667 C 11.93 g/m*3 17.47 C 10.34167 km/h
1595 27-08-2021 16:00:00 17.475 C 12.08 g/m*3 17.48 C 12.09167 km/h
1596 27-08-2021 17:00:00 16.625 C 12.3 g/m*3 16.63 C 9 km/h
1597 27-08-2021 18:00:00 16.3 C 12.15 g/m*3 16.3 C 5.75833 km/h
1598 27-08-2021 19:00:00 15.73333 C 11.6 g/m*3 15.73 C 8.6 km/h
1599 27-08-2021 20:00:00 15.34167 C 11.53 g/m*3 15.34 C 5.1 km/h
1600 27-08-2021 21:00:00 14.81667 C 11.53 g/m*3 14.82 C 2.53333 km/h
Sensor: Nr:Datum:Temp:Abs-Feuchte:Windchill:Wind:
Aussen-T/F 1601 27-08-2021 22:00:00 14.45 C 11.45 g/m*3 14.45 C 1.06667 km/h
1602 27-08-2021 23:00:00 14.4 C 11.55 g/m*3 14.4 C 0.53333 km/h
1603 28-08-2021 00:00:00 14.5 C 11.69 g/m*3 14.5 C 3.33333 km/h
1604 28-08-2021 01:00:00 14.39167 C 11.64 g/m*3 14.39 C 2.4 km/h
1605 28-08-2021 02:00:00 14.15 C 11.56 g/m*3 14.15 C 2.68333 km/h
1606 28-08-2021 03:00:00 13.95 C 11.47 g/m*3 13.95 C 0.66667 km/h
1607 28-08-2021 04:00:00 14.1 C 11.65 g/m*3 14.1 C 4.41667 km/h
1608 28-08-2021 05:00:00 13.99167 C 11.57 g/m*3 13.99 C 2.26667 km/h
1609 28-08-2021 06:00:00 13.95 C 11.54 g/m*3 13.95 C 1.74167 km/h
1610 28-08-2021 07:00:00 14.04167 C 11.61 g/m*3 14.04 C 0 km/h
1611 28-08-2021 08:00:00 14.16667 C 11.7 g/m*3 14.17 C 0 km/h
1612 28-08-2021 09:00:00 14.59167 C 12.07 g/m*3 14.59 C 0 km/h
1613 28-08-2021 10:00:00 14.86667 C 12.23 g/m*3 14.87 C 0.53333 km/h
1614 28-08-2021 11:00:00 14.8 C 12.15 g/m*3 14.8 C 1.2 km/h
1615 28-08-2021 12:00:00 14.76667 C 12.13 g/m*3 14.77 C 2 km/h
1616 28-08-2021 13:00:00 15.25833 C 12.5 g/m*3 15.26 C 0.4 km/h
1617 28-08-2021 14:00:00 15.64167 C 12.7 g/m*3 15.64 C 0.13333 km/h
1618 28-08-2021 15:00:00 15.94167 C 12.89 g/m*3 15.94 C 0 km/h
1619 28-08-2021 16:00:00 17.9 C 13.72 g/m*3 17.9 C 2 km/h
1620 28-08-2021 17:00:00 19.94167 C 14.09 g/m*3 19.94 C 1.73333 km/h
1621 28-08-2021 18:00:00 18.70833 C 13.86 g/m*3 18.71 C 2.26667 km/h
1622 28-08-2021 19:00:00 17.56667 C 13.52 g/m*3 17.57 C 2.66667 km/h
1623 28-08-2021 20:00:00 16.33333 C 12.78 g/m*3 16.33 C 3.075 km/h
1624 28-08-2021 21:00:00 16.06667 C 12.6 g/m*3 16.07 C 3.46667 km/h
1625 28-08-2021 22:00:00 15.66667 C 12.48 g/m*3 15.67 C 2.53333 km/h
Sensor: Nr:Datum:Temp:Abs-Feuchte:Windchill:Wind:
Aussen-T/F 1626 28-08-2021 23:00:00 15.425 C 12.39 g/m*3 15.43 C 3.225 km/h
1627 29-08-2021 00:00:00 15.25 C 12.37 g/m*3 15.25 C 3.875 km/h
1628 29-08-2021 01:00:00 15.075 C 12.24 g/m*3 15.08 C 1.33333 km/h
1629 29-08-2021 02:00:00 14.84167 C 12.06 g/m*3 14.84 C 2.4 km/h
1630 29-08-2021 03:00:00 14.7 C 11.96 g/m*3 14.7 C 5.06667 km/h
1631 29-08-2021 04:00:00 14.56667 C 11.77 g/m*3 14.57 C 5.76667 km/h
1632 29-08-2021 05:00:00 14.55833 C 11.73 g/m*3 14.56 C 3.625 km/h
1633 29-08-2021 06:00:00 14.46667 C 11.67 g/m*3 14.47 C 3.74167 km/h
1634 29-08-2021 07:00:00 14.3 C 11.62 g/m*3 14.3 C 5.08333 km/h
1635 29-08-2021 08:00:00 14.38333 C 11.61 g/m*3 14.38 C 6.43333 km/h
1636 29-08-2021 09:00:00 14.58333 C 11.75 g/m*3 14.58 C 7.39167 km/h
1637 29-08-2021 10:00:00 14.95833 C 11.97 g/m*3 14.96 C 8.06667 km/h
1638 29-08-2021 11:00:00 15.54167 C 12.25 g/m*3 15.54 C 5.35833 km/h
1639 29-08-2021 12:00:00 16.1 C 12.51 g/m*3 16.1 C 7.775 km/h
1640 29-08-2021 13:00:00 15.71667 C 12.4 g/m*3 15.72 C 9.95 km/h
1641 29-08-2021 14:00:00 15.6 C 12.38 g/m*3 15.6 C 7.125 km/h
1642 29-08-2021 15:00:00 15.69167 C 12.44 g/m*3 15.69 C 9.28333 km/h
1643 29-08-2021 16:00:00 16.04167 C 12.66 g/m*3 16.04 C 8.46667 km/h
1644 29-08-2021 17:00:00 16.16667 C 12.7 g/m*3 16.17 C 5.625 km/h
1645 29-08-2021 18:00:00 16.2 C 12.69 g/m*3 16.2 C 6.16667 km/h
1646 29-08-2021 19:00:00 16.15 C 12.73 g/m*3 16.15 C 2.13333 km/h
1647 29-08-2021 20:00:00 15.83333 C 12.54 g/m*3 15.83 C 3.73333 km/h
1648 29-08-2021 21:00:00 15.78333 C 12.51 g/m*3 15.78 C 2.26667 km/h
1649 29-08-2021 22:00:00 15.7 C 12.57 g/m*3 15.7 C 1.06667 km/h
1650 29-08-2021 23:00:00 15.65833 C 12.67 g/m*3 15.66 C 1.6 km/h
Sensor: Nr:Datum:Temp:Abs-Feuchte:Windchill:Wind:
Aussen-T/F 1651 30-08-2021 00:00:00 15.61667 C 12.65 g/m*3 15.62 C 2 km/h
1652 30-08-2021 01:00:00 15.7 C 12.8 g/m*3 15.7 C 0.53333 km/h
1653 30-08-2021 02:00:00 15.59167 C 12.76 g/m*3 15.59 C 1.73333 km/h
1654 30-08-2021 03:00:00 15.43333 C 12.64 g/m*3 15.43 C 3.08333 km/h
1655 30-08-2021 04:00:00 15.41667 C 12.63 g/m*3 15.42 C 2.54167 km/h
1656 30-08-2021 05:00:00 15.55 C 12.73 g/m*3 15.55 C 3.61667 km/h
1657 30-08-2021 06:00:00 15.64167 C 12.73 g/m*3 15.64 C 1.46667 km/h
1658 30-08-2021 07:00:00 15.625 C 12.66 g/m*3 15.63 C 3.06667 km/h
1659 30-08-2021 08:00:00 15.91429 C 12.74 g/m*3 15.91 C 5.51429 km/h
1660 30-08-2021 14:00:00 19.68571 C 12.97 g/m*3 19.69 C 5.51429 km/h
1661 30-08-2021 15:00:00 19.83333 C 13.08 g/m*3 19.83 C 4.825 km/h
1662 30-08-2021 16:00:00 20 C 13.39 g/m*3 20 C 9.13333 km/h
1663 30-08-2021 17:00:00 20.925 C 13.01 g/m*3 20.93 C 12.76667 km/h
1664 30-08-2021 18:00:00 20.51667 C 12.84 g/m*3 20.52 C 11.15833 km/h
1665 30-08-2021 19:00:00 19.58333 C 12.78 g/m*3 19.58 C 6.175 km/h
1666 30-08-2021 20:00:00 18.43333 C 12.73 g/m*3 18.43 C 2 km/h
1667 30-08-2021 21:00:00 16.79167 C 12.63 g/m*3 16.79 C 1.33333 km/h
1668 30-08-2021 22:00:00 15.65 C 12.04 g/m*3 15.65 C 2.53333 km/h
1669 30-08-2021 23:00:00 14.88333 C 11.8 g/m*3 14.88 C 4.13333 km/h
1670 31-08-2021 00:00:00 14.85 C 11.94 g/m*3 14.85 C 1.2 km/h
1671 31-08-2021 01:00:00 14.5 C 11.69 g/m*3 14.5 C 0.93333 km/h
1672 31-08-2021 02:00:00 13.71667 C 11.15 g/m*3 13.72 C 1.06667 km/h
1673 31-08-2021 03:00:00 13.33333 C 11 g/m*3 13.33 C 1.06667 km/h
1674 31-08-2021 04:00:00 12.925 C 10.72 g/m*3 12.93 C 1.6 km/h
1675 31-08-2021 05:00:00 12.40833 C 10.4 g/m*3 12.41 C 0.53333 km/h
Sensor: Nr:Datum:Temp:Abs-Feuchte:Windchill:Wind:
Aussen-T/F 1676 31-08-2021 06:00:00 12.15833 C 10.32 g/m*3 12.16 C 0.4 km/h
1677 31-08-2021 07:00:00 12.925 C 10.88 g/m*3 12.93 C 0 km/h
1678 31-08-2021 08:00:00 13.7 C 11.49 g/m*3 13.7 C 0 km/h
1679 31-08-2021 09:00:00 14.79167 C 12.27 g/m*3 14.79 C 0.26667 km/h
1680 31-08-2021 10:00:00 15.28333 C 12.33 g/m*3 15.28 C 5.35833 km/h
1681 31-08-2021 11:00:00 16.35833 C 12.38 g/m*3 16.36 C 5.21667 km/h
1682 31-08-2021 12:00:00 17.54167 C 12.6 g/m*3 17.54 C 7.38333 km/h
1683 31-08-2021 13:00:00 18.175 C 12.58 g/m*3 18.18 C 10.225 km/h
1684 31-08-2021 14:00:00 18.46667 C 12.51 g/m*3 18.47 C 13.83333 km/h
1685 31-08-2021 15:00:00 18.25833 C 12.19 g/m*3 18.26 C 11.55833 km/h
1686 31-08-2021 16:00:00 19.75833 C 12.85 g/m*3 19.76 C 8.475 km/h
1687 31-08-2021 17:00:00 21.65833 C 12.64 g/m*3 21.66 C 8.73333 km/h
1688 31-08-2021 18:00:00 21.56667 C 12.35 g/m*3 21.57 C 10.23333 km/h
1689 31-08-2021 19:00:00 20.06667 C 12.43 g/m*3 20.07 C 5.35 km/h
1690 31-08-2021 20:00:00 17.10833 C 11.98 g/m*3 17.11 C 5.35 km/h
1691 31-08-2021 21:00:00 15.075 C 11.41 g/m*3 15.08 C 2.4 km/h
1692 31-08-2021 22:00:00 14.05 C 11 g/m*3 14.05 C 0.26667 km/h
1693 31-08-2021 23:00:00 13.03333 C 10.48 g/m*3 13.03 C 0 km/h
1694 01-09-2021 00:00:00 12.25833 C 10.12 g/m*3 12.26 C 0.13333 km/h
1695 01-09-2021 01:00:00 12.1 C 10.11 g/m*3 12.1 C 0.13333 km/h
1696 01-09-2021 02:00:00 11.675 C 9.92 g/m*3 11.68 C 0.26667 km/h
1697 01-09-2021 03:00:00 12.18333 C 10.33 g/m*3 12.18 C 1.86667 km/h
1698 01-09-2021 04:00:00 13.09167 C 10.98 g/m*3 13.09 C 0.93333 km/h
1699 01-09-2021 05:00:00 13.6 C 11.3 g/m*3 13.6 C 0 km/h
1700 01-09-2021 06:00:00 13.51667 C 11.24 g/m*3 13.52 C 0 km/h
Sensor: Nr:Datum:Temp:Abs-Feuchte:Windchill:Wind:
Aussen-T/F 1701 01-09-2021 07:00:00 13.525 C 11.25 g/m*3 13.53 C 0 km/h
1702 01-09-2021 08:00:00 14.2 C 11.73 g/m*3 14.2 C 0 km/h
1703 01-09-2021 09:00:00 15.08333 C 12.2 g/m*3 15.08 C 0 km/h
1704 01-09-2021 10:00:00 16.05833 C 12.02 g/m*3 16.06 C 2.93333 km/h
1705 01-09-2021 11:00:00 16.84167 C 12.19 g/m*3 16.84 C 3.46667 km/h
1706 01-09-2021 12:00:00 17.575 C 12.01 g/m*3 17.58 C 4.40833 km/h
1707 01-09-2021 13:00:00 18.20833 C 11.57 g/m*3 18.21 C 6.84167 km/h
1708 01-09-2021 14:00:00 18.71667 C 11.35 g/m*3 18.72 C 7.65 km/h
1709 01-09-2021 15:00:00 18.9 C 11.33 g/m*3 18.9 C 6.85 km/h
1710 01-09-2021 16:00:00 18.91667 C 11.65 g/m*3 18.92 C 5.08333 km/h
1711 01-09-2021 17:00:00 19.46667 C 11.81 g/m*3 19.47 C 6.575 km/h
1712 01-09-2021 18:00:00 18.675 C 11.63 g/m*3 18.68 C 7.51667 km/h
1713 01-09-2021 19:00:00 18.00833 C 11.55 g/m*3 18.01 C 6.03333 km/h
1714 01-09-2021 20:00:00 15.60833 C 11.18 g/m*3 15.61 C 2.53333 km/h
1715 01-09-2021 21:00:00 13.6 C 10.6 g/m*3 13.6 C 1.33333 km/h
1716 01-09-2021 22:00:00 13.20833 C 10.66 g/m*3 13.21 C 1.33333 km/h
1717 01-09-2021 23:00:00 12.73333 C 10.42 g/m*3 12.73 C 0.8 km/h
1718 02-09-2021 00:00:00 11.98333 C 9.91 g/m*3 11.98 C 0 km/h
1719 02-09-2021 01:00:00 11.03333 C 9.42 g/m*3 11.03 C 0 km/h
1720 02-09-2021 02:00:00 10.50833 C 9.18 g/m*3 10.51 C 0 km/h
1721 02-09-2021 03:00:00 10.49167 C 9.23 g/m*3 10.49 C 0 km/h
1722 02-09-2021 04:00:00 11.15833 C 9.71 g/m*3 11.16 C 0 km/h
1723 02-09-2021 05:00:00 11.59167 C 9.97 g/m*3 11.59 C 0.26667 km/h
1724 02-09-2021 06:00:00 11.39167 C 9.85 g/m*3 11.39 C 1.06667 km/h
1725 02-09-2021 07:00:00 11.25 C 9.76 g/m*3 11.25 C 0.66667 km/h
Sensor: Nr:Datum:Temp:Abs-Feuchte:Windchill:Wind:
Aussen-T/F 1726 02-09-2021 08:00:00 11.49167 C 10.01 g/m*3 11.49 C 0.4 km/h
1727 02-09-2021 09:00:00 11.96667 C 10.32 g/m*3 11.97 C 1.06667 km/h
1728 02-09-2021 10:00:00 12.89167 C 10.91 g/m*3 12.89 C 1.86667 km/h
1729 02-09-2021 11:00:00 13.9 C 11.46 g/m*3 13.9 C 1.73333 km/h
1730 02-09-2021 12:00:00 15.65833 C 12.39 g/m*3 15.66 C 1.73333 km/h
1731 02-09-2021 13:00:00 18.175 C 13.11 g/m*3 18.18 C 1.86667 km/h
1732 02-09-2021 14:00:00 20.41667 C 13.56 g/m*3 20.42 C 4.41667 km/h
1733 02-09-2021 15:00:00 22.06667 C 12.71 g/m*3 22.07 C 8.875 km/h
1734 02-09-2021 16:00:00 23.44167 C 12.47 g/m*3 23.44 C 7.93333 km/h
1735 02-09-2021 17:00:00 25.45 C 13.1 g/m*3 25.45 C 6.45833 km/h
1736 02-09-2021 18:00:00 25.28333 C 14.77 g/m*3 25.28 C 3.34167 km/h
1737 02-09-2021 19:00:00 21.275 C 13.77 g/m*3 21.28 C 3.33333 km/h
1738 02-09-2021 20:00:00 17.75833 C 12.44 g/m*3 17.76 C 3.6 km/h
1739 02-09-2021 21:00:00 16.225 C 11.99 g/m*3 16.23 C 3.075 km/h
1740 02-09-2021 22:00:00 14.675 C 11.25 g/m*3 14.68 C 0 km/h
1741 02-09-2021 23:00:00 13.675 C 10.91 g/m*3 13.68 C 0.13333 km/h
1742 03-09-2021 00:00:00 12.95833 C 10.54 g/m*3 12.96 C 0 km/h
1743 03-09-2021 01:00:00 12.34167 C 10.22 g/m*3 12.34 C 0 km/h
1744 03-09-2021 02:00:00 11.83333 C 9.96 g/m*3 11.83 C 0 km/h
1745 03-09-2021 03:00:00 11.3 C 9.69 g/m*3 11.3 C 0 km/h
1746 03-09-2021 04:00:00 10.825 C 9.4 g/m*3 10.83 C 0 km/h
1747 03-09-2021 05:00:00 10.66667 C 9.36 g/m*3 10.67 C 0 km/h
1748 03-09-2021 06:00:00 11.20833 C 9.74 g/m*3 11.21 C 0 km/h
1749 03-09-2021 07:00:00 11.59167 C 9.97 g/m*3 11.59 C 0.66667 km/h
1750 03-09-2021 08:00:00 11.61667 C 10.03 g/m*3 11.62 C 0.13333 km/h
Sensor: Nr:Datum:Temp:Abs-Feuchte:Windchill:Wind:
Aussen-T/F 1751 03-09-2021 09:00:00 12.2 C 10.47 g/m*3 12.2 C 0.8 km/h
1752 03-09-2021 10:00:00 13.29 C 11.2 g/m*3 13.29 C 0.64 km/h
1753 03-09-2021 15:00:00 23.01111 C 13.39 g/m*3 23.01 C 5.17778 km/h
1754 03-09-2021 16:00:00 24.125 C 13.44 g/m*3 24.13 C 4.55 km/h
1755 03-09-2021 17:00:00 26.8 C 15.19 g/m*3 26.8 C 2.4 km/h
1756 03-09-2021 18:00:00 24.64167 C 15.13 g/m*3 24.64 C 4.8 km/h
1757 03-09-2021 19:00:00 21.71667 C 13.62 g/m*3 21.72 C 5.475 km/h
1758 03-09-2021 20:00:00 18.45 C 12.42 g/m*3 18.45 C 2.13333 km/h
1759 03-09-2021 21:00:00 16.325 C 12.03 g/m*3 16.33 C 0 km/h
1760 03-09-2021 22:00:00 15.04167 C 11.51 g/m*3 15.04 C 0 km/h
1761 03-09-2021 23:00:00 13.925 C 10.95 g/m*3 13.93 C 0 km/h
1762 04-09-2021 00:00:00 13.15 C 10.61 g/m*3 13.15 C 0 km/h
1763 04-09-2021 01:00:00 12.625 C 10.38 g/m*3 12.63 C 0 km/h
1764 04-09-2021 02:00:00 12.225 C 10.16 g/m*3 12.23 C 0 km/h
1765 04-09-2021 03:00:00 11.60833 C 9.81 g/m*3 11.61 C 0 km/h
1766 04-09-2021 04:00:00 11.3 C 9.69 g/m*3 11.3 C 0 km/h
1767 04-09-2021 05:00:00 10.925 C 9.46 g/m*3 10.93 C 0 km/h
1768 04-09-2021 06:00:00 10.49167 C 9.23 g/m*3 10.49 C 0 km/h
1769 04-09-2021 07:00:00 10.44167 C 9.28 g/m*3 10.44 C 0.26667 km/h
1770 04-09-2021 08:00:00 11.30833 C 9.87 g/m*3 11.31 C 0.13333 km/h
1771 04-09-2021 09:00:00 12.01667 C 10.35 g/m*3 12.02 C 0.66667 km/h
1772 04-09-2021 10:00:00 13.14167 C 11.1 g/m*3 13.14 C 0 km/h
1773 04-09-2021 11:00:00 15.10833 C 12.56 g/m*3 15.11 C 0 km/h
1774 04-09-2021 12:00:00 17.03333 C 14.04 g/m*3 17.03 C 0 km/h
1775 04-09-2021 13:00:00 19.60833 C 14.38 g/m*3 19.61 C 3.49167 km/h
Sensor: Nr:Datum:Temp:Abs-Feuchte:Windchill:Wind:
Aussen-T/F 1776 04-09-2021 14:00:00 23.025 C 13.31 g/m*3 23.03 C 6.01667 km/h
1777 04-09-2021 15:00:00 23.80833 C 12.93 g/m*3 23.81 C 2.80833 km/h
1778 04-09-2021 16:00:00 24.69167 C 14.12 g/m*3 24.69 C 2.26667 km/h
1779 04-09-2021 17:00:00 27.48333 C 15.86 g/m*3 27.48 C 1.86667 km/h
1780 04-09-2021 18:00:00 26.16667 C 15.81 g/m*3 26.17 C 2.8 km/h
1781 04-09-2021 19:00:00 22.375 C 14.51 g/m*3 22.38 C 3.73333 km/h
1782 04-09-2021 20:00:00 19.025 C 13.15 g/m*3 19.02 C 6.425 km/h
1783 04-09-2021 21:00:00 17.86667 C 13.12 g/m*3 17.87 C 4 km/h
1784 04-09-2021 22:00:00 17 C 12.77 g/m*3 17 C 0.93333 km/h
1785 04-09-2021 23:00:00 15.84167 C 12.28 g/m*3 15.84 C 0 km/h
1786 05-09-2021 00:00:00 15.06667 C 11.91 g/m*3 15.07 C 0.66667 km/h
1787 05-09-2021 01:00:00 14.475 C 11.57 g/m*3 14.48 C 0.13333 km/h
1788 05-09-2021 02:00:00 13.9 C 11.26 g/m*3 13.9 C 0 km/h
1789 05-09-2021 03:00:00 13.35833 C 10.93 g/m*3 13.36 C 0 km/h
1790 05-09-2021 04:00:00 12.86667 C 10.68 g/m*3 12.87 C 0 km/h
1791 05-09-2021 05:00:00 12.48333 C 10.43 g/m*3 12.48 C 0 km/h
1792 05-09-2021 06:00:00 12.00833 C 10.13 g/m*3 12.01 C 0 km/h
1793 05-09-2021 07:00:00 11.81667 C 10.09 g/m*3 11.82 C 0 km/h
1794 05-09-2021 08:00:00 12.18333 C 10.35 g/m*3 12.18 C 0 km/h
1795 05-09-2021 09:00:00 12.95833 C 10.93 g/m*3 12.96 C 0 km/h
1796 05-09-2021 10:00:00 14.45833 C 12.03 g/m*3 14.46 C 0.13333 km/h
1797 05-09-2021 11:00:00 16.075 C 13.28 g/m*3 16.08 C 0.13333 km/h
1798 05-09-2021 12:00:00 17.60833 C 14.43 g/m*3 17.61 C 0 km/h
1799 05-09-2021 13:00:00 19.84167 C 15.17 g/m*3 19.84 C 0.8 km/h
1800 05-09-2021 14:00:00 21.30833 C 15.39 g/m*3 21.31 C 1.73333 km/h
Sensor: Nr:Datum:Temp:Abs-Feuchte:Windchill:Wind:
Aussen-T/F 1801 05-09-2021 15:00:00 22.89167 C 15.73 g/m*3 22.89 C 0.93333 km/h
1802 05-09-2021 16:00:00 23.79167 C 15.48 g/m*3 23.79 C 1.33333 km/h
1803 05-09-2021 17:00:00 25.96667 C 16.61 g/m*3 25.97 C 1.33333 km/h
1804 05-09-2021 18:00:00 24.91667 C 15.77 g/m*3 24.92 C 3.73333 km/h
1805 05-09-2021 19:00:00 22.14167 C 14.24 g/m*3 22.14 C 4.8 km/h
1806 05-09-2021 20:00:00 18.56667 C 12.59 g/m*3 18.57 C 3.48333 km/h
1807 05-09-2021 21:00:00 16.625 C 11.83 g/m*3 16.63 C 0 km/h
1808 05-09-2021 22:00:00 15.63333 C 11.77 g/m*3 15.63 C 0 km/h
1809 05-09-2021 23:00:00 14.9 C 11.58 g/m*3 14.9 C 0 km/h
1810 06-09-2021 00:00:00 14.35 C 11.32 g/m*3 14.35 C 0 km/h
1811 06-09-2021 01:00:00 13.93333 C 11.2 g/m*3 13.93 C 0 km/h
1812 06-09-2021 02:00:00 13.38333 C 10.91 g/m*3 13.38 C 0 km/h
1813 06-09-2021 03:00:00 12.94167 C 10.67 g/m*3 12.94 C 0 km/h
1814 06-09-2021 04:00:00 12.625 C 10.53 g/m*3 12.63 C 0 km/h
1815 06-09-2021 05:00:00 12.325 C 10.33 g/m*3 12.33 C 0 km/h
1816 06-09-2021 06:00:00 12.08333 C 10.2 g/m*3 12.08 C 0 km/h
1817 06-09-2021 07:00:00 11.85 C 10.14 g/m*3 11.85 C 0 km/h
1818 06-09-2021 08:00:00 12.35 C 10.48 g/m*3 12.35 C 0 km/h
1819 06-09-2021 09:00:00 13.01667 C 10.95 g/m*3 13.02 C 0 km/h
1820 06-09-2021 10:00:00 14.55 C 12.1 g/m*3 14.55 C 0 km/h
1821 06-09-2021 11:00:00 15.98889 C 13.21 g/m*3 15.99 C 0.17778 km/h
1822 06-09-2021 12:00:00 17.35 C 14.23 g/m*3 17.35 C 0 km/h
1823 06-09-2021 13:00:00 19.38333 C 14.7 g/m*3 19.38 C 0 km/h
1824 06-09-2021 14:00:00 21.975 C 15.02 g/m*3 21.98 C 0.4 km/h
1825 06-09-2021 15:00:00 23.88333 C 15.65 g/m*3 23.88 C 3.08333 km/h
Sensor: Nr:Datum:Temp:Abs-Feuchte:Windchill:Wind:
Aussen-T/F 1826 06-09-2021 16:00:00 24.53333 C 16.09 g/m*3 24.53 C 3.34167 km/h
1827 06-09-2021 17:00:00 27.54167 C 15.29 g/m*3 27.54 C 4.4 km/h
1828 06-09-2021 18:00:00 26.08333 C 15.57 g/m*3 26.08 C 3.34167 km/h
1829 06-09-2021 19:00:00 21.51667 C 14.88 g/m*3 21.52 C 4.66667 km/h
1830 06-09-2021 20:00:00 19.36667 C 13.96 g/m*3 19.37 C 3.33333 km/h
1831 06-09-2021 21:00:00 18.425 C 13.63 g/m*3 18.43 C 0.93333 km/h
1832 06-09-2021 22:00:00 17.00833 C 12.96 g/m*3 17.01 C 0.53333 km/h
1833 06-09-2021 23:00:00 15.825 C 12.34 g/m*3 15.83 C 0 km/h
1834 07-09-2021 00:00:00 14.85833 C 11.82 g/m*3 14.86 C 0 km/h
1835 07-09-2021 01:00:00 14 C 11.31 g/m*3 14 C 0 km/h
1836 07-09-2021 02:00:00 13.50833 C 11.06 g/m*3 13.51 C 0 km/h
1837 07-09-2021 03:00:00 13 C 10.77 g/m*3 13 C 0 km/h
1838 07-09-2021 04:00:00 13.1 C 10.94 g/m*3 13.1 C 0.13333 km/h
1839 07-09-2021 05:00:00 12.93333 C 10.82 g/m*3 12.93 C 0 km/h
1840 07-09-2021 06:00:00 12.325 C 10.42 g/m*3 12.33 C 0 km/h
1841 07-09-2021 07:00:00 12.49167 C 10.57 g/m*3 12.49 C 0 km/h
1842 07-09-2021 08:00:00 13.175 C 11.11 g/m*3 13.18 C 0.53333 km/h
1843 07-09-2021 09:00:00 13.85 C 11.59 g/m*3 13.85 C 0.26667 km/h
1844 07-09-2021 10:00:00 16.98182 C 13.65 g/m*3 16.98 C 0 km/h
1845 07-09-2021 11:00:00 20.225 C 14.67 g/m*3 20.23 C 0 km/h
1846 07-09-2021 13:00:00 21.55455 C 14.74 g/m*3 21.55 C 0 km/h
1847 07-09-2021 14:00:00 22.5 C 13.98 g/m*3 22.5 C 1.06667 km/h
1848 07-09-2021 15:00:00 23.99167 C 13.75 g/m*3 23.99 C 0.66667 km/h
1849 07-09-2021 16:00:00 24.625 C 15.25 g/m*3 24.63 C 0 km/h
1850 07-09-2021 17:00:00 26.04167 C 16.88 g/m*3 26.04 C 0 km/h
Sensor: Nr:Datum:Temp:Abs-Feuchte:Windchill:Wind:
Aussen-T/F 1851 07-09-2021 18:00:00 23.98333 C 16.37 g/m*3 23.98 C 0 km/h
1852 07-09-2021 19:00:00 21.15 C 14.57 g/m*3 21.15 C 0 km/h
1853 07-09-2021 20:00:00 18.71667 C 13.21 g/m*3 18.72 C 3.6 km/h
1854 07-09-2021 21:00:00 17.46667 C 12.66 g/m*3 17.47 C 3.86667 km/h
1855 07-09-2021 22:00:00 16.56667 C 12.32 g/m*3 16.57 C 2.66667 km/h
1856 07-09-2021 23:00:00 15.85833 C 11.97 g/m*3 15.86 C 1.06667 km/h
1857 08-09-2021 00:00:00 15.09167 C 11.56 g/m*3 15.09 C 0 km/h
1858 08-09-2021 01:00:00 14.21667 C 11.19 g/m*3 14.22 C 0 km/h
1859 08-09-2021 02:00:00 13.675 C 11.01 g/m*3 13.68 C 0 km/h
1860 08-09-2021 03:00:00 13.23333 C 10.82 g/m*3 13.23 C 0 km/h
1861 08-09-2021 04:00:00 12.78333 C 10.54 g/m*3 12.78 C 0 km/h
1862 08-09-2021 05:00:00 12.425 C 10.4 g/m*3 12.43 C 0 km/h
1863 08-09-2021 06:00:00 12.03333 C 10.15 g/m*3 12.03 C 0 km/h
1864 08-09-2021 07:00:00 11.81667 C 10.05 g/m*3 11.82 C 0 km/h
1865 08-09-2021 08:00:00 12.14167 C 10.32 g/m*3 12.14 C 0 km/h
1866 08-09-2021 09:00:00 12.93333 C 10.88 g/m*3 12.93 C 0 km/h
1867 08-09-2021 10:00:00 13.96 C 11.67 g/m*3 13.96 C 0 km/h
1868 08-09-2021 11:00:00 16.775 C 13.81 g/m*3 16.77 C 1.4125 km/h
1869 08-09-2021 12:00:00 18.575 C 14.57 g/m*3 18.58 C 2.14167 km/h
1870 08-09-2021 13:00:00 21.35 C 14.86 g/m*3 21.35 C 2 km/h
1871 08-09-2021 14:00:00 23.725 C 13.42 g/m*3 23.73 C 7.525 km/h
1872 08-09-2021 15:00:00 25.03333 C 12.63 g/m*3 25.03 C 8.325 km/h
1873 08-09-2021 16:00:00 25.70833 C 13.05 g/m*3 25.71 C 5.49167 km/h
1874 08-09-2021 17:00:00 27.75833 C 15.27 g/m*3 27.76 C 2.275 km/h
1875 08-09-2021 18:00:00 25.71667 C 15.14 g/m*3 25.72 C 2.13333 km/h
Sensor: Nr:Datum:Temp:Abs-Feuchte:Windchill:Wind:
Aussen-T/F 1876 08-09-2021 19:00:00 21.96667 C 13.71 g/m*3 21.97 C 4.14167 km/h
1877 08-09-2021 20:00:00 18.925 C 12.64 g/m*3 18.93 C 3.74167 km/h
1878 08-09-2021 21:00:00 16.95 C 12.11 g/m*3 16.95 C 1.06667 km/h
1879 08-09-2021 22:00:00 15.74167 C 11.74 g/m*3 15.74 C 0 km/h
1880 08-09-2021 23:00:00 14.81667 C 11.37 g/m*3 14.82 C 0 km/h
1881 09-09-2021 00:00:00 14.15833 C 11.18 g/m*3 14.16 C 0 km/h
1882 09-09-2021 01:00:00 13.73333 C 10.98 g/m*3 13.73 C 0 km/h
1883 09-09-2021 02:00:00 13.33333 C 10.83 g/m*3 13.33 C 0 km/h
1884 09-09-2021 03:00:00 13.29167 C 10.88 g/m*3 13.29 C 0 km/h
1885 09-09-2021 04:00:00 12.975 C 10.69 g/m*3 12.98 C 0 km/h
1886 09-09-2021 05:00:00 12.59167 C 10.5 g/m*3 12.59 C 0 km/h
1887 09-09-2021 06:00:00 12.475 C 10.43 g/m*3 12.48 C 0 km/h
1888 09-09-2021 07:00:00 12.33 C 10.39 g/m*3 12.33 C 0 km/h
1889 09-09-2021 08:00:00 12.93333 C 10.84 g/m*3 12.93 C 0.4 km/h
1890 09-09-2021 09:00:00 13.85 C 11.56 g/m*3 13.85 C 0 km/h
1891 09-09-2021 10:00:00 15.28333 C 12.65 g/m*3 15.28 C 0.93333 km/h
1892 09-09-2021 11:00:00 17.84167 C 14.76 g/m*3 17.84 C 1.46667 km/h
1893 09-09-2021 12:00:00 21.25 C 15.81 g/m*3 21.25 C 9.15 km/h
1894 09-09-2021 13:00:00 23.14167 C 15.97 g/m*3 23.14 C 6.58333 km/h
1895 09-09-2021 14:00:00 24.46667 C 16.68 g/m*3 24.47 C 5.24167 km/h
1896 09-09-2021 15:00:00 24.94167 C 16.94 g/m*3 24.94 C 8.05 km/h
1897 09-09-2021 16:00:00 25.84167 C 16.81 g/m*3 25.84 C 13.03333 km/h
1898 09-09-2021 17:00:00 25.61667 C 16.78 g/m*3 25.62 C 9.675 km/h
1899 09-09-2021 18:00:00 24.275 C 17 g/m*3 24.28 C 4.55 km/h
1900 09-09-2021 19:00:00 21.98333 C 16.27 g/m*3 21.98 C 2.8 km/h
Sensor: Nr:Datum:Temp:Abs-Feuchte:Windchill:Wind:
Aussen-T/F 1901 09-09-2021 20:00:00 20.46667 C 15.63 g/m*3 20.47 C 2.13333 km/h
1902 09-09-2021 21:00:00 19.55 C 15.23 g/m*3 19.55 C 0.93333 km/h
1903 09-09-2021 22:00:00 19.33333 C 15.36 g/m*3 19.33 C 0 km/h
1904 09-09-2021 23:00:00 19.25833 C 15.39 g/m*3 19.26 C 0 km/h
1905 10-09-2021 00:00:00 18.61667 C 14.78 g/m*3 18.62 C 0 km/h
1906 10-09-2021 01:00:00 18.26667 C 14.66 g/m*3 18.27 C 0 km/h
1907 10-09-2021 02:00:00 18.4 C 14.93 g/m*3 18.4 C 0 km/h
1908 10-09-2021 03:00:00 18.30833 C 14.86 g/m*3 18.31 C 0 km/h
1909 10-09-2021 04:00:00 18.21667 C 14.78 g/m*3 18.22 C 0.4 km/h
1910 10-09-2021 05:00:00 18.21667 C 14.78 g/m*3 18.22 C 0 km/h
1911 10-09-2021 06:00:00 18.16667 C 14.74 g/m*3 18.17 C 0.13333 km/h
1912 10-09-2021 07:00:00 18.275 C 14.84 g/m*3 18.27 C 0.53333 km/h
1913 10-09-2021 08:00:00 18.725 C 15.39 g/m*3 18.73 C 0 km/h
1914 10-09-2021 09:00:00 19.46667 C 16.08 g/m*3 19.47 C 0.13333 km/h
1915 10-09-2021 10:00:00 20.01667 C 16.04 g/m*3 20.02 C 3.2 km/h
1916 10-09-2021 11:00:00 21.30833 C 16.29 g/m*3 21.31 C 5.75 km/h
1917 10-09-2021 12:00:00 22.80833 C 16.48 g/m*3 22.81 C 9.15 km/h
1918 10-09-2021 13:00:00 22.85 C 16.29 g/m*3 22.85 C 9.95 km/h
1919 10-09-2021 14:00:00 23.25833 C 16.36 g/m*3 23.26 C 6.3 km/h
1920 10-09-2021 15:00:00 23.96667 C 16.54 g/m*3 23.97 C 5.08333 km/h
1921 10-09-2021 16:00:00 23.49167 C 16.82 g/m*3 23.49 C 4.95833 km/h
1922 10-09-2021 17:00:00 24.43333 C 16.59 g/m*3 24.43 C 6.975 km/h
1923 10-09-2021 18:00:00 23.01667 C 15.89 g/m*3 23.02 C 4.83333 km/h
1924 10-09-2021 19:00:00 21.31667 C 15.66 g/m*3 21.32 C 6.84167 km/h
1925 10-09-2021 20:00:00 20 C 15.19 g/m*3 20 C 4.94167 km/h
Sensor: Nr:Datum:Temp:Abs-Feuchte:Windchill:Wind:
Aussen-T/F 1926 10-09-2021 21:00:00 19.525 C 14.97 g/m*3 19.52 C 5.63333 km/h
1927 10-09-2021 22:00:00 18.83333 C 14.62 g/m*3 18.83 C 5.08333 km/h
1928 10-09-2021 23:00:00 18.16667 C 14.26 g/m*3 18.17 C 0.53333 km/h
1929 11-09-2021 00:00:00 17.86667 C 14.17 g/m*3 17.87 C 0.13333 km/h
1930 11-09-2021 01:00:00 17.89167 C 14.31 g/m*3 17.89 C 2.95 km/h
1931 11-09-2021 02:00:00 18.15833 C 14.42 g/m*3 18.16 C 2.13333 km/h
1932 11-09-2021 03:00:00 17.81667 C 14.12 g/m*3 17.82 C 0.26667 km/h
1933 11-09-2021 04:00:00 17.75 C 14.22 g/m*3 17.75 C 0 km/h
1934 11-09-2021 05:00:00 17.61667 C 14.12 g/m*3 17.62 C 1.2 km/h
1935 11-09-2021 06:00:00 17.825 C 14.35 g/m*3 17.83 C 1.86667 km/h
1936 11-09-2021 07:00:00 17.83333 C 14.3 g/m*3 17.83 C 1.06667 km/h
1937 11-09-2021 08:00:00 18.16667 C 14.44 g/m*3 18.17 C 3.48333 km/h
1938 11-09-2021 09:00:00 18.14167 C 14.42 g/m*3 18.14 C 0.13333 km/h
1939 11-09-2021 10:00:00 18.4 C 14.47 g/m*3 18.4 C 0.26667 km/h
1940 11-09-2021 11:00:00 18.85833 C 14.6 g/m*3 18.86 C 1.6 km/h
1941 11-09-2021 12:00:00 20.275 C 15.59 g/m*3 20.27 C 0.4 km/h
1942 11-09-2021 13:00:00 20.93333 C 15.19 g/m*3 20.93 C 1.06667 km/h
1943 11-09-2021 14:00:00 21.20833 C 15.48 g/m*3 21.21 C 2.69167 km/h
1944 11-09-2021 15:00:00 22.39167 C 13.98 g/m*3 22.39 C 6.15833 km/h
1945 11-09-2021 16:00:00 22.38333 C 13.87 g/m*3 22.38 C 5.35 km/h
1946 11-09-2021 17:00:00 22.06667 C 14.29 g/m*3 22.07 C 2 km/h
1947 11-09-2021 18:00:00 22.46667 C 14.6 g/m*3 22.47 C 0.53333 km/h
1948 11-09-2021 19:00:00 21.65833 C 13.31 g/m*3 21.66 C 2.80833 km/h
1949 11-09-2021 20:00:00 18.23333 C 12.58 g/m*3 18.23 C 2.13333 km/h
1950 11-09-2021 21:00:00 16.49167 C 12.09 g/m*3 16.49 C 4.4 km/h
Sensor: Nr:Datum:Temp:Abs-Feuchte:Windchill:Wind:
Aussen-T/F 1951 11-09-2021 22:00:00 15.55833 C 11.86 g/m*3 15.56 C 1.2 km/h
1952 11-09-2021 23:00:00 14.86667 C 11.65 g/m*3 14.87 C 0 km/h
1953 12-09-2021 00:00:00 15.05833 C 11.97 g/m*3 15.06 C 0 km/h
1954 12-09-2021 01:00:00 15.54167 C 12.06 g/m*3 15.54 C 3.60833 km/h
1955 12-09-2021 02:00:00 15.09167 C 11.64 g/m*3 15.09 C 1.06667 km/h
1956 12-09-2021 03:00:00 13.95 C 11.07 g/m*3 13.95 C 0 km/h
1957 12-09-2021 04:00:00 13.325 C 10.84 g/m*3 13.33 C 0 km/h
1958 12-09-2021 05:00:00 12.74167 C 10.5 g/m*3 12.74 C 0 km/h
1959 12-09-2021 06:00:00 12.20833 C 10.24 g/m*3 12.21 C 0.66667 km/h
1960 12-09-2021 07:00:00 11.95 C 10.12 g/m*3 11.95 C 0.13333 km/h
1961 12-09-2021 08:00:00 13.00833 C 10.89 g/m*3 13.01 C 0.4 km/h
1962 12-09-2021 09:00:00 14.15 C 11.63 g/m*3 14.15 C 2.275 km/h
1963 12-09-2021 10:00:00 16.025 C 12.3 g/m*3 16.02 C 3.46667 km/h
1964 12-09-2021 11:00:00 17.55 C 12.6 g/m*3 17.55 C 5.35 km/h
1965 12-09-2021 12:00:00 18.90833 C 12.89 g/m*3 18.91 C 1.33333 km/h
1966 12-09-2021 13:00:00 20.21667 C 12.25 g/m*3 20.22 C 3.20833 km/h
1967 12-09-2021 14:00:00 21.6 C 11.55 g/m*3 21.6 C 7.38333 km/h
1968 12-09-2021 15:00:00 22.325 C 11.67 g/m*3 22.33 C 7.925 km/h
1969 12-09-2021 16:00:00 22.11667 C 12.98 g/m*3 22.12 C 2.13333 km/h
1970 12-09-2021 17:00:00 23 C 13.03 g/m*3 23 C 4.575 km/h
1971 12-09-2021 18:00:00 23.04167 C 12.79 g/m*3 23.04 C 3.075 km/h
1972 12-09-2021 19:00:00 19.49167 C 12.87 g/m*3 19.49 C 2.675 km/h
1973 12-09-2021 20:00:00 16.8 C 11.84 g/m*3 16.8 C 3.46667 km/h
1974 12-09-2021 21:00:00 15.5 C 11.4 g/m*3 15.5 C 3.46667 km/h
1975 12-09-2021 22:00:00 14.63333 C 11.1 g/m*3 14.63 C 0.66667 km/h
Sensor: Nr:Datum:Temp:Abs-Feuchte:Windchill:Wind:
Aussen-T/F 1976 12-09-2021 23:00:00 13.59167 C 10.62 g/m*3 13.59 C 0 km/h
1977 13-09-2021 00:00:00 12.725 C 10.28 g/m*3 12.73 C 0 km/h
1978 13-09-2021 01:00:00 12.2 C 10.05 g/m*3 12.2 C 0 km/h
1979 13-09-2021 02:00:00 11.73333 C 9.85 g/m*3 11.73 C 0 km/h
1980 13-09-2021 03:00:00 11.23333 C 9.57 g/m*3 11.23 C 0.13333 km/h
1981 13-09-2021 04:00:00 10.84167 C 9.41 g/m*3 10.84 C 0 km/h
1982 13-09-2021 05:00:00 10.45 C 9.18 g/m*3 10.45 C 0 km/h
1983 13-09-2021 06:00:00 10.09167 C 8.98 g/m*3 10.09 C 0 km/h
1984 13-09-2021 07:00:00 10.375 C 9.24 g/m*3 10.38 C 0 km/h
1985 13-09-2021 08:00:00 11.1 C 9.69 g/m*3 11.1 C 0.53333 km/h
1986 13-09-2021 09:00:00 11.7 C 10.1 g/m*3 11.7 C 0.53333 km/h
1987 13-09-2021 10:00:00 12.55 C 10.7 g/m*3 12.55 C 1.46667 km/h
1988 13-09-2021 11:00:00 13.83333 C 11.57 g/m*3 13.83 C 0.93333 km/h
1989 13-09-2021 12:00:00 16.025 C 12.85 g/m*3 16.02 C 0.26667 km/h
1990 13-09-2021 13:00:00 18.60833 C 12.71 g/m*3 18.61 C 2.4 km/h
1991 13-09-2021 14:00:00 20.38333 C 12.52 g/m*3 20.38 C 1.46667 km/h
1992 13-09-2021 15:00:00 21.50833 C 13.17 g/m*3 21.51 C 2.68333 km/h
1993 13-09-2021 16:00:00 21.98333 C 13.69 g/m*3 21.98 C 2.26667 km/h
1994 13-09-2021 17:00:00 22.125 C 14.92 g/m*3 22.13 C 0.8 km/h
1995 13-09-2021 18:00:00 22.36667 C 14.77 g/m*3 22.37 C 1.86667 km/h
1996 13-09-2021 19:00:00 18.375 C 12.56 g/m*3 18.38 C 3.2 km/h
1997 13-09-2021 20:00:00 16.175 C 11.77 g/m*3 16.18 C 3.06667 km/h
1998 13-09-2021 21:00:00 14.8 C 11.25 g/m*3 14.8 C 0 km/h
1999 13-09-2021 22:00:00 13.96667 C 10.92 g/m*3 13.97 C 0 km/h
2000 13-09-2021 23:00:00 13.35 C 10.71 g/m*3 13.35 C 0 km/h
Sensor: Nr:Datum:Temp:Abs-Feuchte:Windchill:Wind:
Aussen-T/F 2001 14-09-2021 00:00:00 13.06667 C 10.64 g/m*3 13.07 C 0 km/h
2002 14-09-2021 01:00:00 12.40833 C 10.28 g/m*3 12.41 C 0 km/h
2003 14-09-2021 02:00:00 12.11667 C 10.17 g/m*3 12.12 C 0 km/h
2004 14-09-2021 03:00:00 11.875 C 10.05 g/m*3 11.88 C 0 km/h
2005 14-09-2021 04:00:00 11.71667 C 9.95 g/m*3 11.72 C 0 km/h
2006 14-09-2021 05:00:00 11.275 C 9.69 g/m*3 11.28 C 0 km/h
2007 14-09-2021 06:00:00 10.90833 C 9.54 g/m*3 10.91 C 0 km/h
2008 14-09-2021 07:00:00 11 C 9.62 g/m*3 11 C 0 km/h
2009 14-09-2021 08:00:00 11.9 C 10.23 g/m*3 11.9 C 0.26667 km/h
2010 14-09-2021 09:00:00 12.775 C 10.85 g/m*3 12.78 C 0.13333 km/h
2011 14-09-2021 10:00:00 13.9 C 11.63 g/m*3 13.9 C 0 km/h
2012 14-09-2021 11:00:00 15.35 C 12.67 g/m*3 15.35 C 0.13333 km/h
2013 14-09-2021 12:00:00 17.45 C 14.17 g/m*3 17.45 C 0.13333 km/h
2014 14-09-2021 13:00:00 20.28333 C 15.7 g/m*3 20.28 C 1.86667 km/h
2015 14-09-2021 14:00:00 22 C 16.79 g/m*3 22 C 0.53333 km/h
2016 14-09-2021 15:00:00 22.96667 C 17.66 g/m*3 22.97 C 0.8 km/h
2017 14-09-2021 16:00:00 23.525 C 18.09 g/m*3 23.53 C 0.66667 km/h
2018 14-09-2021 17:00:00 23.53333 C 18.03 g/m*3 23.53 C 0.4 km/h
2019 14-09-2021 18:00:00 21.98333 C 16.85 g/m*3 21.98 C 1.86667 km/h
2020 14-09-2021 19:00:00 20.35 C 15.99 g/m*3 20.35 C 3.73333 km/h
2021 14-09-2021 20:00:00 19.33333 C 15.36 g/m*3 19.33 C 1.73333 km/h
2022 14-09-2021 21:00:00 18.925 C 15.1 g/m*3 18.93 C 1.46667 km/h
2023 14-09-2021 22:00:00 18.85833 C 15.19 g/m*3 18.86 C 2.13333 km/h
2024 14-09-2021 23:00:00 18.68333 C 15.03 g/m*3 18.68 C 0 km/h
2025 15-09-2021 00:00:00 18.18333 C 14.6 g/m*3 18.18 C 0.13333 km/h
Sensor: Nr:Datum:Temp:Abs-Feuchte:Windchill:Wind:
Aussen-T/F 2026 15-09-2021 01:00:00 17.575 C 14.15 g/m*3 17.58 C 0 km/h
2027 15-09-2021 02:00:00 17.475 C 14.14 g/m*3 17.48 C 0 km/h
2028 15-09-2021 03:00:00 17.5 C 14.24 g/m*3 17.5 C 0 km/h
2029 15-09-2021 04:00:00 17.21667 C 14.05 g/m*3 17.22 C 0 km/h
2030 15-09-2021 05:00:00 17.46667 C 14.28 g/m*3 17.47 C 0 km/h
2031 15-09-2021 06:00:00 17.53333 C 14.34 g/m*3 17.53 C 0 km/h
2032 15-09-2021 07:00:00 17.48333 C 14.31 g/m*3 17.48 C 0 km/h
2033 15-09-2021 08:00:00 18.04167 C 14.94 g/m*3 18.04 C 0 km/h
2034 15-09-2021 09:00:00 18.825 C 15.64 g/m*3 18.83 C 0 km/h
2035 15-09-2021 10:00:00 19.50833 C 16.29 g/m*3 19.51 C 0 km/h
2036 15-09-2021 11:00:00 20.24167 C 16.93 g/m*3 20.24 C 0 km/h
2037 15-09-2021 12:00:00 20.91667 C 17.27 g/m*3 20.92 C 0.26667 km/h
2038 15-09-2021 13:00:00 21.43333 C 17.31 g/m*3 21.43 C 4.3 km/h
2039 15-09-2021 14:00:00 21.64167 C 17.13 g/m*3 21.64 C 7.11667 km/h
2040 15-09-2021 15:00:00 21.94167 C 17.01 g/m*3 21.94 C 8.2 km/h
2041 15-09-2021 16:00:00 22.65833 C 16.95 g/m*3 22.66 C 10.5 km/h
2042 15-09-2021 17:00:00 22.49167 C 16.72 g/m*3 22.49 C 7.79167 km/h
2043 15-09-2021 18:00:00 20.40833 C 15.84 g/m*3 20.41 C 1.475 km/h
2044 15-09-2021 19:00:00 19.48333 C 15.56 g/m*3 19.48 C 0 km/h
2045 15-09-2021 20:00:00 18.94167 C 15.25 g/m*3 18.94 C 3.21667 km/h
2046 15-09-2021 21:00:00 18.28333 C 14.75 g/m*3 18.28 C 4.825 km/h
2047 15-09-2021 22:00:00 17.50833 C 14.15 g/m*3 17.51 C 3.86667 km/h
2048 15-09-2021 23:00:00 17.175 C 13.98 g/m*3 17.18 C 2.53333 km/h
2049 16-09-2021 00:00:00 17.03333 C 13.92 g/m*3 17.03 C 2.95 km/h
2050 16-09-2021 01:00:00 16.69167 C 13.64 g/m*3 16.69 C 2.4 km/h
Sensor: Nr:Datum:Temp:Abs-Feuchte:Windchill:Wind:
Aussen-T/F 2051 16-09-2021 02:00:00 16.45 C 13.44 g/m*3 16.45 C 0.53333 km/h
2052 16-09-2021 03:00:00 16.13333 C 13.19 g/m*3 16.13 C 1.2 km/h
2053 16-09-2021 04:00:00 15.70833 C 12.85 g/m*3 15.71 C 1.2 km/h
2054 16-09-2021 05:00:00 15.35833 C 12.61 g/m*3 15.36 C 6.175 km/h
2055 16-09-2021 06:00:00 15.075 C 12.05 g/m*3 15.08 C 10.21667 km/h
2056 16-09-2021 07:00:00 14.575 C 11.51 g/m*3 14.58 C 5.09167 km/h
2057 16-09-2021 08:00:00 13.76667 C 11.11 g/m*3 13.77 C 2.53333 km/h
2058 16-09-2021 09:00:00 13.75 C 11.17 g/m*3 13.75 C 4.56667 km/h
2059 16-09-2021 10:00:00 15.31667 C 11.54 g/m*3 15.32 C 5.625 km/h
2060 16-09-2021 11:00:00 16.19167 C 11.66 g/m*3 16.19 C 5.09167 km/h
2061 16-09-2021 12:00:00 17.075 C 12.02 g/m*3 17.08 C 3.33333 km/h
2062 16-09-2021 13:00:00 17.80833 C 12.19 g/m*3 17.81 C 2.66667 km/h
2063 16-09-2021 14:00:00 18.55833 C 12.2 g/m*3 18.56 C 6.16667 km/h
2064 16-09-2021 15:00:00 18.80833 C 12.18 g/m*3 18.81 C 5.60833 km/h
2065 16-09-2021 16:00:00 18.88333 C 12.33 g/m*3 18.88 C 6.025 km/h
2066 16-09-2021 17:00:00 18.68333 C 12.74 g/m*3 18.68 C 2 km/h
2067 16-09-2021 18:00:00 18.45833 C 12.26 g/m*3 18.46 C 3.6 km/h
2068 16-09-2021 19:00:00 17.69167 C 12.68 g/m*3 17.69 C 2.66667 km/h
2069 16-09-2021 20:00:00 15.625 C 11.67 g/m*3 15.63 C 7.25833 km/h
2070 16-09-2021 21:00:00 14.40833 C 11.19 g/m*3 14.41 C 2.13333 km/h
2071 16-09-2021 22:00:00 14.00833 C 11.22 g/m*3 14.01 C 0.26667 km/h
2072 16-09-2021 23:00:00 13.41667 C 10.9 g/m*3 13.42 C 0.66667 km/h
2073 17-09-2021 00:00:00 12.95 C 10.67 g/m*3 12.95 C 0.93333 km/h
2074 17-09-2021 01:00:00 12.53333 C 10.42 g/m*3 12.53 C 0.66667 km/h
2075 17-09-2021 02:00:00 11.68333 C 9.93 g/m*3 11.68 C 0.13333 km/h
Sensor: Nr:Datum:Temp:Abs-Feuchte:Windchill:Wind:
Aussen-T/F 2076 17-09-2021 03:00:00 11.18333 C 9.64 g/m*3 11.18 C 0.8 km/h
2077 17-09-2021 04:00:00 10.91667 C 9.49 g/m*3 10.92 C 0 km/h
2078 17-09-2021 05:00:00 11.10833 C 9.67 g/m*3 11.11 C 0 km/h
2079 17-09-2021 06:00:00 11.3 C 9.79 g/m*3 11.3 C 0 km/h
2080 17-09-2021 07:00:00 11.16667 C 9.71 g/m*3 11.17 C 0 km/h
2081 17-09-2021 08:00:00 11.60833 C 10.06 g/m*3 11.61 C 0 km/h
2082 17-09-2021 09:00:00 12.7 C 10.8 g/m*3 12.7 C 0 km/h
2083 17-09-2021 10:00:00 13.70833 C 11.36 g/m*3 13.71 C 0 km/h
2084 17-09-2021 11:00:00 14.99167 C 11.89 g/m*3 14.99 C 0 km/h
2085 17-09-2021 12:00:00 17.01667 C 12.5 g/m*3 17.02 C 0 km/h
2086 17-09-2021 13:00:00 18.45833 C 12.77 g/m*3 18.46 C 0.53333 km/h
2087 17-09-2021 14:00:00 18.89167 C 12.75 g/m*3 18.89 C 0 km/h
2088 17-09-2021 15:00:00 19.29167 C 12.61 g/m*3 19.29 C 0 km/h
2089 17-09-2021 16:00:00 19.425 C 13.31 g/m*3 19.43 C 0 km/h
2090 17-09-2021 17:00:00 20.64167 C 13.86 g/m*3 20.64 C 0.26667 km/h
2091 17-09-2021 18:00:00 18.98333 C 12.98 g/m*3 18.98 C 5.33333 km/h
2092 17-09-2021 19:00:00 16.975 C 12.33 g/m*3 16.98 C 5.75 km/h
2093 17-09-2021 20:00:00 15.18333 C 11.44 g/m*3 15.18 C 2.14167 km/h
2094 17-09-2021 21:00:00 13.89167 C 10.94 g/m*3 13.89 C 0 km/h
2095 17-09-2021 22:00:00 12.96667 C 10.53 g/m*3 12.97 C 0 km/h
2096 17-09-2021 23:00:00 12.36667 C 10.26 g/m*3 12.37 C 0.13333 km/h
2097 18-09-2021 00:00:00 12.08333 C 10.18 g/m*3 12.08 C 0 km/h
2098 18-09-2021 01:00:00 11.86667 C 10.04 g/m*3 11.87 C 0.13333 km/h
2099 18-09-2021 02:00:00 11.38333 C 9.76 g/m*3 11.38 C 0 km/h
2100 18-09-2021 03:00:00 10.9 C 9.5 g/m*3 10.9 C 0.13333 km/h
Sensor: Nr:Datum:Temp:Abs-Feuchte:Windchill:Wind:
Aussen-T/F 2101 18-09-2021 04:00:00 11.08333 C 9.66 g/m*3 11.08 C 0.13333 km/h
2102 18-09-2021 05:00:00 11.03333 C 9.63 g/m*3 11.03 C 0 km/h
2103 18-09-2021 06:00:00 10.81667 C 9.5 g/m*3 10.82 C 0 km/h
2104 18-09-2021 07:00:00 10.7 C 9.51 g/m*3 10.7 C 0 km/h
2105 18-09-2021 08:00:00 10.8 C 9.59 g/m*3 10.8 C 0 km/h
2106 18-09-2021 09:00:00 11.175 C 9.82 g/m*3 11.18 C 0.13333 km/h
2107 18-09-2021 10:00:00 11.75833 C 10.18 g/m*3 11.76 C 0 km/h
2108 18-09-2021 11:00:00 12.75833 C 10.84 g/m*3 12.76 C 0 km/h
2109 18-09-2021 12:00:00 14.76667 C 12.16 g/m*3 14.77 C 0 km/h
2110 18-09-2021 13:00:00 16.69167 C 12.87 g/m*3 16.69 C 0 km/h
2111 18-09-2021 14:00:00 18.925 C 12.74 g/m*3 18.93 C 0 km/h
2112 18-09-2021 15:00:00 20.525 C 12.99 g/m*3 20.53 C 0 km/h
2113 18-09-2021 16:00:00 20.94167 C 13.05 g/m*3 20.94 C 0 km/h
2114 18-09-2021 17:00:00 21.8 C 14.57 g/m*3 21.8 C 0 km/h
2115 18-09-2021 18:00:00 21.75833 C 14.58 g/m*3 21.76 C 0 km/h
2116 18-09-2021 19:00:00 18.08333 C 12.85 g/m*3 18.08 C 0.53333 km/h
2117 18-09-2021 20:00:00 15.95833 C 12 g/m*3 15.96 C 1.73333 km/h
2118 18-09-2021 21:00:00 15.1 C 11.75 g/m*3 15.1 C 0.4 km/h
2119 18-09-2021 22:00:00 14.58333 C 11.56 g/m*3 14.58 C 0.66667 km/h
2120 18-09-2021 23:00:00 14.18333 C 11.27 g/m*3 14.18 C 0.66667 km/h
2121 19-09-2021 00:00:00 13.275 C 10.68 g/m*3 13.28 C 1.06667 km/h
2122 19-09-2021 01:00:00 12.65833 C 10.4 g/m*3 12.66 C 1.46667 km/h
2123 19-09-2021 02:00:00 12.28333 C 10.16 g/m*3 12.28 C 1.86667 km/h
2124 19-09-2021 03:00:00 11.68333 C 9.83 g/m*3 11.68 C 2.53333 km/h
2125 19-09-2021 04:00:00 11.31667 C 9.69 g/m*3 11.32 C 0 km/h
Sensor: Nr:Datum:Temp:Abs-Feuchte:Windchill:Wind:
Aussen-T/F 2126 19-09-2021 05:00:00 10.76667 C 9.37 g/m*3 10.77 C 0 km/h
2127 19-09-2021 06:00:00 10.4 C 9.17 g/m*3 10.4 C 0 km/h
2128 19-09-2021 07:00:00 10.125 C 9.05 g/m*3 10.13 C 0 km/h
2129 19-09-2021 08:00:00 10.525 C 9.33 g/m*3 10.53 C 0 km/h
2130 19-09-2021 09:00:00 12.125 C 10.41 g/m*3 12.13 C 2.01667 km/h
2131 19-09-2021 10:00:00 12.91667 C 10.83 g/m*3 12.92 C 1.33333 km/h
2132 19-09-2021 11:00:00 14.375 C 11.39 g/m*3 14.38 C 2.94167 km/h
2133 19-09-2021 12:00:00 16.8 C 11.43 g/m*3 16.8 C 7.525 km/h
2134 19-09-2021 13:00:00 17.65 C 11.26 g/m*3 17.65 C 5.51667 km/h
2135 19-09-2021 14:00:00 18.29167 C 11.46 g/m*3 18.29 C 3.73333 km/h
2136 19-09-2021 15:00:00 18.8 C 11.5 g/m*3 18.8 C 7.5 km/h
2137 19-09-2021 16:00:00 19.01667 C 11.39 g/m*3 19.02 C 9.28333 km/h
2138 19-09-2021 17:00:00 19.45 C 11.78 g/m*3 19.45 C 6.3 km/h
2139 19-09-2021 18:00:00 19.60833 C 11.87 g/m*3 19.61 C 4.025 km/h
2140 19-09-2021 19:00:00 15.71667 C 10.96 g/m*3 15.72 C 0.4 km/h
2141 19-09-2021 20:00:00 13.44167 C 10.08 g/m*3 13.44 C 1.60833 km/h
2142 19-09-2021 21:00:00 12.11667 C 9.5 g/m*3 12.12 C 0 km/h
2143 19-09-2021 22:00:00 11.04167 C 9.17 g/m*3 11.04 C 0 km/h
2144 19-09-2021 23:00:00 11.39167 C 9.56 g/m*3 11.39 C 0 km/h
2145 20-09-2021 00:00:00 11.8 C 9.76 g/m*3 11.8 C 0 km/h
2146 20-09-2021 01:00:00 12 C 9.71 g/m*3 12 C 0 km/h
2147 20-09-2021 02:00:00 12.09167 C 9.6 g/m*3 12.09 C 0.13333 km/h
2148 20-09-2021 03:00:00 11.975 C 9.56 g/m*3 11.98 C 0 km/h
2149 20-09-2021 04:00:00 11.6 C 9.37 g/m*3 11.6 C 0 km/h
2150 20-09-2021 05:00:00 11.30833 C 9.29 g/m*3 11.31 C 0 km/h
Sensor: Nr:Datum:Temp:Abs-Feuchte:Windchill:Wind:
Aussen-T/F 2151 20-09-2021 06:00:00 11.325 C 9.23 g/m*3 11.33 C 0 km/h
2152 20-09-2021 07:00:00 11.45 C 9.28 g/m*3 11.45 C 0 km/h
2153 20-09-2021 08:00:00 11.76667 C 9.1 g/m*3 11.77 C 0 km/h
2154 20-09-2021 09:00:00 12.54167 C 9.1 g/m*3 12.54 C 0.93333 km/h
2155 20-09-2021 10:00:00 12.95 C 9.25 g/m*3 12.95 C 4.40833 km/h
2156 20-09-2021 11:00:00 13.79167 C 9.45 g/m*3 13.79 C 7.8 km/h
2157 20-09-2021 12:00:00 14.6 C 9.66 g/m*3 14.6 C 8.35 km/h
2158 20-09-2021 13:00:00 15.16667 C 9.89 g/m*3 15.17 C 6.84167 km/h
2159 20-09-2021 14:00:00 16.04167 C 10.23 g/m*3 16.04 C 7.80833 km/h
2160 20-09-2021 15:00:00 16.28333 C 10.34 g/m*3 16.28 C 7.25 km/h
2161 20-09-2021 16:00:00 16.26667 C 10.27 g/m*3 16.27 C 4.025 km/h
2162 20-09-2021 17:00:00 16.29167 C 10.35 g/m*3 16.29 C 1.73333 km/h
2163 20-09-2021 18:00:00 15.93333 C 10.88 g/m*3 15.93 C 0 km/h
2164 20-09-2021 19:00:00 14.71667 C 10.48 g/m*3 14.72 C 0 km/h
2165 20-09-2021 20:00:00 13.66667 C 9.9 g/m*3 13.67 C 0 km/h
2166 20-09-2021 21:00:00 13.075 C 9.64 g/m*3 13.08 C 0 km/h
2167 20-09-2021 22:00:00 12.75833 C 9.47 g/m*3 12.76 C 0 km/h
2168 20-09-2021 23:00:00 12.71667 C 9.41 g/m*3 12.72 C 0 km/h
2169 21-09-2021 00:00:00 12.25833 C 9.23 g/m*3 12.26 C 0 km/h
2170 21-09-2021 01:00:00 12.00833 C 8.95 g/m*3 12.01 C 0.26667 km/h
2171 21-09-2021 02:00:00 12.00833 C 8.48 g/m*3 12.01 C 1.6 km/h
2172 21-09-2021 03:00:00 12.34167 C 8.45 g/m*3 12.34 C 0 km/h
2173 21-09-2021 04:00:00 11.60833 C 8.52 g/m*3 11.61 C 0 km/h
2174 21-09-2021 05:00:00 11.06667 C 8.33 g/m*3 11.07 C 0 km/h
2175 21-09-2021 06:00:00 9.9 C 7.91 g/m*3 9.9 C 0 km/h
Sensor: Nr:Datum:Temp:Abs-Feuchte:Windchill:Wind:
Aussen-T/F 2176 21-09-2021 07:00:00 8.94167 C 7.76 g/m*3 8.94 C 0 km/h
2177 21-09-2021 08:00:00 8.4 C 7.71 g/m*3 8.4 C 0 km/h
2178 21-09-2021 09:00:00 8.40833 C 7.73 g/m*3 8.41 C 0 km/h
2179 21-09-2021 10:00:00 9.21667 C 8.27 g/m*3 9.22 C 0 km/h
2180 21-09-2021 11:00:00 10.95833 C 8.96 g/m*3 10.96 C 0 km/h
2181 21-09-2021 12:00:00 13.90833 C 8.82 g/m*3 13.91 C 1.075 km/h
2182 21-09-2021 13:00:00 15.93333 C 8.46 g/m*3 15.93 C 6.575 km/h
2183 21-09-2021 14:00:00 16.65 C 8.55 g/m*3 16.65 C 6.84167 km/h
2184 21-09-2021 15:00:00 16.64167 C 8.73 g/m*3 16.64 C 4.81667 km/h
2185 21-09-2021 16:00:00 16.83333 C 8.54 g/m*3 16.83 C 7.66667 km/h
2186 21-09-2021 17:00:00 17.26667 C 9.48 g/m*3 17.27 C 2.4 km/h
2187 21-09-2021 18:00:00 16.125 C 10.39 g/m*3 16.13 C 3.875 km/h
2188 21-09-2021 19:00:00 13.10833 C 8.99 g/m*3 13.11 C 8.08333 km/h
2189 21-09-2021 20:00:00 11.425 C 8.61 g/m*3 11.43 C 2.53333 km/h
2190 21-09-2021 21:00:00 10.10833 C 8.29 g/m*3 10.11 C 0 km/h
2191 21-09-2021 22:00:00 9.26667 C 8.1 g/m*3 9.27 C 0 km/h
2192 21-09-2021 23:00:00 8.825 C 8 g/m*3 8.82 C 0 km/h

Maximal/Minimal-Werte vom 22.06.2021 - 21.09.2021

Sensor Min Max Avg
Temp
(Aussen-T/F)
8.4 °C
21-09-2021  08:00:00
30.6 °C
12-08-2021  18:25:00
17.42 °C
Abs-Feuchte
(Aussen-T/F)
7.71 g/m*3
21-09-2021  08:00:00
18.8 g/m*3
28-06-2021  16:00:00
12.78 g/m*3
Windchill
(Aussen-T/F)
8.4 C
21-09-2021  08:00:00
30.03 C
12-08-2021  18:00:00
17.42 C

Die Daten stammen von einer Davis Vantage Pro 2 Wetter-Station und werden unter Linux mit der Software wview2wettercgi und aufbereitet. Alle Angaben erfolgen ohne Gewähr für ihre Vollständigkeit oder Richtigkeit.
Kontakt: Rainer Krienke krienke@uni-koblenz.de . Meine Webseiten an der Uni Koblenz oder privat.
Version: $Revision: 0.78 $